﻿<?xml version="1.0" encoding="utf-8"?><gpx creator="Garmin Desktop App" version="1.1" xsi:schemaLocation="http://www.topografix.com/GPX/1/1 http://www.topografix.com/GPX/1/1/gpx.xsd http://www.garmin.com/xmlschemas/WaypointExtension/v1 http://www8.garmin.com/xmlschemas/WaypointExtensionv1.xsd http://www.garmin.com/xmlschemas/TrackPointExtension/v1 http://www.garmin.com/xmlschemas/TrackPointExtensionv1.xsd http://www.garmin.com/xmlschemas/GpxExtensions/v3 http://www8.garmin.com/xmlschemas/GpxExtensionsv3.xsd http://www.garmin.com/xmlschemas/ActivityExtension/v1 http://www8.garmin.com/xmlschemas/ActivityExtensionv1.xsd http://www.garmin.com/xmlschemas/AdventuresExtensions/v1 http://www8.garmin.com/xmlschemas/AdventuresExtensionv1.xsd http://www.garmin.com/xmlschemas/PressureExtension/v1 http://www.garmin.com/xmlschemas/PressureExtensionv1.xsd http://www.garmin.com/xmlschemas/TripExtensions/v1 http://www.garmin.com/xmlschemas/TripExtensionsv1.xsd http://www.garmin.com/xmlschemas/TripMetaDataExtensions/v1 http://www.garmin.com/xmlschemas/TripMetaDataExtensionsv1.xsd http://www.garmin.com/xmlschemas/ViaPointTransportationModeExtensions/v1 http://www.garmin.com/xmlschemas/ViaPointTransportationModeExtensionsv1.xsd http://www.garmin.com/xmlschemas/CreationTimeExtension/v1 http://www.garmin.com/xmlschemas/CreationTimeExtensionsv1.xsd http://www.garmin.com/xmlschemas/AccelerationExtension/v1 http://www.garmin.com/xmlschemas/AccelerationExtensionv1.xsd http://www.garmin.com/xmlschemas/PowerExtension/v1 http://www.garmin.com/xmlschemas/PowerExtensionv1.xsd http://www.garmin.com/xmlschemas/VideoExtension/v1 http://www.garmin.com/xmlschemas/VideoExtensionv1.xsd" xmlns="http://www.topografix.com/GPX/1/1" xmlns:xsi="http://www.w3.org/2001/XMLSchema-instance" xmlns:wptx1="http://www.garmin.com/xmlschemas/WaypointExtension/v1" xmlns:gpxtrx="http://www.garmin.com/xmlschemas/GpxExtensions/v3" xmlns:gpxtpx="http://www.garmin.com/xmlschemas/TrackPointExtension/v1" xmlns:gpxx="http://www.garmin.com/xmlschemas/GpxExtensions/v3" xmlns:trp="http://www.garmin.com/xmlschemas/TripExtensions/v1" xmlns:adv="http://www.garmin.com/xmlschemas/AdventuresExtensions/v1" xmlns:prs="http://www.garmin.com/xmlschemas/PressureExtension/v1" xmlns:tmd="http://www.garmin.com/xmlschemas/TripMetaDataExtensions/v1" xmlns:vptm="http://www.garmin.com/xmlschemas/ViaPointTransportationModeExtensions/v1" xmlns:ctx="http://www.garmin.com/xmlschemas/CreationTimeExtension/v1" xmlns:gpxacc="http://www.garmin.com/xmlschemas/AccelerationExtension/v1" xmlns:gpxpx="http://www.garmin.com/xmlschemas/PowerExtension/v1" xmlns:vidx1="http://www.garmin.com/xmlschemas/VideoExtension/v1">

  <metadata>
    <link href="http://www.garmin.com">
      <text>Garmin International</text>
    </link>
    <time>2020-03-05T09:31:39Z</time>
    <bounds maxlat="51.301846811547875" maxlon="4.871419714763761" minlat="51.273431573063135" minlon="4.797088829800487" />
  </metadata>

  <trk>
    <name>gierle lus hestia 22 km</name>
    <extensions>
      <gpxx:TrackExtension>
        <gpxx:DisplayColor>Magenta</gpxx:DisplayColor>
      </gpxx:TrackExtension>
    </extensions>
    <trkseg>
      <trkpt lat="51.285966038703918" lon="4.852402685210109">
        <ele>27.530000000000001</ele>
        <time>2016-11-18T12:14:15Z</time>
      </trkpt>
      <trkpt lat="51.28595782443881" lon="4.852336719632149">
        <ele>27.530000000000001</ele>
        <time>2016-11-18T12:14:19Z</time>
      </trkpt>
      <trkpt lat="51.285957656800747" lon="4.852282237261534">
        <ele>28.5</ele>
        <time>2016-11-18T12:14:23Z</time>
      </trkpt>
      <trkpt lat="51.286010043695569" lon="4.852136811241508">
        <ele>28.02</ele>
        <time>2016-11-18T12:14:33Z</time>
      </trkpt>
      <trkpt lat="51.286146836355329" lon="4.852014435455203">
        <ele>27.050000000000001</ele>
        <time>2016-11-18T12:14:46Z</time>
      </trkpt>
      <trkpt lat="51.286175083369017" lon="4.85200010240078">
        <ele>27.530000000000001</ele>
        <time>2016-11-18T12:14:49Z</time>
      </trkpt>
      <trkpt lat="51.28627591766417" lon="4.851907733827829">
        <ele>28.02</ele>
        <time>2016-11-18T12:15:02Z</time>
      </trkpt>
      <trkpt lat="51.286312462761998" lon="4.851811174303293">
        <ele>27.530000000000001</ele>
        <time>2016-11-18T12:15:08Z</time>
      </trkpt>
      <trkpt lat="51.28637264482677" lon="4.851813102141023">
        <ele>28.02</ele>
        <time>2016-11-18T12:15:12Z</time>
      </trkpt>
      <trkpt lat="51.28640147857368" lon="4.85180857591331">
        <ele>28.5</ele>
        <time>2016-11-18T12:15:14Z</time>
      </trkpt>
      <trkpt lat="51.286507677286863" lon="4.851803965866566">
        <ele>27.530000000000001</ele>
        <time>2016-11-18T12:15:22Z</time>
      </trkpt>
      <trkpt lat="51.286632316187024" lon="4.851810587570071">
        <ele>28.02</ele>
        <time>2016-11-18T12:15:31Z</time>
      </trkpt>
      <trkpt lat="51.286698449403048" lon="4.851842522621155">
        <ele>27.530000000000001</ele>
        <time>2016-11-18T12:15:36Z</time>
      </trkpt>
      <trkpt lat="51.286841193214059" lon="4.851983841508627">
        <ele>27.050000000000001</ele>
        <time>2016-11-18T12:15:51Z</time>
      </trkpt>
      <trkpt lat="51.286933561787009" lon="4.852067660540342">
        <ele>27.530000000000001</ele>
        <time>2016-11-18T12:15:58Z</time>
      </trkpt>
      <trkpt lat="51.287042442709208" lon="4.852183749899268">
        <ele>28.02</ele>
        <time>2016-11-18T12:16:06Z</time>
      </trkpt>
      <trkpt lat="51.287235729396343" lon="4.852499831467867">
        <ele>28.02</ele>
        <time>2016-11-18T12:16:22Z</time>
      </trkpt>
      <trkpt lat="51.287378557026386" lon="4.852655818685889">
        <ele>28.5</ele>
        <time>2016-11-18T12:16:34Z</time>
      </trkpt>
      <trkpt lat="51.287421388551593" lon="4.852719940245152">
        <ele>28.5</ele>
        <time>2016-11-18T12:16:40Z</time>
      </trkpt>
      <trkpt lat="51.28748768940568" lon="4.852819433435798">
        <ele>28.5</ele>
        <time>2016-11-18T12:16:44Z</time>
      </trkpt>
      <trkpt lat="51.287527587264776" lon="4.852863270789385">
        <ele>28.98</ele>
        <time>2016-11-18T12:16:46Z</time>
      </trkpt>
      <trkpt lat="51.287602186203003" lon="4.853017497807741">
        <ele>28.02</ele>
        <time>2016-11-18T12:16:54Z</time>
      </trkpt>
      <trkpt lat="51.287768399342895" lon="4.853195361793041">
        <ele>28.5</ele>
        <time>2016-11-18T12:17:09Z</time>
      </trkpt>
      <trkpt lat="51.287975935265422" lon="4.853385966271162">
        <ele>28.98</ele>
        <time>2016-11-18T12:17:22Z</time>
      </trkpt>
      <trkpt lat="51.288010971620679" lon="4.853502977639437">
        <ele>28.5</ele>
        <time>2016-11-18T12:17:26Z</time>
      </trkpt>
      <trkpt lat="51.289180917665362" lon="4.851397192105651">
        <ele>20.1171875</ele>
      </trkpt>
      <trkpt lat="51.289356099441648" lon="4.851397192105651">
        <ele>20.1171875</ele>
      </trkpt>
      <trkpt lat="51.290716985240579" lon="4.854146623983979">
        <ele>21.03125</ele>
      </trkpt>
      <trkpt lat="51.291215624660254" lon="4.855423858389258">
        <ele>21.03125</ele>
      </trkpt>
      <trkpt lat="51.291552493348718" lon="4.856246542185545">
        <ele>21.03125</ele>
      </trkpt>
      <trkpt lat="51.291370522230864" lon="4.856353076174855">
        <ele>31.859999999999999</ele>
        <time>2016-11-18T12:29:13Z</time>
      </trkpt>
      <trkpt lat="51.291375886648893" lon="4.856365900486708">
        <ele>31.859999999999999</ele>
        <time>2016-11-18T12:29:14Z</time>
      </trkpt>
      <trkpt lat="51.291364906355739" lon="4.856372103095055">
        <ele>31.379999999999999</ele>
        <time>2016-11-18T12:29:15Z</time>
      </trkpt>
      <trkpt lat="51.291349902749062" lon="4.85637528821826">
        <ele>31.379999999999999</ele>
        <time>2016-11-18T12:29:16Z</time>
      </trkpt>
      <trkpt lat="51.291229957714677" lon="4.856347208842635">
        <ele>31.379999999999999</ele>
        <time>2016-11-18T12:29:20Z</time>
      </trkpt>
      <trkpt lat="51.291204392910004" lon="4.856341257691383">
        <ele>31.859999999999999</ele>
        <time>2016-11-18T12:29:21Z</time>
      </trkpt>
      <trkpt lat="51.291184863075614" lon="4.856329523026943">
        <ele>31.379999999999999</ele>
        <time>2016-11-18T12:29:22Z</time>
      </trkpt>
      <trkpt lat="51.291164997965097" lon="4.856297420337796">
        <ele>31.859999999999999</ele>
        <time>2016-11-18T12:29:23Z</time>
      </trkpt>
      <trkpt lat="51.29114119336009" lon="4.85629566013813">
        <ele>31.859999999999999</ele>
        <time>2016-11-18T12:29:24Z</time>
      </trkpt>
      <trkpt lat="51.29111286252737" lon="4.856304377317429">
        <ele>31.859999999999999</ele>
        <time>2016-11-18T12:29:25Z</time>
      </trkpt>
      <trkpt lat="51.291079083457589" lon="4.856329187750816">
        <ele>31.859999999999999</ele>
        <time>2016-11-18T12:29:26Z</time>
      </trkpt>
      <trkpt lat="51.290732575580478" lon="4.856469165533781">
        <ele>32.340000000000003</ele>
        <time>2016-11-18T12:29:35Z</time>
      </trkpt>
      <trkpt lat="51.290391264483333" lon="4.856659602373838">
        <ele>32.340000000000003</ele>
        <time>2016-11-18T12:29:45Z</time>
      </trkpt>
      <trkpt lat="51.290324795991182" lon="4.85683998093009">
        <ele>32.340000000000003</ele>
        <time>2016-11-18T12:29:49Z</time>
      </trkpt>
      <trkpt lat="51.290329657495022" lon="4.856880968436599">
        <ele>32.340000000000003</ele>
        <time>2016-11-18T12:29:50Z</time>
      </trkpt>
      <trkpt lat="51.290512550622225" lon="4.857336608693004">
        <ele>31.859999999999999</ele>
        <time>2016-11-18T12:30:02Z</time>
      </trkpt>
      <trkpt lat="51.290688319131732" lon="4.857669286429882">
        <ele>31.859999999999999</ele>
        <time>2016-11-18T12:30:13Z</time>
      </trkpt>
      <trkpt lat="51.290901890024543" lon="4.858045382425189">
        <ele>31.859999999999999</ele>
        <time>2016-11-18T12:30:25Z</time>
      </trkpt>
      <trkpt lat="51.291156113147736" lon="4.858598839491606">
        <ele>31.379999999999999</ele>
        <time>2016-11-18T12:30:37Z</time>
      </trkpt>
      <trkpt lat="51.291338754817843" lon="4.858970744535327">
        <ele>32.340000000000003</ele>
        <time>2016-11-18T12:30:45Z</time>
      </trkpt>
      <trkpt lat="51.291687777265906" lon="4.859738862141967">
        <ele>31.859999999999999</ele>
        <time>2016-11-18T12:30:56Z</time>
      </trkpt>
      <trkpt lat="51.291734632104635" lon="4.859822764992714">
        <ele>31.859999999999999</ele>
        <time>2016-11-18T12:30:57Z</time>
      </trkpt>
      <trkpt lat="51.292024310678244" lon="4.860359625890851">
        <ele>32.340000000000003</ele>
        <time>2016-11-18T12:31:06Z</time>
      </trkpt>
      <trkpt lat="51.292232181876898" lon="4.860782492905855">
        <ele>31.859999999999999</ele>
        <time>2016-11-18T12:31:16Z</time>
      </trkpt>
      <trkpt lat="51.292511634528637" lon="4.861371489241719">
        <ele>31.859999999999999</ele>
        <time>2016-11-18T12:31:28Z</time>
      </trkpt>
      <trkpt lat="51.292965263128281" lon="4.862115466967225">
        <ele>32.82</ele>
        <time>2016-11-18T12:31:40Z</time>
      </trkpt>
      <trkpt lat="51.293207751587033" lon="4.862678647041321">
        <ele>30.899999999999999</ele>
        <time>2016-11-18T12:31:52Z</time>
      </trkpt>
      <trkpt lat="51.293017733842134" lon="4.862833628430963">
        <ele>31.379999999999999</ele>
        <time>2016-11-18T12:31:54Z</time>
      </trkpt>
      <trkpt lat="51.292915306985378" lon="4.863053234294057">
        <ele>30.899999999999999</ele>
        <time>2016-11-18T12:32:09Z</time>
      </trkpt>
      <trkpt lat="51.293089566752315" lon="4.863439472392201">
        <ele>30.899999999999999</ele>
        <time>2016-11-18T12:32:20Z</time>
      </trkpt>
      <trkpt lat="51.293111275881529" lon="4.863485069945455">
        <ele>30.899999999999999</ele>
        <time>2016-11-18T12:32:21Z</time>
      </trkpt>
      <trkpt lat="51.293269023299217" lon="4.863783130422235">
        <ele>31.859999999999999</ele>
        <time>2016-11-18T12:32:28Z</time>
      </trkpt>
      <trkpt lat="51.293296767398715" lon="4.863831494003534">
        <ele>30.899999999999999</ele>
        <time>2016-11-18T12:32:29Z</time>
      </trkpt>
      <trkpt lat="51.29332534968853" lon="4.863879103213549">
        <ele>31.379999999999999</ele>
        <time>2016-11-18T12:32:30Z</time>
      </trkpt>
      <trkpt lat="51.293578399345279" lon="4.864384448155761">
        <ele>30.899999999999999</ele>
        <time>2016-11-18T12:32:41Z</time>
      </trkpt>
      <trkpt lat="51.293646208941936" lon="4.864528784528375">
        <ele>31.859999999999999</ele>
        <time>2016-11-18T12:32:44Z</time>
      </trkpt>
      <trkpt lat="51.293915770947933" lon="4.865072183310986">
        <ele>33.299999999999997</ele>
        <time>2016-11-18T12:32:54Z</time>
      </trkpt>
      <trkpt lat="51.294005205854774" lon="4.865207467228174">
        <ele>31.859999999999999</ele>
        <time>2016-11-18T12:32:57Z</time>
      </trkpt>
      <trkpt lat="51.294059352949262" lon="4.865296147763729">
        <ele>32.82</ele>
        <time>2016-11-18T12:32:59Z</time>
      </trkpt>
      <trkpt lat="51.294084247201681" lon="4.865386504679918">
        <ele>33.299999999999997</ele>
        <time>2016-11-18T12:33:00Z</time>
      </trkpt>
      <trkpt lat="51.294091120362282" lon="4.865452302619815">
        <ele>31.859999999999999</ele>
        <time>2016-11-18T12:33:01Z</time>
      </trkpt>
      <trkpt lat="51.294156918302178" lon="4.86591381020844">
        <ele>30.899999999999999</ele>
        <time>2016-11-18T12:33:10Z</time>
      </trkpt>
      <trkpt lat="51.294428324326873" lon="4.866384454071522">
        <ele>30.899999999999999</ele>
        <time>2016-11-18T12:33:21Z</time>
      </trkpt>
      <trkpt lat="51.294524883851409" lon="4.866510014981031">
        <ele>30.420000000000002</ele>
        <time>2016-11-18T12:33:24Z</time>
      </trkpt>
      <trkpt lat="51.294876672327518" lon="4.866983341053128">
        <ele>31.859999999999999</ele>
        <time>2016-11-18T12:33:33Z</time>
      </trkpt>
      <trkpt lat="51.295014722272754" lon="4.867166988551617">
        <ele>31.859999999999999</ele>
        <time>2016-11-18T12:33:45Z</time>
      </trkpt>
      <trkpt lat="51.295202728360891" lon="4.867371674627066">
        <ele>32.82</ele>
        <time>2016-11-18T12:34:01Z</time>
      </trkpt>
      <trkpt lat="51.295226532965899" lon="4.867410734295845">
        <ele>32.82</ele>
        <time>2016-11-18T12:34:03Z</time>
      </trkpt>
      <trkpt lat="51.295236255973577" lon="4.867423726245761">
        <ele>32.340000000000003</ele>
        <time>2016-11-18T12:34:04Z</time>
      </trkpt>
      <trkpt lat="51.295250086113811" lon="4.86743981949985">
        <ele>33.299999999999997</ele>
        <time>2016-11-18T12:34:05Z</time>
      </trkpt>
      <trkpt lat="51.295264083892107" lon="4.867457756772637">
        <ele>33.780000000000001</ele>
        <time>2016-11-18T12:34:06Z</time>
      </trkpt>
      <trkpt lat="51.295278165489435" lon="4.867471670731902">
        <ele>33.299999999999997</ele>
        <time>2016-11-18T12:34:07Z</time>
      </trkpt>
      <trkpt lat="51.295291744172573" lon="4.867484411224723">
        <ele>33.299999999999997</ele>
        <time>2016-11-18T12:34:08Z</time>
      </trkpt>
      <trkpt lat="51.295313118025661" lon="4.867504946887493">
        <ele>32.340000000000003</ele>
        <time>2016-11-18T12:34:10Z</time>
      </trkpt>
      <trkpt lat="51.295344466343522" lon="4.867533193901181">
        <ele>33.299999999999997</ele>
        <time>2016-11-18T12:34:13Z</time>
      </trkpt>
      <trkpt lat="51.29536148160696" lon="4.867542246356607">
        <ele>33.299999999999997</ele>
        <time>2016-11-18T12:34:14Z</time>
      </trkpt>
      <trkpt lat="51.295397439971566" lon="4.867594633251429">
        <ele>32.82</ele>
        <time>2016-11-18T12:34:18Z</time>
      </trkpt>
      <trkpt lat="51.295451000332832" lon="4.867640733718872">
        <ele>31.859999999999999</ele>
        <time>2016-11-18T12:34:23Z</time>
      </trkpt>
      <trkpt lat="51.295462232083082" lon="4.867650372907519">
        <ele>31.379999999999999</ele>
        <time>2016-11-18T12:34:24Z</time>
      </trkpt>
      <trkpt lat="51.295506153255701" lon="4.867730755358934">
        <ele>33.299999999999997</ele>
        <time>2016-11-18T12:34:31Z</time>
      </trkpt>
      <trkpt lat="51.295491987839341" lon="4.867733605206013">
        <ele>31.379999999999999</ele>
        <time>2016-11-18T12:34:36Z</time>
      </trkpt>
      <trkpt lat="51.295566167682409" lon="4.86783460713923">
        <ele>31.859999999999999</ele>
        <time>2016-11-18T12:34:54Z</time>
      </trkpt>
      <trkpt lat="51.29580513574183" lon="4.86810483969748">
        <ele>31.379999999999999</ele>
        <time>2016-11-18T12:35:04Z</time>
      </trkpt>
      <trkpt lat="51.296154409646988" lon="4.868535166606307">
        <ele>30.899999999999999</ele>
        <time>2016-11-18T12:35:16Z</time>
      </trkpt>
      <trkpt lat="51.29649848677218" lon="4.868901874870062">
        <ele>30.899999999999999</ele>
        <time>2016-11-18T12:35:28Z</time>
      </trkpt>
      <trkpt lat="51.296757655218244" lon="4.869275288656354">
        <ele>31.379999999999999</ele>
        <time>2016-11-18T12:35:40Z</time>
      </trkpt>
      <trkpt lat="51.296945158392191" lon="4.869866296648979">
        <ele>31.379999999999999</ele>
        <time>2016-11-18T12:35:51Z</time>
      </trkpt>
      <trkpt lat="51.297193765640259" lon="4.870742037892342">
        <ele>30.899999999999999</ele>
        <time>2016-11-18T12:36:02Z</time>
      </trkpt>
      <trkpt lat="51.297295186668634" lon="4.871070608496666">
        <ele>30.899999999999999</ele>
        <time>2016-11-18T12:36:08Z</time>
      </trkpt>
      <trkpt lat="51.297312369570136" lon="4.871113942936063">
        <ele>30.899999999999999</ele>
        <time>2016-11-18T12:36:09Z</time>
      </trkpt>
      <trkpt lat="51.297328546643257" lon="4.871150907129049">
        <ele>30.420000000000002</ele>
        <time>2016-11-18T12:36:10Z</time>
      </trkpt>
      <trkpt lat="51.297368947416544" lon="4.871243527159095">
        <ele>30.899999999999999</ele>
        <time>2016-11-18T12:36:15Z</time>
      </trkpt>
      <trkpt lat="51.297391913831234" lon="4.871267750859261">
        <ele>31.379999999999999</ele>
        <time>2016-11-18T12:36:17Z</time>
      </trkpt>
      <trkpt lat="51.297545218840241" lon="4.871324747800827">
        <ele>31.379999999999999</ele>
        <time>2016-11-18T12:36:30Z</time>
      </trkpt>
      <trkpt lat="51.297695925459266" lon="4.871319383382797">
        <ele>32.340000000000003</ele>
        <time>2016-11-18T12:36:42Z</time>
      </trkpt>
      <trkpt lat="51.297709168866277" lon="4.871321730315685">
        <ele>30.899999999999999</ele>
        <time>2016-11-18T12:36:43Z</time>
      </trkpt>
      <trkpt lat="51.297941766679287" lon="4.871360203251243">
        <ele>30.899999999999999</ele>
        <time>2016-11-18T12:37:00Z</time>
      </trkpt>
      <trkpt lat="51.298145279288292" lon="4.871389791369438">
        <ele>32.340000000000003</ele>
        <time>2016-11-18T12:37:15Z</time>
      </trkpt>
      <trkpt lat="51.298406040295959" lon="4.871419714763761">
        <ele>31.379999999999999</ele>
        <time>2016-11-18T12:37:33Z</time>
      </trkpt>
      <trkpt lat="51.298460941761732" lon="4.871398257091641">
        <ele>32.340000000000003</ele>
        <time>2016-11-18T12:37:39Z</time>
      </trkpt>
      <trkpt lat="51.298515759408474" lon="4.871359951794148">
        <ele>31.859999999999999</ele>
        <time>2016-11-18T12:37:57Z</time>
      </trkpt>
      <trkpt lat="51.29855222068727" lon="4.871351234614849">
        <ele>30.420000000000002</ele>
        <time>2016-11-18T12:38:05Z</time>
      </trkpt>
      <trkpt lat="51.298583736643195" lon="4.871348468586803">
        <ele>32.340000000000003</ele>
        <time>2016-11-18T12:38:08Z</time>
      </trkpt>
      <trkpt lat="51.298602093011141" lon="4.871356682851911">
        <ele>30.899999999999999</ele>
        <time>2016-11-18T12:38:12Z</time>
      </trkpt>
      <trkpt lat="51.29860988818109" lon="4.871353665366769">
        <ele>32.340000000000003</ele>
        <time>2016-11-18T12:38:15Z</time>
      </trkpt>
      <trkpt lat="51.298627406358719" lon="4.871359951794148">
        <ele>32.340000000000003</ele>
        <time>2016-11-18T12:38:25Z</time>
      </trkpt>
      <trkpt lat="51.298649283125997" lon="4.871347211301327">
        <ele>30.899999999999999</ele>
        <time>2016-11-18T12:38:27Z</time>
      </trkpt>
      <trkpt lat="51.298715081065893" lon="4.871336398646236">
        <ele>31.379999999999999</ele>
        <time>2016-11-18T12:38:32Z</time>
      </trkpt>
      <trkpt lat="51.298861596733332" lon="4.871291555464268">
        <ele>32.340000000000003</ele>
        <time>2016-11-18T12:38:44Z</time>
      </trkpt>
      <trkpt lat="51.298878528177738" lon="4.87126381136477">
        <ele>30.899999999999999</ele>
        <time>2016-11-18T12:38:47Z</time>
      </trkpt>
      <trkpt lat="51.298889173194766" lon="4.87125207670033">
        <ele>32.340000000000003</ele>
        <time>2016-11-18T12:38:48Z</time>
      </trkpt>
      <trkpt lat="51.298898812383413" lon="4.871233804151416">
        <ele>32.340000000000003</ele>
        <time>2016-11-18T12:38:49Z</time>
      </trkpt>
      <trkpt lat="51.299128057435155" lon="4.870973378419876">
        <ele>32.340000000000003</ele>
        <time>2016-11-18T12:39:00Z</time>
      </trkpt>
      <trkpt lat="51.299494262784719" lon="4.870712785050273">
        <ele>31.859999999999999</ele>
        <time>2016-11-18T12:39:11Z</time>
      </trkpt>
      <trkpt lat="51.299867676571012" lon="4.870367115363479">
        <ele>31.859999999999999</ele>
        <time>2016-11-18T12:39:22Z</time>
      </trkpt>
      <trkpt lat="51.300150146707892" lon="4.870117418467999">
        <ele>31.379999999999999</ele>
        <time>2016-11-18T12:39:32Z</time>
      </trkpt>
      <trkpt lat="51.300149895250797" lon="4.870089003816247">
        <ele>30.420000000000002</ele>
        <time>2016-11-18T12:39:35Z</time>
      </trkpt>
      <trkpt lat="51.300145285204053" lon="4.870064361020923">
        <ele>29.940000000000001</ele>
        <time>2016-11-18T12:39:36Z</time>
      </trkpt>
      <trkpt lat="51.301846811547875" lon="4.869065070524812">
        <ele>22.10546875</ele>
      </trkpt>
      <trkpt lat="51.300786836072803" lon="4.866294013336301">
        <ele>22.23828125</ele>
      </trkpt>
      <trkpt lat="51.298810048028827" lon="4.860247978940606">
        <ele>28.5</ele>
        <time>2016-11-18T12:42:54Z</time>
      </trkpt>
      <trkpt lat="51.298842821270227" lon="4.860244123265147">
        <ele>28.98</ele>
        <time>2016-11-18T12:42:55Z</time>
      </trkpt>
      <trkpt lat="51.298914235085249" lon="4.86024521291256">
        <ele>29.460000000000001</ele>
        <time>2016-11-18T12:42:57Z</time>
      </trkpt>
      <trkpt lat="51.299086064100266" lon="4.860254600644112">
        <ele>31.379999999999999</ele>
        <time>2016-11-18T12:43:02Z</time>
      </trkpt>
      <trkpt lat="51.299154963344336" lon="4.860239680856466">
        <ele>29.460000000000001</ele>
        <time>2016-11-18T12:43:04Z</time>
      </trkpt>
      <trkpt lat="51.299306256696582" lon="4.860275303944945">
        <ele>30.899999999999999</ele>
        <time>2016-11-18T12:43:07Z</time>
      </trkpt>
      <trkpt lat="51.29937163554132" lon="4.860287290066481">
        <ele>28.98</ele>
        <time>2016-11-18T12:43:08Z</time>
      </trkpt>
      <trkpt lat="51.299415305256844" lon="4.860281506553292">
        <ele>28.98</ele>
        <time>2016-11-18T12:43:09Z</time>
      </trkpt>
      <trkpt lat="51.29976692609489" lon="4.86024672165513">
        <ele>30.899999999999999</ele>
        <time>2016-11-18T12:43:18Z</time>
      </trkpt>
      <trkpt lat="51.299874382093549" lon="4.860237333923578">
        <ele>29.940000000000001</ele>
        <time>2016-11-18T12:43:21Z</time>
      </trkpt>
      <trkpt lat="51.299941940233111" lon="4.860232891514897">
        <ele>30.420000000000002</ele>
        <time>2016-11-18T12:43:23Z</time>
      </trkpt>
      <trkpt lat="51.300281742587686" lon="4.860268346965313">
        <ele>31.379999999999999</ele>
        <time>2016-11-18T12:43:32Z</time>
      </trkpt>
      <trkpt lat="51.300416523590684" lon="4.860313860699534">
        <ele>29.460000000000001</ele>
        <time>2016-11-18T12:43:34Z</time>
      </trkpt>
      <trkpt lat="51.300471005961299" lon="4.860321823507547">
        <ele>31.859999999999999</ele>
        <time>2016-11-18T12:43:35Z</time>
      </trkpt>
      <trkpt lat="51.300506545230746" lon="4.860323248431087">
        <ele>30.420000000000002</ele>
        <time>2016-11-18T12:43:36Z</time>
      </trkpt>
      <trkpt lat="51.300557255744934" lon="4.860331797972322">
        <ele>31.379999999999999</ele>
        <time>2016-11-18T12:43:37Z</time>
      </trkpt>
      <trkpt lat="51.300597824156284" lon="4.860326182097197">
        <ele>28.5</ele>
        <time>2016-11-18T12:43:38Z</time>
      </trkpt>
      <trkpt lat="51.30062741227448" lon="4.860318135470152">
        <ele>28.5</ele>
        <time>2016-11-18T12:43:39Z</time>
      </trkpt>
      <trkpt lat="51.300712069496512" lon="4.860317297279835">
        <ele>31.379999999999999</ele>
        <time>2016-11-18T12:43:42Z</time>
      </trkpt>
      <trkpt lat="51.30093134008348" lon="4.86036004498601">
        <ele>22.859375</ele>
      </trkpt>
      <trkpt lat="51.300916923210025" lon="4.859539959579706">
        <ele>30.899999999999999</ele>
        <time>2016-11-18T12:45:12Z</time>
      </trkpt>
      <trkpt lat="51.300902673974633" lon="4.859438790008426">
        <ele>28.02</ele>
        <time>2016-11-18T12:45:16Z</time>
      </trkpt>
      <trkpt lat="51.300901165232062" lon="4.859410626813769">
        <ele>30.420000000000002</ele>
        <time>2016-11-18T12:45:18Z</time>
      </trkpt>
      <trkpt lat="51.300888005644083" lon="4.859223710373044">
        <ele>28.98</ele>
        <time>2016-11-18T12:45:26Z</time>
      </trkpt>
      <trkpt lat="51.300883060321212" lon="4.859172413125634">
        <ele>29.940000000000001</ele>
        <time>2016-11-18T12:45:28Z</time>
      </trkpt>
      <trkpt lat="51.300873169675469" lon="4.859111895784736">
        <ele>28.02</ele>
        <time>2016-11-18T12:45:30Z</time>
      </trkpt>
      <trkpt lat="51.300865039229393" lon="4.859055988490582">
        <ele>30.420000000000002</ele>
        <time>2016-11-18T12:45:32Z</time>
      </trkpt>
      <trkpt lat="51.300865709781647" lon="4.859019359573722">
        <ele>28.02</ele>
        <time>2016-11-18T12:45:34Z</time>
      </trkpt>
      <trkpt lat="51.300868894904852" lon="4.858980383723974">
        <ele>29.460000000000001</ele>
        <time>2016-11-18T12:45:36Z</time>
      </trkpt>
      <trkpt lat="51.300874594599009" lon="4.858956411480904">
        <ele>27.530000000000001</ele>
        <time>2016-11-18T12:45:37Z</time>
      </trkpt>
      <trkpt lat="51.30086830817163" lon="4.85869774594903">
        <ele>31.379999999999999</ele>
        <time>2016-11-18T12:45:50Z</time>
      </trkpt>
      <trkpt lat="51.300858668982983" lon="4.858420724049211">
        <ele>29.940000000000001</ele>
        <time>2016-11-18T12:45:59Z</time>
      </trkpt>
      <trkpt lat="51.300869146361947" lon="4.858181420713663">
        <ele>29.460000000000001</ele>
        <time>2016-11-18T12:46:10Z</time>
      </trkpt>
      <trkpt lat="51.300981631502509" lon="4.858080083504319">
        <ele>28.02</ele>
        <time>2016-11-18T12:46:22Z</time>
      </trkpt>
      <trkpt lat="51.301070814952254" lon="4.858038173988462">
        <ele>29.460000000000001</ele>
        <time>2016-11-18T12:46:28Z</time>
      </trkpt>
      <trkpt lat="51.301094703376293" lon="4.858025182038546">
        <ele>27.530000000000001</ele>
        <time>2016-11-18T12:46:30Z</time>
      </trkpt>
      <trkpt lat="51.301201321184635" lon="4.857928287237883">
        <ele>30.420000000000002</ele>
        <time>2016-11-18T12:46:44Z</time>
      </trkpt>
      <trkpt lat="51.301243733614683" lon="4.857900459319353">
        <ele>30.899999999999999</ele>
        <time>2016-11-18T12:46:49Z</time>
      </trkpt>
      <trkpt lat="51.301260497421026" lon="4.857881180942059">
        <ele>29.460000000000001</ele>
        <time>2016-11-18T12:46:51Z</time>
      </trkpt>
      <trkpt lat="51.301311627030373" lon="4.857835834845901">
        <ele>30.420000000000002</ele>
        <time>2016-11-18T12:46:56Z</time>
      </trkpt>
      <trkpt lat="51.301413215696812" lon="4.85766333527863">
        <ele>28.02</ele>
        <time>2016-11-18T12:47:03Z</time>
      </trkpt>
      <trkpt lat="51.301416652277112" lon="4.857628550380468">
        <ele>30.420000000000002</ele>
        <time>2016-11-18T12:47:04Z</time>
      </trkpt>
      <trkpt lat="51.301423106342554" lon="4.857595693320036">
        <ele>28.98</ele>
        <time>2016-11-18T12:47:05Z</time>
      </trkpt>
      <trkpt lat="51.301429979503155" lon="4.85756610520184">
        <ele>28.98</ele>
        <time>2016-11-18T12:47:06Z</time>
      </trkpt>
      <trkpt lat="51.301439786329865" lon="4.857528805732727">
        <ele>30.899999999999999</ele>
        <time>2016-11-18T12:47:08Z</time>
      </trkpt>
      <trkpt lat="51.301441295072436" lon="4.857518244534731">
        <ele>27.530000000000001</ele>
        <time>2016-11-18T12:47:10Z</time>
      </trkpt>
      <trkpt lat="51.301444228738546" lon="4.857507767155767">
        <ele>28.02</ele>
        <time>2016-11-18T12:47:11Z</time>
      </trkpt>
      <trkpt lat="51.301443390548229" lon="4.857491673901677">
        <ele>29.940000000000001</ele>
        <time>2016-11-18T12:47:12Z</time>
      </trkpt>
      <trkpt lat="51.301440959796309" lon="4.85747130587697">
        <ele>29.940000000000001</ele>
        <time>2016-11-18T12:47:13Z</time>
      </trkpt>
      <trkpt lat="51.301441630348563" lon="4.857447920367122">
        <ele>28.5</ele>
        <time>2016-11-18T12:47:14Z</time>
      </trkpt>
      <trkpt lat="51.301447497680783" lon="4.857423109933734">
        <ele>28.02</ele>
        <time>2016-11-18T12:47:15Z</time>
      </trkpt>
      <trkpt lat="51.301452359184623" lon="4.857398383319378">
        <ele>29.940000000000001</ele>
        <time>2016-11-18T12:47:16Z</time>
      </trkpt>
      <trkpt lat="51.301454119384289" lon="4.857373740524054">
        <ele>28.5</ele>
        <time>2016-11-18T12:47:17Z</time>
      </trkpt>
      <trkpt lat="51.301455795764923" lon="4.857347588986158">
        <ele>28.5</ele>
        <time>2016-11-18T12:47:18Z</time>
      </trkpt>
      <trkpt lat="51.301460573449731" lon="4.857320096343756">
        <ele>28.02</ele>
        <time>2016-11-18T12:47:19Z</time>
      </trkpt>
      <trkpt lat="51.301467027515173" lon="4.857293525710702">
        <ele>27.530000000000001</ele>
        <time>2016-11-18T12:47:20Z</time>
      </trkpt>
      <trkpt lat="51.301471050828695" lon="4.857268547639251">
        <ele>29.940000000000001</ele>
        <time>2016-11-18T12:47:21Z</time>
      </trkpt>
      <trkpt lat="51.301471050828695" lon="4.85724993981421">
        <ele>27.530000000000001</ele>
        <time>2016-11-18T12:47:22Z</time>
      </trkpt>
      <trkpt lat="51.301471637561917" lon="4.857222782447934">
        <ele>28.5</ele>
        <time>2016-11-18T12:47:23Z</time>
      </trkpt>
      <trkpt lat="51.301472811028361" lon="4.857189003378153">
        <ele>29.460000000000001</ele>
        <time>2016-11-18T12:47:24Z</time>
      </trkpt>
      <trkpt lat="51.301474822685122" lon="4.857160840183497">
        <ele>29.940000000000001</ele>
        <time>2016-11-18T12:47:25Z</time>
      </trkpt>
      <trkpt lat="51.301476918160915" lon="4.857142148539424">
        <ele>28.98</ele>
        <time>2016-11-18T12:47:26Z</time>
      </trkpt>
      <trkpt lat="51.301475157961249" lon="4.857124965637922">
        <ele>28.02</ele>
        <time>2016-11-18T12:47:27Z</time>
      </trkpt>
      <trkpt lat="51.301474152132869" lon="4.857108118012548">
        <ele>28.02</ele>
        <time>2016-11-18T12:47:28Z</time>
      </trkpt>
      <trkpt lat="51.301454287022352" lon="4.856948358938098">
        <ele>30.420000000000002</ele>
        <time>2016-11-18T12:47:37Z</time>
      </trkpt>
      <trkpt lat="51.301452610641718" lon="4.856927907094359">
        <ele>27.050000000000001</ele>
        <time>2016-11-18T12:47:38Z</time>
      </trkpt>
      <trkpt lat="51.301451018080115" lon="4.856907622888684">
        <ele>27.050000000000001</ele>
        <time>2016-11-18T12:47:39Z</time>
      </trkpt>
      <trkpt lat="51.301447749137878" lon="4.856892535462976">
        <ele>30.420000000000002</ele>
        <time>2016-11-18T12:47:40Z</time>
      </trkpt>
      <trkpt lat="51.301442636176944" lon="4.856875604018569">
        <ele>30.420000000000002</ele>
        <time>2016-11-18T12:47:41Z</time>
      </trkpt>
      <trkpt lat="51.301435679197311" lon="4.856854816898704">
        <ele>27.050000000000001</ele>
        <time>2016-11-18T12:47:42Z</time>
      </trkpt>
      <trkpt lat="51.301431739702821" lon="4.856836711987853">
        <ele>27.050000000000001</ele>
        <time>2016-11-18T12:47:43Z</time>
      </trkpt>
      <trkpt lat="51.301441881805658" lon="4.856696734204888">
        <ele>30.420000000000002</ele>
        <time>2016-11-18T12:47:45Z</time>
      </trkpt>
      <trkpt lat="51.301445569843054" lon="4.856647113338113">
        <ele>28.98</ele>
        <time>2016-11-18T12:47:46Z</time>
      </trkpt>
      <trkpt lat="51.301470631733537" lon="4.856459693983197">
        <ele>29.940000000000001</ele>
        <time>2016-11-18T12:47:51Z</time>
      </trkpt>
      <trkpt lat="51.301472978666425" lon="4.856423567980528">
        <ele>27.050000000000001</ele>
        <time>2016-11-18T12:47:53Z</time>
      </trkpt>
      <trkpt lat="51.30147859454155" lon="4.856396829709411">
        <ele>30.420000000000002</ele>
        <time>2016-11-18T12:47:55Z</time>
      </trkpt>
      <trkpt lat="51.301494687795639" lon="4.856297001242638">
        <ele>29.940000000000001</ele>
        <time>2016-11-18T12:47:59Z</time>
      </trkpt>
      <trkpt lat="51.301499549299479" lon="4.856272526085377">
        <ele>28.5</ele>
        <time>2016-11-18T12:48:01Z</time>
      </trkpt>
      <trkpt lat="51.30150793120265" lon="4.856232879683375">
        <ele>30.420000000000002</ele>
        <time>2016-11-18T12:48:03Z</time>
      </trkpt>
      <trkpt lat="51.301526622846723" lon="4.856166075915098">
        <ele>28.02</ele>
        <time>2016-11-18T12:48:06Z</time>
      </trkpt>
      <trkpt lat="51.301536597311497" lon="4.856144869700074">
        <ele>28.5</ele>
        <time>2016-11-18T12:48:07Z</time>
      </trkpt>
      <trkpt lat="51.301548248156905" lon="4.856117628514767">
        <ele>28.5</ele>
        <time>2016-11-18T12:48:08Z</time>
      </trkpt>
      <trkpt lat="51.301557719707489" lon="4.856089632958174">
        <ele>29.940000000000001</ele>
        <time>2016-11-18T12:48:09Z</time>
      </trkpt>
      <trkpt lat="51.301563838496804" lon="4.856064822524786">
        <ele>30.420000000000002</ele>
        <time>2016-11-18T12:48:10Z</time>
      </trkpt>
      <trkpt lat="51.301572388038039" lon="4.856029199436307">
        <ele>28.02</ele>
        <time>2016-11-18T12:48:12Z</time>
      </trkpt>
      <trkpt lat="51.301581105217338" lon="4.855984691530466">
        <ele>28.02</ele>
        <time>2016-11-18T12:48:16Z</time>
      </trkpt>
      <trkpt lat="51.301592588424683" lon="4.855955857783556">
        <ele>29.940000000000001</ele>
        <time>2016-11-18T12:48:18Z</time>
      </trkpt>
      <trkpt lat="51.301596108824015" lon="4.855943117290735">
        <ele>28.98</ele>
        <time>2016-11-18T12:48:19Z</time>
      </trkpt>
      <trkpt lat="51.30160323344171" lon="4.855924006551504">
        <ele>28.5</ele>
        <time>2016-11-18T12:48:20Z</time>
      </trkpt>
      <trkpt lat="51.301659140735865" lon="4.855689061805606">
        <ele>28.02</ele>
        <time>2016-11-18T12:48:29Z</time>
      </trkpt>
      <trkpt lat="51.301698368042707" lon="4.855118673294783">
        <ele>30.899999999999999</ele>
        <time>2016-11-18T12:48:39Z</time>
      </trkpt>
      <trkpt lat="51.301737343892455" lon="4.854717599228025">
        <ele>30.420000000000002</ele>
        <time>2016-11-18T12:48:45Z</time>
      </trkpt>
      <trkpt lat="51.301741953939199" lon="4.854658674448729">
        <ele>28.5</ele>
        <time>2016-11-18T12:48:46Z</time>
      </trkpt>
      <trkpt lat="51.301738936454058" lon="4.854603353887796">
        <ele>30.420000000000002</ele>
        <time>2016-11-18T12:48:47Z</time>
      </trkpt>
      <trkpt lat="51.301716892048717" lon="4.854059368371964">
        <ele>30.420000000000002</ele>
        <time>2016-11-18T12:48:57Z</time>
      </trkpt>
      <trkpt lat="51.301727620884776" lon="4.853932550176978">
        <ele>28.02</ele>
        <time>2016-11-18T12:48:59Z</time>
      </trkpt>
      <trkpt lat="51.301733404397964" lon="4.853858286514878">
        <ele>29.940000000000001</ele>
        <time>2016-11-18T12:49:00Z</time>
      </trkpt>
      <trkpt lat="51.301741199567914" lon="4.853780334815383">
        <ele>29.940000000000001</ele>
        <time>2016-11-18T12:49:01Z</time>
      </trkpt>
      <trkpt lat="51.301746563985944" lon="4.853461822494865">
        <ele>30.420000000000002</ele>
        <time>2016-11-18T12:49:06Z</time>
      </trkpt>
      <trkpt lat="51.30171362310648" lon="4.853037698194385">
        <ele>29.940000000000001</ele>
        <time>2016-11-18T12:49:13Z</time>
      </trkpt>
      <trkpt lat="51.301712617278099" lon="4.852929823100567">
        <ele>28.02</ele>
        <time>2016-11-18T12:49:15Z</time>
      </trkpt>
      <trkpt lat="51.301713120192289" lon="4.852749612182379">
        <ele>28.02</ele>
        <time>2016-11-18T12:49:18Z</time>
      </trkpt>
      <trkpt lat="51.301738601177931" lon="4.852527156472206">
        <ele>29.940000000000001</ele>
        <time>2016-11-18T12:49:21Z</time>
      </trkpt>
      <trkpt lat="51.301750419661403" lon="4.852393716573715">
        <ele>28.5</ele>
        <time>2016-11-18T12:49:23Z</time>
      </trkpt>
      <trkpt lat="51.301749581471086" lon="4.852268490940332">
        <ele>30.420000000000002</ele>
        <time>2016-11-18T12:49:25Z</time>
      </trkpt>
      <trkpt lat="51.301747653633356" lon="4.85144941136241">
        <ele>28.98</ele>
        <time>2016-11-18T12:49:38Z</time>
      </trkpt>
      <trkpt lat="51.301655536517501" lon="4.851307338103652">
        <ele>30.420000000000002</ele>
        <time>2016-11-18T12:49:44Z</time>
      </trkpt>
      <trkpt lat="51.30155922845006" lon="4.851302476599813">
        <ele>27.530000000000001</ele>
        <time>2016-11-18T12:49:47Z</time>
      </trkpt>
      <trkpt lat="51.301501728594303" lon="4.851287053897977">
        <ele>28.02</ele>
        <time>2016-11-18T12:49:48Z</time>
      </trkpt>
      <trkpt lat="51.301273237913847" lon="4.851309601217508">
        <ele>30.420000000000002</ele>
        <time>2016-11-18T12:49:53Z</time>
      </trkpt>
      <trkpt lat="51.301188999786973" lon="4.851297112181783">
        <ele>28.02</ele>
        <time>2016-11-18T12:49:55Z</time>
      </trkpt>
      <trkpt lat="51.300797900184989" lon="4.851282276213169">
        <ele>30.420000000000002</ele>
        <time>2016-11-18T12:50:04Z</time>
      </trkpt>
      <trkpt lat="51.300724139437079" lon="4.85129158012569">
        <ele>29.460000000000001</ele>
        <time>2016-11-18T12:50:06Z</time>
      </trkpt>
      <trkpt lat="51.300431024283171" lon="4.851327789947391">
        <ele>29.940000000000001</ele>
        <time>2016-11-18T12:50:16Z</time>
      </trkpt>
      <trkpt lat="51.300257686525583" lon="4.851276241242886">
        <ele>29.940000000000001</ele>
        <time>2016-11-18T12:50:24Z</time>
      </trkpt>
      <trkpt lat="51.299968510866165" lon="4.851232571527362">
        <ele>30.420000000000002</ele>
        <time>2016-11-18T12:50:36Z</time>
      </trkpt>
      <trkpt lat="51.299862395972013" lon="4.851238438859582">
        <ele>27.050000000000001</ele>
        <time>2016-11-18T12:50:39Z</time>
      </trkpt>
      <trkpt lat="51.29979626275599" lon="4.851237265393138">
        <ele>29.460000000000001</ele>
        <time>2016-11-18T12:50:41Z</time>
      </trkpt>
      <trkpt lat="51.299705738201737" lon="4.851222764700651">
        <ele>28.02</ele>
        <time>2016-11-18T12:50:44Z</time>
      </trkpt>
      <trkpt lat="51.299585457891226" lon="4.851222345605493">
        <ele>29.460000000000001</ele>
        <time>2016-11-18T12:50:47Z</time>
      </trkpt>
      <trkpt lat="51.299508595839143" lon="4.851221591234207">
        <ele>27.530000000000001</ele>
        <time>2016-11-18T12:50:49Z</time>
      </trkpt>
      <trkpt lat="51.29930323921144" lon="4.851216142997146">
        <ele>29.460000000000001</ele>
        <time>2016-11-18T12:50:56Z</time>
      </trkpt>
      <trkpt lat="51.298885988071561" lon="4.851210862398148">
        <ele>28.02</ele>
        <time>2016-11-18T12:51:09Z</time>
      </trkpt>
      <trkpt lat="51.298789847642183" lon="4.851164007559419">
        <ele>27.050000000000001</ele>
        <time>2016-11-18T12:51:12Z</time>
      </trkpt>
      <trkpt lat="51.298736119642854" lon="4.851150428876281">
        <ele>28.5</ele>
        <time>2016-11-18T12:51:14Z</time>
      </trkpt>
      <trkpt lat="51.298497067764401" lon="4.851142633706331">
        <ele>29.460000000000001</ele>
        <time>2016-11-18T12:51:21Z</time>
      </trkpt>
      <trkpt lat="51.298383241519332" lon="4.85113819129765">
        <ele>30.420000000000002</ele>
        <time>2016-11-18T12:51:25Z</time>
      </trkpt>
      <trkpt lat="51.298051318153739" lon="4.851156044751406">
        <ele>30.420000000000002</ele>
        <time>2016-11-18T12:51:34Z</time>
      </trkpt>
      <trkpt lat="51.297917710617185" lon="4.851147579029203">
        <ele>28.5</ele>
        <time>2016-11-18T12:51:37Z</time>
      </trkpt>
      <trkpt lat="51.297839926555753" lon="4.851149674504995">
        <ele>30.420000000000002</ele>
        <time>2016-11-18T12:51:39Z</time>
      </trkpt>
      <trkpt lat="51.297708749771118" lon="4.851186303421855">
        <ele>28.02</ele>
        <time>2016-11-18T12:51:41Z</time>
      </trkpt>
      <trkpt lat="51.297552930191159" lon="4.851203821599484">
        <ele>31.379999999999999</ele>
        <time>2016-11-18T12:51:43Z</time>
      </trkpt>
      <trkpt lat="51.297425776720047" lon="4.851179262623191">
        <ele>29.460000000000001</ele>
        <time>2016-11-18T12:51:45Z</time>
      </trkpt>
      <trkpt lat="51.297059236094356" lon="4.851143639534712">
        <ele>28.02</ele>
        <time>2016-11-18T12:51:49Z</time>
      </trkpt>
      <trkpt lat="51.296624802052975" lon="4.851174065843225">
        <ele>30.899999999999999</ele>
        <time>2016-11-18T12:51:59Z</time>
      </trkpt>
      <trkpt lat="51.296588340774179" lon="4.85117431730032">
        <ele>30.420000000000002</ele>
        <time>2016-11-18T12:52:00Z</time>
      </trkpt>
      <trkpt lat="51.296536875888705" lon="4.851179849356413">
        <ele>28.98</ele>
        <time>2016-11-18T12:52:02Z</time>
      </trkpt>
      <trkpt lat="51.296385833993554" lon="4.85122611746192">
        <ele>29.460000000000001</ele>
        <time>2016-11-18T12:52:12Z</time>
      </trkpt>
      <trkpt lat="51.296347193419933" lon="4.85124028287828">
        <ele>30.899999999999999</ele>
        <time>2016-11-18T12:52:21Z</time>
      </trkpt>
      <trkpt lat="51.296291537582874" lon="4.851165851578116">
        <ele>31.379999999999999</ele>
        <time>2016-11-18T12:52:25Z</time>
      </trkpt>
      <trkpt lat="51.296265972778201" lon="4.851115057244897">
        <ele>31.379999999999999</ele>
        <time>2016-11-18T12:52:26Z</time>
      </trkpt>
      <trkpt lat="51.296250466257334" lon="4.851081445813179">
        <ele>28.5</ele>
        <time>2016-11-18T12:52:27Z</time>
      </trkpt>
      <trkpt lat="51.296232361346483" lon="4.851042637601495">
        <ele>28.5</ele>
        <time>2016-11-18T12:52:28Z</time>
      </trkpt>
      <trkpt lat="51.296207550913095" lon="4.851028304547072">
        <ele>30.420000000000002</ele>
        <time>2016-11-18T12:52:30Z</time>
      </trkpt>
      <trkpt lat="51.296171089634299" lon="4.850978096947074">
        <ele>29.940000000000001</ele>
        <time>2016-11-18T12:52:35Z</time>
      </trkpt>
      <trkpt lat="51.296153403818607" lon="4.850943060591817">
        <ele>28.02</ele>
        <time>2016-11-18T12:52:37Z</time>
      </trkpt>
      <trkpt lat="51.296137310564518" lon="4.850892014801502">
        <ele>30.420000000000002</ele>
        <time>2016-11-18T12:52:40Z</time>
      </trkpt>
      <trkpt lat="51.296113589778543" lon="4.850834347307682">
        <ele>27.530000000000001</ele>
        <time>2016-11-18T12:52:43Z</time>
      </trkpt>
      <trkpt lat="51.296104537323117" lon="4.850807189941406">
        <ele>30.899999999999999</ele>
        <time>2016-11-18T12:52:44Z</time>
      </trkpt>
      <trkpt lat="51.296047875657678" lon="4.850505860522389">
        <ele>30.420000000000002</ele>
        <time>2016-11-18T12:52:57Z</time>
      </trkpt>
      <trkpt lat="51.296042678877711" lon="4.850486665964127">
        <ele>28.98</ele>
        <time>2016-11-18T12:52:58Z</time>
      </trkpt>
      <trkpt lat="51.296037146821618" lon="4.850469315424562">
        <ele>28.5</ele>
        <time>2016-11-18T12:52:59Z</time>
      </trkpt>
      <trkpt lat="51.296007893979549" lon="4.850385161116719">
        <ele>27.530000000000001</ele>
        <time>2016-11-18T12:53:04Z</time>
      </trkpt>
      <trkpt lat="51.295983837917447" lon="4.850351130589843">
        <ele>30.420000000000002</ele>
        <time>2016-11-18T12:53:07Z</time>
      </trkpt>
      <trkpt lat="51.295964224264026" lon="4.850339815020561">
        <ele>28.98</ele>
        <time>2016-11-18T12:53:08Z</time>
      </trkpt>
      <trkpt lat="51.295922314748168" lon="4.850273514166474">
        <ele>30.420000000000002</ele>
        <time>2016-11-18T12:53:11Z</time>
      </trkpt>
      <trkpt lat="51.295786527916789" lon="4.849890461191535">
        <ele>29.940000000000001</ele>
        <time>2016-11-18T12:53:13Z</time>
      </trkpt>
      <trkpt lat="51.295759538188577" lon="4.849933795630932">
        <ele>28.02</ele>
        <time>2016-11-18T12:53:18Z</time>
      </trkpt>
      <trkpt lat="51.295584356412292" lon="4.849977130070329">
        <ele>30.420000000000002</ele>
        <time>2016-11-18T12:53:21Z</time>
      </trkpt>
      <trkpt lat="51.295543955639005" lon="4.850085424259305">
        <ele>28.5</ele>
        <time>2016-11-18T12:53:23Z</time>
      </trkpt>
      <trkpt lat="51.295449659228325" lon="4.850237052887678">
        <ele>30.899999999999999</ele>
        <time>2016-11-18T12:53:24Z</time>
      </trkpt>
      <trkpt lat="51.295341867953539" lon="4.850323721766472">
        <ele>28.5</ele>
        <time>2016-11-18T12:53:26Z</time>
      </trkpt>
      <trkpt lat="51.294941296800971" lon="4.850699733942747">
        <ele>28.98</ele>
        <time>2016-11-18T12:53:39Z</time>
      </trkpt>
      <trkpt lat="51.294810036197305" lon="4.850802160799503">
        <ele>28.02</ele>
        <time>2016-11-18T12:53:43Z</time>
      </trkpt>
      <trkpt lat="51.294769300147891" lon="4.850837700068951">
        <ele>27.530000000000001</ele>
        <time>2016-11-18T12:53:44Z</time>
      </trkpt>
      <trkpt lat="51.294731749221683" lon="4.85086846165359">
        <ele>30.899999999999999</ele>
        <time>2016-11-18T12:53:45Z</time>
      </trkpt>
      <trkpt lat="51.294686403125525" lon="4.850904922932386">
        <ele>30.899999999999999</ele>
        <time>2016-11-18T12:53:46Z</time>
      </trkpt>
      <trkpt lat="51.294297147542238" lon="4.851222261786461">
        <ele>29.460000000000001</ele>
        <time>2016-11-18T12:53:53Z</time>
      </trkpt>
      <trkpt lat="51.294128336012363" lon="4.851288562640548">
        <ele>28.02</ele>
        <time>2016-11-18T12:53:56Z</time>
      </trkpt>
      <trkpt lat="51.294091958552599" lon="4.85126718878746">
        <ele>29.460000000000001</ele>
        <time>2016-11-18T12:53:57Z</time>
      </trkpt>
      <trkpt lat="51.294057508930564" lon="4.851239612326026">
        <ele>29.940000000000001</ele>
        <time>2016-11-18T12:53:58Z</time>
      </trkpt>
      <trkpt lat="51.294026244431734" lon="4.851211616769433">
        <ele>29.460000000000001</ele>
        <time>2016-11-18T12:53:59Z</time>
      </trkpt>
      <trkpt lat="51.293994979932904" lon="4.851191584020853">
        <ele>27.530000000000001</ele>
        <time>2016-11-18T12:54:00Z</time>
      </trkpt>
      <trkpt lat="51.293953992426395" lon="4.85118412412703">
        <ele>28.5</ele>
        <time>2016-11-18T12:54:01Z</time>
      </trkpt>
      <trkpt lat="51.293885596096516" lon="4.851199295371771">
        <ele>30.420000000000002</ele>
        <time>2016-11-18T12:54:02Z</time>
      </trkpt>
      <trkpt lat="51.293682418763638" lon="4.851230140775442">
        <ele>30.420000000000002</ele>
        <time>2016-11-18T12:54:06Z</time>
      </trkpt>
      <trkpt lat="51.29353984259069" lon="4.851237684488297">
        <ele>28.98</ele>
        <time>2016-11-18T12:54:09Z</time>
      </trkpt>
      <trkpt lat="51.293431548401713" lon="4.851246401667595">
        <ele>30.899999999999999</ele>
        <time>2016-11-18T12:54:11Z</time>
      </trkpt>
      <trkpt lat="51.292975321412086" lon="4.85126911662519">
        <ele>31.379999999999999</ele>
        <time>2016-11-18T12:54:19Z</time>
      </trkpt>
      <trkpt lat="51.292811958119273" lon="4.851280096918345">
        <ele>28.5</ele>
        <time>2016-11-18T12:54:22Z</time>
      </trkpt>
      <trkpt lat="51.292698886245489" lon="4.851277749985457">
        <ele>30.420000000000002</ele>
        <time>2016-11-18T12:54:24Z</time>
      </trkpt>
      <trkpt lat="51.292592352256179" lon="4.851272720843554">
        <ele>29.460000000000001</ele>
        <time>2016-11-18T12:54:26Z</time>
      </trkpt>
      <trkpt lat="51.292441310361028" lon="4.85127598978579">
        <ele>27.530000000000001</ele>
        <time>2016-11-18T12:54:29Z</time>
      </trkpt>
      <trkpt lat="51.292345756664872" lon="4.851280683651567">
        <ele>30.420000000000002</ele>
        <time>2016-11-18T12:54:31Z</time>
      </trkpt>
      <trkpt lat="51.292161773890257" lon="4.851262662559748">
        <ele>28.98</ele>
        <time>2016-11-18T12:54:34Z</time>
      </trkpt>
      <trkpt lat="51.291932864114642" lon="4.851262578740716">
        <ele>29.460000000000001</ele>
        <time>2016-11-18T12:54:38Z</time>
      </trkpt>
      <trkpt lat="51.291871927678585" lon="4.851255957037211">
        <ele>29.460000000000001</ele>
        <time>2016-11-18T12:54:39Z</time>
      </trkpt>
      <trkpt lat="51.29159901291132" lon="4.851264003664255">
        <ele>28.02</ele>
        <time>2016-11-18T12:54:44Z</time>
      </trkpt>
      <trkpt lat="51.291495831683278" lon="4.851267272606492">
        <ele>30.899999999999999</ele>
        <time>2016-11-18T12:54:46Z</time>
      </trkpt>
      <trkpt lat="51.291118729859591" lon="4.851255789399147">
        <ele>27.530000000000001</ele>
        <time>2016-11-18T12:54:56Z</time>
      </trkpt>
      <trkpt lat="51.291087884455919" lon="4.851256376132369">
        <ele>28.02</ele>
        <time>2016-11-18T12:54:57Z</time>
      </trkpt>
      <trkpt lat="51.291036754846573" lon="4.851253358647227">
        <ele>29.460000000000001</ele>
        <time>2016-11-18T12:54:59Z</time>
      </trkpt>
      <trkpt lat="51.290997946634889" lon="4.851244641467929">
        <ele>27.530000000000001</ele>
        <time>2016-11-18T12:55:01Z</time>
      </trkpt>
      <trkpt lat="51.290982188656926" lon="4.85123491846025">
        <ele>30.899999999999999</ele>
        <time>2016-11-18T12:55:02Z</time>
      </trkpt>
      <trkpt lat="51.290966598317027" lon="4.851218070834875">
        <ele>29.460000000000001</ele>
        <time>2016-11-18T12:55:03Z</time>
      </trkpt>
      <trkpt lat="51.290949834510684" lon="4.851179178804159">
        <ele>28.02</ele>
        <time>2016-11-18T12:55:05Z</time>
      </trkpt>
      <trkpt lat="51.290946900844574" lon="4.851151183247566">
        <ele>29.460000000000001</ele>
        <time>2016-11-18T12:55:06Z</time>
      </trkpt>
      <trkpt lat="51.290954109281301" lon="4.851117487996817">
        <ele>29.940000000000001</ele>
        <time>2016-11-18T12:55:07Z</time>
      </trkpt>
      <trkpt lat="51.29099995829165" lon="4.851058395579457">
        <ele>30.420000000000002</ele>
        <time>2016-11-18T12:55:08Z</time>
      </trkpt>
      <trkpt lat="51.291043292731047" lon="4.851008104160428">
        <ele>30.420000000000002</ele>
        <time>2016-11-18T12:55:09Z</time>
      </trkpt>
      <trkpt lat="51.291066510602832" lon="4.850979186594486">
        <ele>27.530000000000001</ele>
        <time>2016-11-18T12:55:10Z</time>
      </trkpt>
      <trkpt lat="51.291090901941061" lon="4.850950101390481">
        <ele>30.420000000000002</ele>
        <time>2016-11-18T12:55:11Z</time>
      </trkpt>
      <trkpt lat="51.291112946346402" lon="4.850915484130383">
        <ele>29.940000000000001</ele>
        <time>2016-11-18T12:55:12Z</time>
      </trkpt>
      <trkpt lat="51.291168853640556" lon="4.850849518552423">
        <ele>28.98</ele>
        <time>2016-11-18T12:55:14Z</time>
      </trkpt>
      <trkpt lat="51.291558193042874" lon="4.850361775606871">
        <ele>28.5</ele>
        <time>2016-11-18T12:55:27Z</time>
      </trkpt>
      <trkpt lat="51.291602533310652" lon="4.850298995152116">
        <ele>28.5</ele>
        <time>2016-11-18T12:55:28Z</time>
      </trkpt>
      <trkpt lat="51.291643604636192" lon="4.850240992382169">
        <ele>28.5</ele>
        <time>2016-11-18T12:55:29Z</time>
      </trkpt>
      <trkpt lat="51.291771847754717" lon="4.850005460903049">
        <ele>28.5</ele>
        <time>2016-11-18T12:55:32Z</time>
      </trkpt>
      <trkpt lat="51.291860863566399" lon="4.849912002682686">
        <ele>30.420000000000002</ele>
        <time>2016-11-18T12:55:34Z</time>
      </trkpt>
      <trkpt lat="51.29190344363451" lon="4.849864058196545">
        <ele>30.420000000000002</ele>
        <time>2016-11-18T12:55:35Z</time>
      </trkpt>
      <trkpt lat="51.291995728388429" lon="4.849774958565831">
        <ele>28.5</ele>
        <time>2016-11-18T12:55:37Z</time>
      </trkpt>
      <trkpt lat="51.292213154956698" lon="4.849558789283037">
        <ele>29.460000000000001</ele>
        <time>2016-11-18T12:55:42Z</time>
      </trkpt>
      <trkpt lat="51.29271405749023" lon="4.849025448784232">
        <ele>29.460000000000001</ele>
        <time>2016-11-18T12:55:55Z</time>
      </trkpt>
      <trkpt lat="51.2927121296525" lon="4.848981779068708">
        <ele>28.98</ele>
        <time>2016-11-18T12:55:56Z</time>
      </trkpt>
      <trkpt lat="51.292703915387392" lon="4.848929895088077">
        <ele>27.050000000000001</ele>
        <time>2016-11-18T12:55:57Z</time>
      </trkpt>
      <trkpt lat="51.292692851275206" lon="4.848877172917128">
        <ele>29.940000000000001</ele>
        <time>2016-11-18T12:55:58Z</time>
      </trkpt>
      <trkpt lat="51.292669884860516" lon="4.848825456574559">
        <ele>27.530000000000001</ele>
        <time>2016-11-18T12:55:59Z</time>
      </trkpt>
      <trkpt lat="51.292640967294574" lon="4.848776590079069">
        <ele>27.530000000000001</ele>
        <time>2016-11-18T12:56:00Z</time>
      </trkpt>
      <trkpt lat="51.292600315064192" lon="4.848723532631993">
        <ele>29.460000000000001</ele>
        <time>2016-11-18T12:56:01Z</time>
      </trkpt>
      <trkpt lat="51.292552873492241" lon="4.848673157393932">
        <ele>28.5</ele>
        <time>2016-11-18T12:56:02Z</time>
      </trkpt>
      <trkpt lat="51.292342990636826" lon="4.848464783281088">
        <ele>29.460000000000001</ele>
        <time>2016-11-18T12:56:07Z</time>
      </trkpt>
      <trkpt lat="51.291946778073907" lon="4.847787357866764">
        <ele>27.530000000000001</ele>
        <time>2016-11-18T12:56:18Z</time>
      </trkpt>
      <trkpt lat="51.291713174432516" lon="4.84745878726244">
        <ele>29.460000000000001</ele>
        <time>2016-11-18T12:56:24Z</time>
      </trkpt>
      <trkpt lat="51.291667744517326" lon="4.847395000979304">
        <ele>29.460000000000001</ele>
        <time>2016-11-18T12:56:25Z</time>
      </trkpt>
      <trkpt lat="51.291475463658571" lon="4.84709425829351">
        <ele>28.02</ele>
        <time>2016-11-18T12:56:30Z</time>
      </trkpt>
      <trkpt lat="51.291112443432212" lon="4.846429992467165">
        <ele>28.02</ele>
        <time>2016-11-18T12:57:12Z</time>
      </trkpt>
      <trkpt lat="51.291354931890965" lon="4.845866812393069">
        <ele>28.02</ele>
        <time>2016-11-18T12:57:13Z</time>
      </trkpt>
      <trkpt lat="51.29178618080914" lon="4.845137502998114">
        <ele>30.420000000000002</ele>
        <time>2016-11-18T12:57:14Z</time>
      </trkpt>
      <trkpt lat="51.290964167565107" lon="4.844003850594163">
        <ele>28.98</ele>
        <time>2016-11-18T12:58:20Z</time>
      </trkpt>
      <trkpt lat="51.290919240564108" lon="4.843895472586155">
        <ele>30.420000000000002</ele>
        <time>2016-11-18T12:58:32Z</time>
      </trkpt>
      <trkpt lat="51.290856208652258" lon="4.843881642445922">
        <ele>29.940000000000001</ele>
        <time>2016-11-18T12:58:36Z</time>
      </trkpt>
      <trkpt lat="51.2907400354743" lon="4.843713920563459">
        <ele>31.379999999999999</ele>
        <time>2016-11-18T12:58:47Z</time>
      </trkpt>
      <trkpt lat="51.290725618600845" lon="4.843686679378152">
        <ele>30.420000000000002</ele>
        <time>2016-11-18T12:58:49Z</time>
      </trkpt>
      <trkpt lat="51.290702652186155" lon="4.843607218936086">
        <ele>28.98</ele>
        <time>2016-11-18T12:58:53Z</time>
      </trkpt>
      <trkpt lat="51.290682619437575" lon="4.843575116246939">
        <ele>30.420000000000002</ele>
        <time>2016-11-18T12:58:56Z</time>
      </trkpt>
      <trkpt lat="51.290529482066631" lon="4.843339500948787">
        <ele>28.5</ele>
        <time>2016-11-18T12:59:08Z</time>
      </trkpt>
      <trkpt lat="51.290499558672309" lon="4.843224668875337">
        <ele>28.5</ele>
        <time>2016-11-18T12:59:14Z</time>
      </trkpt>
      <trkpt lat="51.290420182049274" lon="4.843020150437951">
        <ele>30.420000000000002</ele>
        <time>2016-11-18T12:59:28Z</time>
      </trkpt>
      <trkpt lat="51.290404926985502" lon="4.843001123517752">
        <ele>28.5</ele>
        <time>2016-11-18T12:59:29Z</time>
      </trkpt>
      <trkpt lat="51.290372908115387" lon="4.842929625883699">
        <ele>29.940000000000001</ele>
        <time>2016-11-18T12:59:32Z</time>
      </trkpt>
      <trkpt lat="51.290287999436259" lon="4.842651346698403">
        <ele>28.98</ele>
        <time>2016-11-18T12:59:44Z</time>
      </trkpt>
      <trkpt lat="51.289795227348804" lon="4.842140302062035">
        <ele>31.379999999999999</ele>
        <time>2016-11-18T13:00:16Z</time>
      </trkpt>
      <trkpt lat="51.289671259000897" lon="4.842048939317465">
        <ele>30.420000000000002</ele>
        <time>2016-11-18T13:00:25Z</time>
      </trkpt>
      <trkpt lat="51.289613842964172" lon="4.841961683705449">
        <ele>28.02</ele>
        <time>2016-11-18T13:00:31Z</time>
      </trkpt>
      <trkpt lat="51.289594899863005" lon="4.841929748654366">
        <ele>31.379999999999999</ele>
        <time>2016-11-18T13:00:33Z</time>
      </trkpt>
      <trkpt lat="51.289586015045643" lon="4.841916169971228">
        <ele>31.379999999999999</ele>
        <time>2016-11-18T13:00:34Z</time>
      </trkpt>
      <trkpt lat="51.289535136893392" lon="4.841845342889428">
        <ele>30.899999999999999</ele>
        <time>2016-11-18T13:00:38Z</time>
      </trkpt>
      <trkpt lat="51.289430530741811" lon="4.841766301542521">
        <ele>28.98</ele>
        <time>2016-11-18T13:00:46Z</time>
      </trkpt>
      <trkpt lat="51.289303209632635" lon="4.841605452820659">
        <ele>31.379999999999999</ele>
        <time>2016-11-18T13:00:58Z</time>
      </trkpt>
      <trkpt lat="51.28928049467504" lon="4.841590533033013">
        <ele>30.420000000000002</ele>
        <time>2016-11-18T13:01:00Z</time>
      </trkpt>
      <trkpt lat="51.289206817746162" lon="4.841473186388612">
        <ele>30.420000000000002</ele>
        <time>2016-11-18T13:01:07Z</time>
      </trkpt>
      <trkpt lat="51.289319470524788" lon="4.841209491714835">
        <ele>28.98</ele>
        <time>2016-11-18T13:01:17Z</time>
      </trkpt>
      <trkpt lat="51.28938551992178" lon="4.841112932190299">
        <ele>31.379999999999999</ele>
        <time>2016-11-18T13:01:20Z</time>
      </trkpt>
      <trkpt lat="51.289463639259338" lon="4.841009080410004">
        <ele>29.940000000000001</ele>
        <time>2016-11-18T13:01:23Z</time>
      </trkpt>
      <trkpt lat="51.289492808282375" lon="4.840975636616349">
        <ele>30.420000000000002</ele>
        <time>2016-11-18T13:01:24Z</time>
      </trkpt>
      <trkpt lat="51.289551062509418" lon="4.840896930545569">
        <ele>28.02</ele>
        <time>2016-11-18T13:01:26Z</time>
      </trkpt>
      <trkpt lat="51.28961518406868" lon="4.840807244181633">
        <ele>30.899999999999999</ele>
        <time>2016-11-18T13:01:28Z</time>
      </trkpt>
      <trkpt lat="51.289685927331448" lon="4.840730046853423">
        <ele>28.98</ele>
        <time>2016-11-18T13:01:30Z</time>
      </trkpt>
      <trkpt lat="51.289764130488038" lon="4.840657040476799">
        <ele>31.379999999999999</ele>
        <time>2016-11-18T13:01:32Z</time>
      </trkpt>
      <trkpt lat="51.289840489625931" lon="4.840590991079807">
        <ele>29.940000000000001</ele>
        <time>2016-11-18T13:01:34Z</time>
      </trkpt>
      <trkpt lat="51.289880219846964" lon="4.840555870905519">
        <ele>30.899999999999999</ele>
        <time>2016-11-18T13:01:35Z</time>
      </trkpt>
      <trkpt lat="51.289913496002555" lon="4.840515553951263">
        <ele>30.899999999999999</ele>
        <time>2016-11-18T13:01:36Z</time>
      </trkpt>
      <trkpt lat="51.290214406326413" lon="4.840147839859128">
        <ele>31.379999999999999</ele>
        <time>2016-11-18T13:01:45Z</time>
      </trkpt>
      <trkpt lat="51.290467036888003" lon="4.839820861816406">
        <ele>29.460000000000001</ele>
        <time>2016-11-18T13:01:52Z</time>
      </trkpt>
      <trkpt lat="51.290545491501689" lon="4.839719105511904">
        <ele>28.98</ele>
        <time>2016-11-18T13:01:54Z</time>
      </trkpt>
      <trkpt lat="51.290670968592167" lon="4.839588012546301">
        <ele>31.859999999999999</ele>
        <time>2016-11-18T13:01:57Z</time>
      </trkpt>
      <trkpt lat="51.290742801502347" lon="4.839496733620763">
        <ele>29.940000000000001</ele>
        <time>2016-11-18T13:01:59Z</time>
      </trkpt>
      <trkpt lat="51.290778592228889" lon="4.839453734457493">
        <ele>30.420000000000002</ele>
        <time>2016-11-18T13:02:00Z</time>
      </trkpt>
      <trkpt lat="51.290847575291991" lon="4.839365389198065">
        <ele>31.379999999999999</ele>
        <time>2016-11-18T13:02:02Z</time>
      </trkpt>
      <trkpt lat="51.290881857275963" lon="4.839316355064511">
        <ele>28.98</ele>
        <time>2016-11-18T13:02:03Z</time>
      </trkpt>
      <trkpt lat="51.290919743478298" lon="4.839270925149322">
        <ele>29.940000000000001</ele>
        <time>2016-11-18T13:02:04Z</time>
      </trkpt>
      <trkpt lat="51.290956288576126" lon="4.839223315939307">
        <ele>31.379999999999999</ele>
        <time>2016-11-18T13:02:05Z</time>
      </trkpt>
      <trkpt lat="51.291032982990146" lon="4.839112590998411">
        <ele>28.98</ele>
        <time>2016-11-18T13:02:07Z</time>
      </trkpt>
      <trkpt lat="51.291158460080624" lon="4.8389698471874">
        <ele>30.420000000000002</ele>
        <time>2016-11-18T13:02:10Z</time>
      </trkpt>
      <trkpt lat="51.291454760357738" lon="4.838597439229488">
        <ele>28.98</ele>
        <time>2016-11-18T13:02:17Z</time>
      </trkpt>
      <trkpt lat="51.291501699015498" lon="4.838544884696603">
        <ele>28.5</ele>
        <time>2016-11-18T13:02:18Z</time>
      </trkpt>
      <trkpt lat="51.291549308225513" lon="4.838497610762715">
        <ele>28.98</ele>
        <time>2016-11-18T13:02:19Z</time>
      </trkpt>
      <trkpt lat="51.291588954627514" lon="4.838441116735339">
        <ele>31.379999999999999</ele>
        <time>2016-11-18T13:02:20Z</time>
      </trkpt>
      <trkpt lat="51.291624158620834" lon="4.838379928842187">
        <ele>28.02</ele>
        <time>2016-11-18T13:02:21Z</time>
      </trkpt>
      <trkpt lat="51.291662883013487" lon="4.838327039033175">
        <ele>28.02</ele>
        <time>2016-11-18T13:02:22Z</time>
      </trkpt>
      <trkpt lat="51.291870921850204" lon="4.838113384321332">
        <ele>30.899999999999999</ele>
        <time>2016-11-18T13:02:27Z</time>
      </trkpt>
      <trkpt lat="51.291912328451872" lon="4.838068960234523">
        <ele>30.899999999999999</ele>
        <time>2016-11-18T13:02:28Z</time>
      </trkpt>
      <trkpt lat="51.29203881137073" lon="4.837938118726015">
        <ele>28.98</ele>
        <time>2016-11-18T13:02:31Z</time>
      </trkpt>
      <trkpt lat="51.292276354506612" lon="4.837659168988466">
        <ele>28.98</ele>
        <time>2016-11-18T13:02:42Z</time>
      </trkpt>
      <trkpt lat="51.292288843542337" lon="4.837645003572106">
        <ele>28.5</ele>
        <time>2016-11-18T13:02:44Z</time>
      </trkpt>
      <trkpt lat="51.292403340339661" lon="4.837558753788471">
        <ele>31.379999999999999</ele>
        <time>2016-11-18T13:02:48Z</time>
      </trkpt>
      <trkpt lat="51.292411470785737" lon="4.837142843753099">
        <ele>29.940000000000001</ele>
        <time>2016-11-18T13:02:53Z</time>
      </trkpt>
      <trkpt lat="51.292538121342659" lon="4.837389774620533">
        <ele>28.5</ele>
        <time>2016-11-18T13:03:03Z</time>
      </trkpt>
      <trkpt lat="51.292570224031806" lon="4.837458757683635">
        <ele>30.420000000000002</ele>
        <time>2016-11-18T13:03:05Z</time>
      </trkpt>
      <trkpt lat="51.292603751644492" lon="4.83744241297245">
        <ele>27.530000000000001</ele>
        <time>2016-11-18T13:03:07Z</time>
      </trkpt>
      <trkpt lat="51.292628226801753" lon="4.837435204535723">
        <ele>28.98</ele>
        <time>2016-11-18T13:03:09Z</time>
      </trkpt>
      <trkpt lat="51.292702239006758" lon="4.837439311668277">
        <ele>30.420000000000002</ele>
        <time>2016-11-18T13:03:13Z</time>
      </trkpt>
      <trkpt lat="51.292869290336967" lon="4.837440233677626">
        <ele>28.5</ele>
        <time>2016-11-18T13:03:25Z</time>
      </trkpt>
      <trkpt lat="51.293062744662166" lon="4.837393630295992">
        <ele>29.940000000000001</ele>
        <time>2016-11-18T13:03:38Z</time>
      </trkpt>
      <trkpt lat="51.293236585333943" lon="4.837380135431886">
        <ele>29.940000000000001</ele>
        <time>2016-11-18T13:03:48Z</time>
      </trkpt>
      <trkpt lat="51.293250834569335" lon="4.837382230907679">
        <ele>29.940000000000001</ele>
        <time>2016-11-18T13:03:49Z</time>
      </trkpt>
      <trkpt lat="51.293412689119577" lon="4.837359599769115">
        <ele>27.050000000000001</ele>
        <time>2016-11-18T13:04:00Z</time>
      </trkpt>
      <trkpt lat="51.293439092114568" lon="4.837360437959433">
        <ele>30.420000000000002</ele>
        <time>2016-11-18T13:04:02Z</time>
      </trkpt>
      <trkpt lat="51.293541267514229" lon="4.837368568405509">
        <ele>27.050000000000001</ele>
        <time>2016-11-18T13:04:08Z</time>
      </trkpt>
      <trkpt lat="51.293567251414061" lon="4.837363120168448">
        <ele>30.899999999999999</ele>
        <time>2016-11-18T13:04:10Z</time>
      </trkpt>
      <trkpt lat="51.29367864690721" lon="4.8373241443187">
        <ele>31.379999999999999</ele>
        <time>2016-11-18T13:04:17Z</time>
      </trkpt>
      <trkpt lat="51.293693734332919" lon="4.837328586727381">
        <ele>30.899999999999999</ele>
        <time>2016-11-18T13:04:18Z</time>
      </trkpt>
      <trkpt lat="51.293719299137592" lon="4.837334873154759">
        <ele>29.460000000000001</ele>
        <time>2016-11-18T13:04:20Z</time>
      </trkpt>
      <trkpt lat="51.293824408203363" lon="4.837309727445245">
        <ele>30.420000000000002</ele>
        <time>2016-11-18T13:04:29Z</time>
      </trkpt>
      <trkpt lat="51.293913256376982" lon="4.837282234802842">
        <ele>28.02</ele>
        <time>2016-11-18T13:04:33Z</time>
      </trkpt>
      <trkpt lat="51.294064298272133" lon="4.837257927283645">
        <ele>28.02</ele>
        <time>2016-11-18T13:04:43Z</time>
      </trkpt>
      <trkpt lat="51.294134203344584" lon="4.837246779352427">
        <ele>30.420000000000002</ele>
        <time>2016-11-18T13:04:48Z</time>
      </trkpt>
      <trkpt lat="51.294201174750924" lon="4.837255496531725">
        <ele>30.420000000000002</ele>
        <time>2016-11-18T13:04:53Z</time>
      </trkpt>
      <trkpt lat="51.294218273833394" lon="4.837261866778135">
        <ele>30.420000000000002</ele>
        <time>2016-11-18T13:04:54Z</time>
      </trkpt>
      <trkpt lat="51.294269487261772" lon="4.837268739938736">
        <ele>28.5</ele>
        <time>2016-11-18T13:04:57Z</time>
      </trkpt>
      <trkpt lat="51.29440326243639" lon="4.837269242852926">
        <ele>30.420000000000002</ele>
        <time>2016-11-18T13:05:05Z</time>
      </trkpt>
      <trkpt lat="51.294417846947908" lon="4.837265387177467">
        <ele>29.940000000000001</ele>
        <time>2016-11-18T13:05:06Z</time>
      </trkpt>
      <trkpt lat="51.294469647109509" lon="4.837252143770456">
        <ele>28.98</ele>
        <time>2016-11-18T13:05:10Z</time>
      </trkpt>
      <trkpt lat="51.294481046497822" lon="4.837252227589488">
        <ele>28.02</ele>
        <time>2016-11-18T13:05:11Z</time>
      </trkpt>
      <trkpt lat="51.294558076187968" lon="4.8372533172369">
        <ele>31.379999999999999</ele>
        <time>2016-11-18T13:05:16Z</time>
      </trkpt>
      <trkpt lat="51.294694365933537" lon="4.837249545380473">
        <ele>30.899999999999999</ele>
        <time>2016-11-18T13:05:24Z</time>
      </trkpt>
      <trkpt lat="51.294732503592968" lon="4.837242420762777">
        <ele>28.02</ele>
        <time>2016-11-18T13:05:26Z</time>
      </trkpt>
      <trkpt lat="51.294752117246389" lon="4.837236972525716">
        <ele>28.98</ele>
        <time>2016-11-18T13:05:27Z</time>
      </trkpt>
      <trkpt lat="51.294781034812331" lon="4.837236972525716">
        <ele>30.899999999999999</ele>
        <time>2016-11-18T13:05:29Z</time>
      </trkpt>
      <trkpt lat="51.294849263504148" lon="4.837245354428887">
        <ele>28.98</ele>
        <time>2016-11-18T13:05:34Z</time>
      </trkpt>
      <trkpt lat="51.294859405606985" lon="4.83724451623857">
        <ele>31.379999999999999</ele>
        <time>2016-11-18T13:05:35Z</time>
      </trkpt>
      <trkpt lat="51.294868374243379" lon="4.837243761867285">
        <ele>30.899999999999999</ele>
        <time>2016-11-18T13:05:36Z</time>
      </trkpt>
      <trkpt lat="51.294880863279104" lon="4.837239654734731">
        <ele>28.98</ele>
        <time>2016-11-18T13:05:37Z</time>
      </trkpt>
      <trkpt lat="51.29489578306675" lon="4.83722934499383">
        <ele>30.899999999999999</ele>
        <time>2016-11-18T13:05:38Z</time>
      </trkpt>
      <trkpt lat="51.294914055615664" lon="4.837224232032895">
        <ele>31.379999999999999</ele>
        <time>2016-11-18T13:05:39Z</time>
      </trkpt>
      <trkpt lat="51.29493392072618" lon="4.837223812937737">
        <ele>28.5</ele>
        <time>2016-11-18T13:05:40Z</time>
      </trkpt>
      <trkpt lat="51.29495051689446" lon="4.837220460176468">
        <ele>29.460000000000001</ele>
        <time>2016-11-18T13:05:41Z</time>
      </trkpt>
      <trkpt lat="51.295021763071418" lon="4.837200678884983">
        <ele>30.420000000000002</ele>
        <time>2016-11-18T13:05:43Z</time>
      </trkpt>
      <trkpt lat="51.295057972893119" lon="4.837195063009858">
        <ele>31.379999999999999</ele>
        <time>2016-11-18T13:05:44Z</time>
      </trkpt>
      <trkpt lat="51.295085046440363" lon="4.837189614772797">
        <ele>31.379999999999999</ele>
        <time>2016-11-18T13:05:45Z</time>
      </trkpt>
      <trkpt lat="51.295132907107472" lon="4.837186178192496">
        <ele>29.940000000000001</ele>
        <time>2016-11-18T13:05:47Z</time>
      </trkpt>
      <trkpt lat="51.295181103050709" lon="4.837199924513698">
        <ele>30.899999999999999</ele>
        <time>2016-11-18T13:05:49Z</time>
      </trkpt>
      <trkpt lat="51.295225946232677" lon="4.837195314466953">
        <ele>29.460000000000001</ele>
        <time>2016-11-18T13:05:52Z</time>
      </trkpt>
      <trkpt lat="51.29525980912149" lon="4.837189698591828">
        <ele>32.82</ele>
        <time>2016-11-18T13:05:54Z</time>
      </trkpt>
      <trkpt lat="51.295284871011972" lon="4.83718877658248">
        <ele>29.460000000000001</ele>
        <time>2016-11-18T13:05:56Z</time>
      </trkpt>
      <trkpt lat="51.295434823259711" lon="4.837171845138073">
        <ele>28.98</ele>
        <time>2016-11-18T13:06:09Z</time>
      </trkpt>
      <trkpt lat="51.295465920120478" lon="4.837176958099008">
        <ele>31.379999999999999</ele>
        <time>2016-11-18T13:06:11Z</time>
      </trkpt>
      <trkpt lat="51.295594079419971" lon="4.837165307253599">
        <ele>28.98</ele>
        <time>2016-11-18T13:06:20Z</time>
      </trkpt>
      <trkpt lat="51.295809997245669" lon="4.837135132402182">
        <ele>29.460000000000001</ele>
        <time>2016-11-18T13:06:31Z</time>
      </trkpt>
      <trkpt lat="51.295921225100756" lon="4.83714577741921">
        <ele>30.899999999999999</ele>
        <time>2016-11-18T13:06:38Z</time>
      </trkpt>
      <trkpt lat="51.295947963371873" lon="4.837153069674969">
        <ele>30.420000000000002</ele>
        <time>2016-11-18T13:06:40Z</time>
      </trkpt>
      <trkpt lat="51.295989453792572" lon="4.837127504870296">
        <ele>29.940000000000001</ele>
        <time>2016-11-18T13:06:47Z</time>
      </trkpt>
      <trkpt lat="51.296048378571868" lon="4.837048882618547">
        <ele>31.379999999999999</ele>
        <time>2016-11-18T13:06:53Z</time>
      </trkpt>
      <trkpt lat="51.296056592836976" lon="4.837027844041586">
        <ele>29.460000000000001</ele>
        <time>2016-11-18T13:06:54Z</time>
      </trkpt>
      <trkpt lat="51.296067992225289" lon="4.836989203467965">
        <ele>32.340000000000003</ele>
        <time>2016-11-18T13:06:57Z</time>
      </trkpt>
      <trkpt lat="51.296066232025623" lon="4.836938912048936">
        <ele>30.420000000000002</ele>
        <time>2016-11-18T13:06:59Z</time>
      </trkpt>
      <trkpt lat="51.29606262780726" lon="4.836914101615548">
        <ele>31.859999999999999</ele>
        <time>2016-11-18T13:07:00Z</time>
      </trkpt>
      <trkpt lat="51.29605969414115" lon="4.836888117715716">
        <ele>30.420000000000002</ele>
        <time>2016-11-18T13:07:01Z</time>
      </trkpt>
      <trkpt lat="51.296028345823288" lon="4.836344383656979">
        <ele>30.899999999999999</ele>
        <time>2016-11-18T13:07:13Z</time>
      </trkpt>
      <trkpt lat="51.296015689149499" lon="4.836007095873356">
        <ele>28.5</ele>
        <time>2016-11-18T13:07:20Z</time>
      </trkpt>
      <trkpt lat="51.295970845967531" lon="4.835521867498756">
        <ele>29.940000000000001</ele>
        <time>2016-11-18T13:07:29Z</time>
      </trkpt>
      <trkpt lat="51.295939749106765" lon="4.83490688726306">
        <ele>29.940000000000001</ele>
        <time>2016-11-18T13:07:39Z</time>
      </trkpt>
      <trkpt lat="51.29588283598423" lon="4.834430795162916">
        <ele>30.420000000000002</ele>
        <time>2016-11-18T13:07:50Z</time>
      </trkpt>
      <trkpt lat="51.295840423554182" lon="4.834049502387643">
        <ele>30.420000000000002</ele>
        <time>2016-11-18T13:07:57Z</time>
      </trkpt>
      <trkpt lat="51.295774206519127" lon="4.833266800269485">
        <ele>29.940000000000001</ele>
        <time>2016-11-18T13:08:09Z</time>
      </trkpt>
      <trkpt lat="51.295738248154521" lon="4.832918532192707">
        <ele>29.940000000000001</ele>
        <time>2016-11-18T13:08:14Z</time>
      </trkpt>
      <trkpt lat="51.295737996697426" lon="4.832856254652143">
        <ele>28.5</ele>
        <time>2016-11-18T13:08:15Z</time>
      </trkpt>
      <trkpt lat="51.295739756897092" lon="4.832786181941629">
        <ele>28.5</ele>
        <time>2016-11-18T13:08:16Z</time>
      </trkpt>
      <trkpt lat="51.295748809352517" lon="4.83270806260407">
        <ele>29.460000000000001</ele>
        <time>2016-11-18T13:08:17Z</time>
      </trkpt>
      <trkpt lat="51.295773955062032" lon="4.8326425999403">
        <ele>28.98</ele>
        <time>2016-11-18T13:08:18Z</time>
      </trkpt>
      <trkpt lat="51.295768339186907" lon="4.832463813945651">
        <ele>30.899999999999999</ele>
        <time>2016-11-18T13:08:19Z</time>
      </trkpt>
      <trkpt lat="51.295826761052012" lon="4.832377145066857">
        <ele>31.379999999999999</ele>
        <time>2016-11-18T13:08:20Z</time>
      </trkpt>
      <trkpt lat="51.295870766043663" lon="4.832353591918945">
        <ele>28.5</ele>
        <time>2016-11-18T13:08:21Z</time>
      </trkpt>
      <trkpt lat="51.295914268121123" lon="4.832268850877881">
        <ele>31.379999999999999</ele>
        <time>2016-11-18T13:08:22Z</time>
      </trkpt>
      <trkpt lat="51.296435287222266" lon="4.831641130149365">
        <ele>30.420000000000002</ele>
        <time>2016-11-18T13:08:35Z</time>
      </trkpt>
      <trkpt lat="51.296681296080351" lon="4.831401407718658">
        <ele>28.98</ele>
        <time>2016-11-18T13:08:41Z</time>
      </trkpt>
      <trkpt lat="51.296915821731091" lon="4.831153806298971">
        <ele>30.899999999999999</ele>
        <time>2016-11-18T13:08:51Z</time>
      </trkpt>
      <trkpt lat="51.296920934692025" lon="4.83097149990499">
        <ele>31.859999999999999</ele>
        <time>2016-11-18T13:08:57Z</time>
      </trkpt>
      <trkpt lat="51.29690551199019" lon="4.830781482160091">
        <ele>28.98</ele>
        <time>2016-11-18T13:09:06Z</time>
      </trkpt>
      <trkpt lat="51.296905009075999" lon="4.830611161887646">
        <ele>28.02</ele>
        <time>2016-11-18T13:09:10Z</time>
      </trkpt>
      <trkpt lat="51.296905009075999" lon="4.830492222681642">
        <ele>29.460000000000001</ele>
        <time>2016-11-18T13:09:12Z</time>
      </trkpt>
      <trkpt lat="51.296908529475331" lon="4.830371523275971">
        <ele>30.899999999999999</ele>
        <time>2016-11-18T13:09:14Z</time>
      </trkpt>
      <trkpt lat="51.296870140358806" lon="4.829903561621904">
        <ele>27.530000000000001</ele>
        <time>2016-11-18T13:09:21Z</time>
      </trkpt>
      <trkpt lat="51.296830074861646" lon="4.829516317695379">
        <ele>30.899999999999999</ele>
        <time>2016-11-18T13:09:27Z</time>
      </trkpt>
      <trkpt lat="51.296795289963484" lon="4.829279780387878">
        <ele>30.420000000000002</ele>
        <time>2016-11-18T13:09:31Z</time>
      </trkpt>
      <trkpt lat="51.296650115400553" lon="4.828757587820292">
        <ele>31.379999999999999</ele>
        <time>2016-11-18T13:09:41Z</time>
      </trkpt>
      <trkpt lat="51.29662019200623" lon="4.828719031065702">
        <ele>30.420000000000002</ele>
        <time>2016-11-18T13:09:42Z</time>
      </trkpt>
      <trkpt lat="51.296590603888035" lon="4.828677792102099">
        <ele>32.340000000000003</ele>
        <time>2016-11-18T13:09:43Z</time>
      </trkpt>
      <trkpt lat="51.296564787626266" lon="4.82863781042397">
        <ele>32.340000000000003</ele>
        <time>2016-11-18T13:09:44Z</time>
      </trkpt>
      <trkpt lat="51.296533020213246" lon="4.828601432964206">
        <ele>30.899999999999999</ele>
        <time>2016-11-18T13:09:45Z</time>
      </trkpt>
      <trkpt lat="51.296496307477355" lon="4.828564301133156">
        <ele>31.859999999999999</ele>
        <time>2016-11-18T13:09:46Z</time>
      </trkpt>
      <trkpt lat="51.296451631933451" lon="4.828526834025979">
        <ele>30.899999999999999</ele>
        <time>2016-11-18T13:09:47Z</time>
      </trkpt>
      <trkpt lat="51.296406453475356" lon="4.828479308634996">
        <ele>29.940000000000001</ele>
        <time>2016-11-18T13:09:48Z</time>
      </trkpt>
      <trkpt lat="51.296231439337134" lon="4.828296499326825">
        <ele>30.899999999999999</ele>
        <time>2016-11-18T13:09:52Z</time>
      </trkpt>
      <trkpt lat="51.296065058559179" lon="4.828123245388269">
        <ele>31.859999999999999</ele>
        <time>2016-11-18T13:09:56Z</time>
      </trkpt>
      <trkpt lat="51.295884177088737" lon="4.827956110239029">
        <ele>30.899999999999999</ele>
        <time>2016-11-18T13:10:00Z</time>
      </trkpt>
      <trkpt lat="51.295796167105436" lon="4.827874721959233">
        <ele>28.98</ele>
        <time>2016-11-18T13:10:02Z</time>
      </trkpt>
      <trkpt lat="51.295217396691442" lon="4.827295280992985">
        <ele>29.940000000000001</ele>
        <time>2016-11-18T13:10:15Z</time>
      </trkpt>
      <trkpt lat="51.294813137501478" lon="4.826863696798682">
        <ele>30.420000000000002</ele>
        <time>2016-11-18T13:10:24Z</time>
      </trkpt>
      <trkpt lat="51.29470719024539" lon="4.826695807278156">
        <ele>31.859999999999999</ele>
        <time>2016-11-18T13:10:27Z</time>
      </trkpt>
      <trkpt lat="51.294639213010669" lon="4.826561864465475">
        <ele>30.899999999999999</ele>
        <time>2016-11-18T13:10:29Z</time>
      </trkpt>
      <trkpt lat="51.294581713154912" lon="4.826418031007052">
        <ele>30.420000000000002</ele>
        <time>2016-11-18T13:10:31Z</time>
      </trkpt>
      <trkpt lat="51.294562015682459" lon="4.826339827850461">
        <ele>28.98</ele>
        <time>2016-11-18T13:10:32Z</time>
      </trkpt>
      <trkpt lat="51.294548353180289" lon="4.826258104294539">
        <ele>31.859999999999999</ele>
        <time>2016-11-18T13:10:33Z</time>
      </trkpt>
      <trkpt lat="51.294538378715515" lon="4.826174788177013">
        <ele>30.420000000000002</ele>
        <time>2016-11-18T13:10:34Z</time>
      </trkpt>
      <trkpt lat="51.29452689550817" lon="4.826090382412076">
        <ele>29.940000000000001</ele>
        <time>2016-11-18T13:10:35Z</time>
      </trkpt>
      <trkpt lat="51.294516166672111" lon="4.82600505463779">
        <ele>30.899999999999999</ele>
        <time>2016-11-18T13:10:36Z</time>
      </trkpt>
      <trkpt lat="51.294507114216685" lon="4.825922660529614">
        <ele>30.899999999999999</ele>
        <time>2016-11-18T13:10:37Z</time>
      </trkpt>
      <trkpt lat="51.294496720656753" lon="4.825842780992389">
        <ele>28.5</ele>
        <time>2016-11-18T13:10:38Z</time>
      </trkpt>
      <trkpt lat="51.29448976367712" lon="4.82576172798872">
        <ele>30.899999999999999</ele>
        <time>2016-11-18T13:10:39Z</time>
      </trkpt>
      <trkpt lat="51.294478280469775" lon="4.825598197057843">
        <ele>28.98</ele>
        <time>2016-11-18T13:10:41Z</time>
      </trkpt>
      <trkpt lat="51.294432515278459" lon="4.82517440803349">
        <ele>31.859999999999999</ele>
        <time>2016-11-18T13:10:46Z</time>
      </trkpt>
      <trkpt lat="51.294423630461097" lon="4.825090169906616">
        <ele>31.859999999999999</ele>
        <time>2016-11-18T13:10:47Z</time>
      </trkpt>
      <trkpt lat="51.294363448396325" lon="4.824576107785106">
        <ele>29.460000000000001</ele>
        <time>2016-11-18T13:10:53Z</time>
      </trkpt>
      <trkpt lat="51.294300081208348" lon="4.824039833620191">
        <ele>29.940000000000001</ele>
        <time>2016-11-18T13:10:59Z</time>
      </trkpt>
      <trkpt lat="51.29427476786077" lon="4.823761638253927">
        <ele>31.859999999999999</ele>
        <time>2016-11-18T13:11:02Z</time>
      </trkpt>
      <trkpt lat="51.294137304648757" lon="4.822750193998218">
        <ele>31.859999999999999</ele>
        <time>2016-11-18T13:11:14Z</time>
      </trkpt>
      <trkpt lat="51.294126156717539" lon="4.82267601415515">
        <ele>30.899999999999999</ele>
        <time>2016-11-18T13:11:15Z</time>
      </trkpt>
      <trkpt lat="51.294061532244086" lon="4.822277203202248">
        <ele>29.460000000000001</ele>
        <time>2016-11-18T13:11:26Z</time>
      </trkpt>
      <trkpt lat="51.294049881398678" lon="4.822264043614268">
        <ele>31.379999999999999</ele>
        <time>2016-11-18T13:11:28Z</time>
      </trkpt>
      <trkpt lat="51.294047199189663" lon="4.822265636175871">
        <ele>29.940000000000001</ele>
        <time>2016-11-18T13:11:30Z</time>
      </trkpt>
      <trkpt lat="51.294050803408027" lon="4.82228466309607">
        <ele>29.940000000000001</ele>
        <time>2016-11-18T13:11:38Z</time>
      </trkpt>
      <trkpt lat="51.294069746509194" lon="4.822267731651664">
        <ele>31.379999999999999</ele>
        <time>2016-11-18T13:11:44Z</time>
      </trkpt>
      <trkpt lat="51.294065555557609" lon="4.822226911783218">
        <ele>29.460000000000001</ele>
        <time>2016-11-18T13:11:56Z</time>
      </trkpt>
      <trkpt lat="51.294200168922544" lon="4.822045359760523">
        <ele>31.859999999999999</ele>
        <time>2016-11-18T13:12:49Z</time>
      </trkpt>
      <trkpt lat="51.29428549669683" lon="4.821937065571547">
        <ele>30.899999999999999</ele>
        <time>2016-11-18T13:12:53Z</time>
      </trkpt>
      <trkpt lat="51.294280970469117" lon="4.821381010115147">
        <ele>28.02</ele>
        <time>2016-11-18T13:13:04Z</time>
      </trkpt>
      <trkpt lat="51.294294465333223" lon="4.821106670424342">
        <ele>30.420000000000002</ele>
        <time>2016-11-18T13:13:11Z</time>
      </trkpt>
      <trkpt lat="51.294228164479136" lon="4.820531252771616">
        <ele>28.5</ele>
        <time>2016-11-18T13:13:47Z</time>
      </trkpt>
      <trkpt lat="51.294230511412024" lon="4.82048062607646">
        <ele>29.940000000000001</ele>
        <time>2016-11-18T13:13:49Z</time>
      </trkpt>
      <trkpt lat="51.294267559424043" lon="4.819792471826077">
        <ele>30.420000000000002</ele>
        <time>2016-11-18T13:14:20Z</time>
      </trkpt>
      <trkpt lat="51.29419120028615" lon="4.819431379437447">
        <ele>28.98</ele>
        <time>2016-11-18T13:14:28Z</time>
      </trkpt>
      <trkpt lat="51.294148955494165" lon="4.819036759436131">
        <ele>29.460000000000001</ele>
        <time>2016-11-18T13:14:49Z</time>
      </trkpt>
      <trkpt lat="51.294169155880809" lon="4.818963501602411">
        <ele>28.02</ele>
        <time>2016-11-18T13:14:53Z</time>
      </trkpt>
      <trkpt lat="51.294192792847753" lon="4.818681618198752">
        <ele>28.5</ele>
        <time>2016-11-18T13:15:07Z</time>
      </trkpt>
      <trkpt lat="51.294213496148586" lon="4.818560164421797">
        <ele>28.5</ele>
        <time>2016-11-18T13:15:21Z</time>
      </trkpt>
      <trkpt lat="51.294210646301508" lon="4.818557901307941">
        <ele>28.98</ele>
        <time>2016-11-18T13:15:22Z</time>
      </trkpt>
      <trkpt lat="51.294215172529221" lon="4.818532085046172">
        <ele>30.899999999999999</ele>
        <time>2016-11-18T13:15:27Z</time>
      </trkpt>
      <trkpt lat="51.29421760328114" lon="4.818508280441165">
        <ele>28.5</ele>
        <time>2016-11-18T13:15:29Z</time>
      </trkpt>
      <trkpt lat="51.294226236641407" lon="4.818467795848846">
        <ele>30.420000000000002</ele>
        <time>2016-11-18T13:15:32Z</time>
      </trkpt>
      <trkpt lat="51.29424937069416" lon="4.818443572148681">
        <ele>30.420000000000002</ele>
        <time>2016-11-18T13:15:39Z</time>
      </trkpt>
      <trkpt lat="51.294250292703509" lon="4.818450026214123">
        <ele>28.5</ele>
        <time>2016-11-18T13:15:41Z</time>
      </trkpt>
      <trkpt lat="51.294250963255763" lon="4.818448517471552">
        <ele>30.420000000000002</ele>
        <time>2016-11-18T13:15:43Z</time>
      </trkpt>
      <trkpt lat="51.294255321845412" lon="4.818423371762037">
        <ele>28.98</ele>
        <time>2016-11-18T13:15:49Z</time>
      </trkpt>
      <trkpt lat="51.294311732053757" lon="4.818285740911961">
        <ele>30.420000000000002</ele>
        <time>2016-11-18T13:15:57Z</time>
      </trkpt>
      <trkpt lat="51.294333105906844" lon="4.818275263532996">
        <ele>28.98</ele>
        <time>2016-11-18T13:15:59Z</time>
      </trkpt>
      <trkpt lat="51.294463779777288" lon="4.818122293800116">
        <ele>28.98</ele>
        <time>2016-11-18T13:16:07Z</time>
      </trkpt>
      <trkpt lat="51.294596884399652" lon="4.817935880273581">
        <ele>29.940000000000001</ele>
        <time>2016-11-18T13:16:19Z</time>
      </trkpt>
      <trkpt lat="51.294605098664761" lon="4.817880224436522">
        <ele>28.5</ele>
        <time>2016-11-18T13:16:23Z</time>
      </trkpt>
      <trkpt lat="51.294681122526526" lon="4.817709987983108">
        <ele>30.899999999999999</ele>
        <time>2016-11-18T13:16:36Z</time>
      </trkpt>
      <trkpt lat="51.294678188860416" lon="4.817703114822507">
        <ele>29.460000000000001</ele>
        <time>2016-11-18T13:16:37Z</time>
      </trkpt>
      <trkpt lat="51.294695371761918" lon="4.817588785663247">
        <ele>29.940000000000001</ele>
        <time>2016-11-18T13:16:41Z</time>
      </trkpt>
      <trkpt lat="51.29472085274756" lon="4.817379740998149">
        <ele>28.5</ele>
        <time>2016-11-18T13:16:52Z</time>
      </trkpt>
      <trkpt lat="51.294724205508828" lon="4.817368341609836">
        <ele>29.460000000000001</ele>
        <time>2016-11-18T13:16:53Z</time>
      </trkpt>
      <trkpt lat="51.294762091711164" lon="4.817009679973126">
        <ele>28.5</ele>
        <time>2016-11-18T13:17:01Z</time>
      </trkpt>
      <trkpt lat="51.294789919629693" lon="4.816899877041578">
        <ele>30.420000000000002</ele>
        <time>2016-11-18T13:17:03Z</time>
      </trkpt>
      <trkpt lat="51.294825794175267" lon="4.81672209687531">
        <ele>31.379999999999999</ele>
        <time>2016-11-18T13:17:07Z</time>
      </trkpt>
      <trkpt lat="51.294901985675097" lon="4.816200993955135">
        <ele>29.460000000000001</ele>
        <time>2016-11-18T13:17:18Z</time>
      </trkpt>
      <trkpt lat="51.29491682164371" lon="4.816001504659653">
        <ele>30.899999999999999</ele>
        <time>2016-11-18T13:17:22Z</time>
      </trkpt>
      <trkpt lat="51.294915983453393" lon="4.815816599875689">
        <ele>29.940000000000001</ele>
        <time>2016-11-18T13:17:26Z</time>
      </trkpt>
      <trkpt lat="51.294919587671757" lon="4.815778629854322">
        <ele>31.379999999999999</ele>
        <time>2016-11-18T13:17:27Z</time>
      </trkpt>
      <trkpt lat="51.294915899634361" lon="4.815612668171525">
        <ele>28.5</ele>
        <time>2016-11-18T13:17:36Z</time>
      </trkpt>
      <trkpt lat="51.294919671490788" lon="4.815511247143149">
        <ele>30.420000000000002</ele>
        <time>2016-11-18T13:17:41Z</time>
      </trkpt>
      <trkpt lat="51.294907182455063" lon="4.815405299887061">
        <ele>31.379999999999999</ele>
        <time>2016-11-18T13:17:46Z</time>
      </trkpt>
      <trkpt lat="51.294880528002977" lon="4.815301531925798">
        <ele>31.859999999999999</ele>
        <time>2016-11-18T13:17:52Z</time>
      </trkpt>
      <trkpt lat="51.294875498861074" lon="4.815278900787234">
        <ele>29.940000000000001</ele>
        <time>2016-11-18T13:17:53Z</time>
      </trkpt>
      <trkpt lat="51.294870218262076" lon="4.815260795876384">
        <ele>30.420000000000002</ele>
        <time>2016-11-18T13:17:54Z</time>
      </trkpt>
      <trkpt lat="51.29485672339797" lon="4.815208660438657">
        <ele>28.98</ele>
        <time>2016-11-18T13:17:57Z</time>
      </trkpt>
      <trkpt lat="51.294784974306822" lon="4.814964076504111">
        <ele>30.899999999999999</ele>
        <time>2016-11-18T13:18:08Z</time>
      </trkpt>
      <trkpt lat="51.294645164161921" lon="4.814745560288429">
        <ele>30.420000000000002</ele>
        <time>2016-11-18T13:18:17Z</time>
      </trkpt>
      <trkpt lat="51.294582299888134" lon="4.814705578610301">
        <ele>32.340000000000003</ele>
        <time>2016-11-18T13:18:23Z</time>
      </trkpt>
      <trkpt lat="51.294542485848069" lon="4.814666602760553">
        <ele>30.420000000000002</ele>
        <time>2016-11-18T13:18:27Z</time>
      </trkpt>
      <trkpt lat="51.294529410079122" lon="4.814627291634679">
        <ele>30.420000000000002</ele>
        <time>2016-11-18T13:18:29Z</time>
      </trkpt>
      <trkpt lat="51.294528655707836" lon="4.814563924446702">
        <ele>30.899999999999999</ele>
        <time>2016-11-18T13:18:32Z</time>
      </trkpt>
      <trkpt lat="51.294535445049405" lon="4.814547160640359">
        <ele>30.899999999999999</ele>
        <time>2016-11-18T13:18:33Z</time>
      </trkpt>
      <trkpt lat="51.294544246047735" lon="4.814531402662396">
        <ele>31.859999999999999</ele>
        <time>2016-11-18T13:18:34Z</time>
      </trkpt>
      <trkpt lat="51.294551203027368" lon="4.814515477046371">
        <ele>31.859999999999999</ele>
        <time>2016-11-18T13:18:35Z</time>
      </trkpt>
      <trkpt lat="51.294562686234713" lon="4.814481865614653">
        <ele>29.940000000000001</ele>
        <time>2016-11-18T13:18:37Z</time>
      </trkpt>
      <trkpt lat="51.294683301821351" lon="4.814191181212664">
        <ele>30.420000000000002</ele>
        <time>2016-11-18T13:18:46Z</time>
      </trkpt>
      <trkpt lat="51.294892514124513" lon="4.813725398853421">
        <ele>30.420000000000002</ele>
        <time>2016-11-18T13:18:56Z</time>
      </trkpt>
      <trkpt lat="51.295030983164907" lon="4.813425159081817">
        <ele>29.460000000000001</ele>
        <time>2016-11-18T13:19:02Z</time>
      </trkpt>
      <trkpt lat="51.295090159401298" lon="4.813296580687165">
        <ele>31.379999999999999</ele>
        <time>2016-11-18T13:19:05Z</time>
      </trkpt>
      <trkpt lat="51.295113461092114" lon="4.81323229148984">
        <ele>29.460000000000001</ele>
        <time>2016-11-18T13:19:07Z</time>
      </trkpt>
      <trkpt lat="51.295124273747206" lon="4.813215443864465">
        <ele>29.940000000000001</ele>
        <time>2016-11-18T13:19:08Z</time>
      </trkpt>
      <trkpt lat="51.295138522982597" lon="4.813211336731911">
        <ele>31.859999999999999</ele>
        <time>2016-11-18T13:19:09Z</time>
      </trkpt>
      <trkpt lat="51.295157382264733" lon="4.813209408894181">
        <ele>31.379999999999999</ele>
        <time>2016-11-18T13:19:10Z</time>
      </trkpt>
      <trkpt lat="51.295196944847703" lon="4.813193483278155">
        <ele>29.460000000000001</ele>
        <time>2016-11-18T13:19:11Z</time>
      </trkpt>
      <trkpt lat="51.295545380562544" lon="4.812979241833091">
        <ele>29.940000000000001</ele>
        <time>2016-11-18T13:19:21Z</time>
      </trkpt>
      <trkpt lat="51.295897420495749" lon="4.812889136373997">
        <ele>30.420000000000002</ele>
        <time>2016-11-18T13:19:31Z</time>
      </trkpt>
      <trkpt lat="51.295986855402589" lon="4.81286290101707">
        <ele>29.940000000000001</ele>
        <time>2016-11-18T13:19:33Z</time>
      </trkpt>
      <trkpt lat="51.296072183176875" lon="4.812832642346621">
        <ele>31.379999999999999</ele>
        <time>2016-11-18T13:19:35Z</time>
      </trkpt>
      <trkpt lat="51.296239905059338" lon="4.812791235744953">
        <ele>32.82</ele>
        <time>2016-11-18T13:19:40Z</time>
      </trkpt>
      <trkpt lat="51.296324897557497" lon="4.812747649848461">
        <ele>32.340000000000003</ele>
        <time>2016-11-18T13:19:43Z</time>
      </trkpt>
      <trkpt lat="51.296364879235625" lon="4.812727365642786">
        <ele>30.420000000000002</ele>
        <time>2016-11-18T13:19:44Z</time>
      </trkpt>
      <trkpt lat="51.296436963602901" lon="4.812696939334273">
        <ele>33.299999999999997</ele>
        <time>2016-11-18T13:19:46Z</time>
      </trkpt>
      <trkpt lat="51.296484405174851" lon="4.812686629593372">
        <ele>30.899999999999999</ele>
        <time>2016-11-18T13:19:47Z</time>
      </trkpt>
      <trkpt lat="51.296572750434279" lon="4.812638768926263">
        <ele>32.340000000000003</ele>
        <time>2016-11-18T13:19:48Z</time>
      </trkpt>
      <trkpt lat="51.297303484752774" lon="4.812420839443803">
        <ele>32.340000000000003</ele>
        <time>2016-11-18T13:19:59Z</time>
      </trkpt>
      <trkpt lat="51.297403899952769" lon="4.812372056767345">
        <ele>33.299999999999997</ele>
        <time>2016-11-18T13:20:01Z</time>
      </trkpt>
      <trkpt lat="51.297519486397505" lon="4.812297709286213">
        <ele>32.340000000000003</ele>
        <time>2016-11-18T13:20:04Z</time>
      </trkpt>
      <trkpt lat="51.297887787222862" lon="4.812187068164349">
        <ele>30.899999999999999</ele>
        <time>2016-11-18T13:20:11Z</time>
      </trkpt>
      <trkpt lat="51.29813589155674" lon="4.8120859824121">
        <ele>31.379999999999999</ele>
        <time>2016-11-18T13:20:15Z</time>
      </trkpt>
      <trkpt lat="51.298193475231528" lon="4.812059244140983">
        <ele>33.780000000000001</ele>
        <time>2016-11-18T13:20:16Z</time>
      </trkpt>
      <trkpt lat="51.298250472173095" lon="4.812035942450166">
        <ele>33.780000000000001</ele>
        <time>2016-11-18T13:20:17Z</time>
      </trkpt>
      <trkpt lat="51.2983020208776" lon="4.81200534850359">
        <ele>31.859999999999999</ele>
        <time>2016-11-18T13:20:18Z</time>
      </trkpt>
      <trkpt lat="51.298346864059567" lon="4.811970815062523">
        <ele>31.379999999999999</ele>
        <time>2016-11-18T13:20:19Z</time>
      </trkpt>
      <trkpt lat="51.298617012798786" lon="4.811807116493583">
        <ele>33.780000000000001</ele>
        <time>2016-11-18T13:20:25Z</time>
      </trkpt>
      <trkpt lat="51.298665711656213" lon="4.811786497011781">
        <ele>31.379999999999999</ele>
        <time>2016-11-18T13:20:26Z</time>
      </trkpt>
      <trkpt lat="51.298715248703957" lon="4.811768140643835">
        <ele>32.340000000000003</ele>
        <time>2016-11-18T13:20:27Z</time>
      </trkpt>
      <trkpt lat="51.298763696104288" lon="4.811743414029479">
        <ele>33.780000000000001</ele>
        <time>2016-11-18T13:20:28Z</time>
      </trkpt>
      <trkpt lat="51.298804683610797" lon="4.811713742092252">
        <ele>31.379999999999999</ele>
        <time>2016-11-18T13:20:29Z</time>
      </trkpt>
      <trkpt lat="51.298838462680578" lon="4.811687339097261">
        <ele>33.299999999999997</ele>
        <time>2016-11-18T13:20:30Z</time>
      </trkpt>
      <trkpt lat="51.298980787396431" lon="4.811554821208119">
        <ele>30.899999999999999</ele>
        <time>2016-11-18T13:20:35Z</time>
      </trkpt>
      <trkpt lat="51.298992605879903" lon="4.811497991904616">
        <ele>30.899999999999999</ele>
        <time>2016-11-18T13:20:36Z</time>
      </trkpt>
      <trkpt lat="51.298987492918968" lon="4.811423728242517">
        <ele>33.299999999999997</ele>
        <time>2016-11-18T13:20:37Z</time>
      </trkpt>
      <trkpt lat="51.298965699970722" lon="4.811344016343355">
        <ele>32.340000000000003</ele>
        <time>2016-11-18T13:20:38Z</time>
      </trkpt>
      <trkpt lat="51.298937620595098" lon="4.81126707047224">
        <ele>31.859999999999999</ele>
        <time>2016-11-18T13:20:39Z</time>
      </trkpt>
      <trkpt lat="51.298854639753699" lon="4.810931459069252">
        <ele>30.420000000000002</ele>
        <time>2016-11-18T13:20:43Z</time>
      </trkpt>
      <trkpt lat="51.298824967816472" lon="4.810768933966756">
        <ele>32.82</ele>
        <time>2016-11-18T13:20:45Z</time>
      </trkpt>
      <trkpt lat="51.298793703317642" lon="4.810607330873609">
        <ele>30.899999999999999</ele>
        <time>2016-11-18T13:20:47Z</time>
      </trkpt>
      <trkpt lat="51.298731341958046" lon="4.8102917522192">
        <ele>30.420000000000002</ele>
        <time>2016-11-18T13:20:51Z</time>
      </trkpt>
      <trkpt lat="51.298703346401453" lon="4.810102740302682">
        <ele>32.340000000000003</ele>
        <time>2016-11-18T13:20:53Z</time>
      </trkpt>
      <trkpt lat="51.298612654209137" lon="4.809529753401876">
        <ele>33.299999999999997</ele>
        <time>2016-11-18T13:21:00Z</time>
      </trkpt>
      <trkpt lat="51.298578539863229" lon="4.809381226077676">
        <ele>31.379999999999999</ele>
        <time>2016-11-18T13:21:02Z</time>
      </trkpt>
      <trkpt lat="51.298543000593781" lon="4.809220461174846">
        <ele>33.299999999999997</ele>
        <time>2016-11-18T13:21:04Z</time>
      </trkpt>
      <trkpt lat="51.298488937318325" lon="4.808994065970182">
        <ele>31.859999999999999</ele>
        <time>2016-11-18T13:21:07Z</time>
      </trkpt>
      <trkpt lat="51.298428839072585" lon="4.808682929724455">
        <ele>34.740000000000002</ele>
        <time>2016-11-18T13:21:11Z</time>
      </trkpt>
      <trkpt lat="51.298342673107982" lon="4.808262409642339">
        <ele>31.379999999999999</ele>
        <time>2016-11-18T13:21:16Z</time>
      </trkpt>
      <trkpt lat="51.298330267891288" lon="4.808165347203612">
        <ele>31.859999999999999</ele>
        <time>2016-11-18T13:21:17Z</time>
      </trkpt>
      <trkpt lat="51.298280395567417" lon="4.8079380299896">
        <ele>31.379999999999999</ele>
        <time>2016-11-18T13:21:20Z</time>
      </trkpt>
      <trkpt lat="51.298257345333695" lon="4.807864855974913">
        <ele>33.299999999999997</ele>
        <time>2016-11-18T13:21:21Z</time>
      </trkpt>
      <trkpt lat="51.298182746395469" lon="4.807663271203637">
        <ele>29.940000000000001</ele>
        <time>2016-11-18T13:21:24Z</time>
      </trkpt>
      <trkpt lat="51.298140753060579" lon="4.807552210986614">
        <ele>31.859999999999999</ele>
        <time>2016-11-18T13:21:26Z</time>
      </trkpt>
      <trkpt lat="51.298115523532033" lon="4.807500913739204">
        <ele>30.899999999999999</ele>
        <time>2016-11-18T13:21:27Z</time>
      </trkpt>
      <trkpt lat="51.298085851594806" lon="4.807471157982945">
        <ele>29.940000000000001</ele>
        <time>2016-11-18T13:21:28Z</time>
      </trkpt>
      <trkpt lat="51.298057604581118" lon="4.807467134669423">
        <ele>33.299999999999997</ele>
        <time>2016-11-18T13:21:29Z</time>
      </trkpt>
      <trkpt lat="51.298027513548732" lon="4.807479288429022">
        <ele>32.340000000000003</ele>
        <time>2016-11-18T13:21:30Z</time>
      </trkpt>
      <trkpt lat="51.297989962622523" lon="4.807494292035699">
        <ele>31.379999999999999</ele>
        <time>2016-11-18T13:21:31Z</time>
      </trkpt>
      <trkpt lat="51.297953417524695" lon="4.807506948709488">
        <ele>31.859999999999999</ele>
        <time>2016-11-18T13:21:32Z</time>
      </trkpt>
      <trkpt lat="51.29792089574039" lon="4.807523628696799">
        <ele>32.82</ele>
        <time>2016-11-18T13:21:33Z</time>
      </trkpt>
      <trkpt lat="51.297643119469285" lon="4.80768196284771">
        <ele>30.420000000000002</ele>
        <time>2016-11-18T13:21:45Z</time>
      </trkpt>
      <trkpt lat="51.297610010951757" lon="4.807694870978594">
        <ele>32.340000000000003</ele>
        <time>2016-11-18T13:21:48Z</time>
      </trkpt>
      <trkpt lat="51.297599114477634" lon="4.807709204033017">
        <ele>28.98</ele>
        <time>2016-11-18T13:21:50Z</time>
      </trkpt>
      <trkpt lat="51.297527113929391" lon="4.807803081348538">
        <ele>30.899999999999999</ele>
        <time>2016-11-18T13:21:59Z</time>
      </trkpt>
      <trkpt lat="51.297434326261282" lon="4.807872986420989">
        <ele>31.859999999999999</ele>
        <time>2016-11-18T13:22:06Z</time>
      </trkpt>
      <trkpt lat="51.297103744000196" lon="4.808049593120813">
        <ele>28.98</ele>
        <time>2016-11-18T13:22:13Z</time>
      </trkpt>
      <trkpt lat="51.297056470066309" lon="4.808075493201613">
        <ele>30.899999999999999</ele>
        <time>2016-11-18T13:22:14Z</time>
      </trkpt>
      <trkpt lat="51.296706944704056" lon="4.808277161791921">
        <ele>31.379999999999999</ele>
        <time>2016-11-18T13:22:22Z</time>
      </trkpt>
      <trkpt lat="51.296606278046966" lon="4.808329548686743">
        <ele>29.460000000000001</ele>
        <time>2016-11-18T13:22:24Z</time>
      </trkpt>
      <trkpt lat="51.296307044103742" lon="4.808486625552177">
        <ele>28.98</ele>
        <time>2016-11-18T13:22:30Z</time>
      </trkpt>
      <trkpt lat="51.296222805976868" lon="4.80854052118957">
        <ele>30.899999999999999</ele>
        <time>2016-11-18T13:22:32Z</time>
      </trkpt>
      <trkpt lat="51.295824246481061" lon="4.80877697467804">
        <ele>29.460000000000001</ele>
        <time>2016-11-18T13:22:40Z</time>
      </trkpt>
      <trkpt lat="51.294938530772924" lon="4.809063216671348">
        <ele>30.899999999999999</ele>
        <time>2016-11-18T13:22:53Z</time>
      </trkpt>
      <trkpt lat="51.294692102819681" lon="4.809181485325098">
        <ele>29.460000000000001</ele>
        <time>2016-11-18T13:22:58Z</time>
      </trkpt>
      <trkpt lat="51.294608954340219" lon="4.80923680588603">
        <ele>28.5</ele>
        <time>2016-11-18T13:23:00Z</time>
      </trkpt>
      <trkpt lat="51.294431341812015" lon="4.809302520006895">
        <ele>29.940000000000001</ele>
        <time>2016-11-18T13:23:04Z</time>
      </trkpt>
      <trkpt lat="51.294384403154254" lon="4.80929690413177">
        <ele>28.98</ele>
        <time>2016-11-18T13:23:05Z</time>
      </trkpt>
      <trkpt lat="51.294338721781969" lon="4.809276200830936">
        <ele>29.460000000000001</ele>
        <time>2016-11-18T13:23:06Z</time>
      </trkpt>
      <trkpt lat="51.294299578294158" lon="4.809241751208901">
        <ele>30.899999999999999</ele>
        <time>2016-11-18T13:23:07Z</time>
      </trkpt>
      <trkpt lat="51.294268984347582" lon="4.809189531952143">
        <ele>30.899999999999999</ele>
        <time>2016-11-18T13:23:08Z</time>
      </trkpt>
      <trkpt lat="51.294249286875129" lon="4.809131361544132">
        <ele>30.420000000000002</ele>
        <time>2016-11-18T13:23:09Z</time>
      </trkpt>
      <trkpt lat="51.294235624372959" lon="4.809076292440295">
        <ele>28.02</ele>
        <time>2016-11-18T13:23:10Z</time>
      </trkpt>
      <trkpt lat="51.294222800061107" lon="4.809016613289714">
        <ele>29.940000000000001</ele>
        <time>2016-11-18T13:23:11Z</time>
      </trkpt>
      <trkpt lat="51.294201007112861" lon="4.808953581377864">
        <ele>29.940000000000001</ele>
        <time>2016-11-18T13:23:12Z</time>
      </trkpt>
      <trkpt lat="51.294168904423714" lon="4.808891136199236">
        <ele>28.5</ele>
        <time>2016-11-18T13:23:13Z</time>
      </trkpt>
      <trkpt lat="51.294134957715869" lon="4.808832798153162">
        <ele>28.5</ele>
        <time>2016-11-18T13:23:14Z</time>
      </trkpt>
      <trkpt lat="51.294104782864451" lon="4.808764150366187">
        <ele>31.379999999999999</ele>
        <time>2016-11-18T13:23:15Z</time>
      </trkpt>
      <trkpt lat="51.294056167826056" lon="4.80861084535718">
        <ele>28.02</ele>
        <time>2016-11-18T13:23:17Z</time>
      </trkpt>
      <trkpt lat="51.293985089287162" lon="4.808393670246005">
        <ele>30.420000000000002</ele>
        <time>2016-11-18T13:23:20Z</time>
      </trkpt>
      <trkpt lat="51.293941922485828" lon="4.80825612321496">
        <ele>27.530000000000001</ele>
        <time>2016-11-18T13:23:22Z</time>
      </trkpt>
      <trkpt lat="51.293913926929235" lon="4.808213710784912">
        <ele>27.530000000000001</ele>
        <time>2016-11-18T13:23:23Z</time>
      </trkpt>
      <trkpt lat="51.293883332982659" lon="4.808199126273394">
        <ele>28.98</ele>
        <time>2016-11-18T13:23:24Z</time>
      </trkpt>
      <trkpt lat="51.29372457973659" lon="4.808232402428985">
        <ele>28.98</ele>
        <time>2016-11-18T13:23:28Z</time>
      </trkpt>
      <trkpt lat="51.293494077399373" lon="4.808348491787911">
        <ele>27.530000000000001</ele>
        <time>2016-11-18T13:23:33Z</time>
      </trkpt>
      <trkpt lat="51.29343674518168" lon="4.808362741023302">
        <ele>29.460000000000001</ele>
        <time>2016-11-18T13:23:34Z</time>
      </trkpt>
      <trkpt lat="51.293105324730277" lon="4.8084681853652">
        <ele>28.98</ele>
        <time>2016-11-18T13:23:40Z</time>
      </trkpt>
      <trkpt lat="51.29305905662477" lon="4.808483943343163">
        <ele>29.460000000000001</ele>
        <time>2016-11-18T13:23:41Z</time>
      </trkpt>
      <trkpt lat="51.292974147945642" lon="4.808510597795248">
        <ele>30.420000000000002</ele>
        <time>2016-11-18T13:23:43Z</time>
      </trkpt>
      <trkpt lat="51.292744064703584" lon="4.80857664719224">
        <ele>28.98</ele>
        <time>2016-11-18T13:23:47Z</time>
      </trkpt>
      <trkpt lat="51.292610373347998" lon="4.808638170361519">
        <ele>29.460000000000001</ele>
        <time>2016-11-18T13:23:50Z</time>
      </trkpt>
      <trkpt lat="51.292231092229486" lon="4.808768173679709">
        <ele>29.940000000000001</ele>
        <time>2016-11-18T13:23:58Z</time>
      </trkpt>
      <trkpt lat="51.291882153600454" lon="4.808863224461675">
        <ele>26.57</ele>
        <time>2016-11-18T13:24:03Z</time>
      </trkpt>
      <trkpt lat="51.291683753952384" lon="4.808946624398232">
        <ele>27.050000000000001</ele>
        <time>2016-11-18T13:24:07Z</time>
      </trkpt>
      <trkpt lat="51.29163614474237" lon="4.808976715430617">
        <ele>27.050000000000001</ele>
        <time>2016-11-18T13:24:08Z</time>
      </trkpt>
      <trkpt lat="51.291584009304643" lon="4.808997251093388">
        <ele>29.940000000000001</ele>
        <time>2016-11-18T13:24:09Z</time>
      </trkpt>
      <trkpt lat="51.291514188051224" lon="4.809000017121434">
        <ele>27.530000000000001</ele>
        <time>2016-11-18T13:24:10Z</time>
      </trkpt>
      <trkpt lat="51.291392734274268" lon="4.809034718200564">
        <ele>29.460000000000001</ele>
        <time>2016-11-18T13:24:12Z</time>
      </trkpt>
      <trkpt lat="51.291338754817843" lon="4.809068581089377">
        <ele>28.98</ele>
        <time>2016-11-18T13:24:13Z</time>
      </trkpt>
      <trkpt lat="51.291189808398485" lon="4.809163631871343">
        <ele>28.02</ele>
        <time>2016-11-18T13:24:16Z</time>
      </trkpt>
      <trkpt lat="51.291132643818855" lon="4.809175785630941">
        <ele>27.050000000000001</ele>
        <time>2016-11-18T13:24:17Z</time>
      </trkpt>
      <trkpt lat="51.290966933593154" lon="4.809196069836617">
        <ele>27.530000000000001</ele>
        <time>2016-11-18T13:24:20Z</time>
      </trkpt>
      <trkpt lat="51.290861573070288" lon="4.809233201667666">
        <ele>27.530000000000001</ele>
        <time>2016-11-18T13:24:22Z</time>
      </trkpt>
      <trkpt lat="51.290817148983479" lon="4.809244517236948">
        <ele>26.09</ele>
        <time>2016-11-18T13:24:23Z</time>
      </trkpt>
      <trkpt lat="51.29077423363924" lon="4.809223394840956">
        <ele>26.09</ele>
        <time>2016-11-18T13:24:24Z</time>
      </trkpt>
      <trkpt lat="51.290706675499678" lon="4.809148544445634">
        <ele>27.530000000000001</ele>
        <time>2016-11-18T13:24:26Z</time>
      </trkpt>
      <trkpt lat="51.290681781247258" lon="4.809102276340127">
        <ele>27.050000000000001</ele>
        <time>2016-11-18T13:24:27Z</time>
      </trkpt>
      <trkpt lat="51.290484387427568" lon="4.808564241975546">
        <ele>27.530000000000001</ele>
        <time>2016-11-18T13:24:38Z</time>
      </trkpt>
      <trkpt lat="51.290351031348109" lon="4.808130478486419">
        <ele>26.57</ele>
        <time>2016-11-18T13:24:47Z</time>
      </trkpt>
      <trkpt lat="51.290337704122066" lon="4.808078175410628">
        <ele>28.02</ele>
        <time>2016-11-18T13:24:49Z</time>
      </trkpt>
      <trkpt lat="51.29032320342958" lon="4.807978682219982">
        <ele>26.09</ele>
        <time>2016-11-18T13:24:59Z</time>
      </trkpt>
      <trkpt lat="51.290320353582501" lon="4.807975329458714">
        <ele>28.02</ele>
        <time>2016-11-18T13:25:01Z</time>
      </trkpt>
      <trkpt lat="51.290317922830582" lon="4.807970635592938">
        <ele>26.57</ele>
        <time>2016-11-18T13:25:03Z</time>
      </trkpt>
      <trkpt lat="51.29028900526464" lon="4.807932749390602">
        <ele>26.57</ele>
        <time>2016-11-18T13:25:13Z</time>
      </trkpt>
      <trkpt lat="51.290278444066644" lon="4.807893019169569">
        <ele>27.530000000000001</ele>
        <time>2016-11-18T13:25:16Z</time>
      </trkpt>
      <trkpt lat="51.290259752422571" lon="4.807833172380924">
        <ele>26.09</ele>
        <time>2016-11-18T13:25:21Z</time>
      </trkpt>
      <trkpt lat="51.290249023586512" lon="4.807802243158221">
        <ele>27.050000000000001</ele>
        <time>2016-11-18T13:25:29Z</time>
      </trkpt>
      <trkpt lat="51.290221782401204" lon="4.807741306722164">
        <ele>26.09</ele>
        <time>2016-11-18T13:25:36Z</time>
      </trkpt>
      <trkpt lat="51.290177190676332" lon="4.80757987126708">
        <ele>27.530000000000001</ele>
        <time>2016-11-18T13:25:45Z</time>
      </trkpt>
      <trkpt lat="51.290155984461308" lon="4.807509128004313">
        <ele>27.530000000000001</ele>
        <time>2016-11-18T13:25:49Z</time>
      </trkpt>
      <trkpt lat="51.290130754932761" lon="4.807337047532201">
        <ele>28.02</ele>
        <time>2016-11-18T13:25:57Z</time>
      </trkpt>
      <trkpt lat="51.290128156542778" lon="4.807302011176944">
        <ele>25.609999999999999</ele>
        <time>2016-11-18T13:25:59Z</time>
      </trkpt>
      <trkpt lat="51.290086666122079" lon="4.807195561006665">
        <ele>27.050000000000001</ele>
        <time>2016-11-18T13:26:05Z</time>
      </trkpt>
      <trkpt lat="51.290055569261312" lon="4.807120375335217">
        <ele>28.02</ele>
        <time>2016-11-18T13:26:08Z</time>
      </trkpt>
      <trkpt lat="51.29004224203527" lon="4.807078130543232">
        <ele>26.57</ele>
        <time>2016-11-18T13:26:10Z</time>
      </trkpt>
      <trkpt lat="51.290020113810897" lon="4.80703454464674">
        <ele>28.98</ele>
        <time>2016-11-18T13:26:13Z</time>
      </trkpt>
      <trkpt lat="51.289977785199881" lon="4.806933961808682">
        <ele>25.609999999999999</ele>
        <time>2016-11-18T13:26:18Z</time>
      </trkpt>
      <trkpt lat="51.289977785199881" lon="4.806911665946245">
        <ele>28.5</ele>
        <time>2016-11-18T13:26:19Z</time>
      </trkpt>
      <trkpt lat="51.289975941181183" lon="4.806892471387982">
        <ele>28.02</ele>
        <time>2016-11-18T13:26:20Z</time>
      </trkpt>
      <trkpt lat="51.289969990029931" lon="4.806872522458434">
        <ele>25.609999999999999</ele>
        <time>2016-11-18T13:26:21Z</time>
      </trkpt>
      <trkpt lat="51.289961859583855" lon="4.806848550215364">
        <ele>28.5</ele>
        <time>2016-11-18T13:26:22Z</time>
      </trkpt>
      <trkpt lat="51.289956076070666" lon="4.806821560487151">
        <ele>28.5</ele>
        <time>2016-11-18T13:26:23Z</time>
      </trkpt>
      <trkpt lat="51.289953645318747" lon="4.806795911863446">
        <ele>27.050000000000001</ele>
        <time>2016-11-18T13:26:24Z</time>
      </trkpt>
      <trkpt lat="51.28993964754045" lon="4.806726509705186">
        <ele>28.5</ele>
        <time>2016-11-18T13:26:27Z</time>
      </trkpt>
      <trkpt lat="51.289930511265993" lon="4.806708488613367">
        <ele>27.050000000000001</ele>
        <time>2016-11-18T13:26:28Z</time>
      </trkpt>
      <trkpt lat="51.289924560114741" lon="4.806686779484153">
        <ele>25.609999999999999</ele>
        <time>2016-11-18T13:26:29Z</time>
      </trkpt>
      <trkpt lat="51.289920285344124" lon="4.806666411459446">
        <ele>25.609999999999999</ele>
        <time>2016-11-18T13:26:30Z</time>
      </trkpt>
      <trkpt lat="51.289916429668665" lon="4.806649228557944">
        <ele>26.09</ele>
        <time>2016-11-18T13:26:31Z</time>
      </trkpt>
      <trkpt lat="51.289911484345794" lon="4.80663388967514">
        <ele>28.02</ele>
        <time>2016-11-18T13:26:32Z</time>
      </trkpt>
      <trkpt lat="51.289905365556479" lon="4.806615533307195">
        <ele>25.129999999999999</ele>
        <time>2016-11-18T13:26:33Z</time>
      </trkpt>
      <trkpt lat="51.28985851071775" lon="4.806462898850441">
        <ele>25.609999999999999</ele>
        <time>2016-11-18T13:26:41Z</time>
      </trkpt>
      <trkpt lat="51.289833784103394" lon="4.806392239406705">
        <ele>28.02</ele>
        <time>2016-11-18T13:26:45Z</time>
      </trkpt>
      <trkpt lat="51.289804028347135" lon="4.806299284100533">
        <ele>28.02</ele>
        <time>2016-11-18T13:26:51Z</time>
      </trkpt>
      <trkpt lat="51.289791958406568" lon="4.806256117299199">
        <ele>26.57</ele>
        <time>2016-11-18T13:26:54Z</time>
      </trkpt>
      <trkpt lat="51.289726914837956" lon="4.806056041270495">
        <ele>27.530000000000001</ele>
        <time>2016-11-18T13:27:07Z</time>
      </trkpt>
      <trkpt lat="51.289719957858324" lon="4.806026117876172">
        <ele>27.050000000000001</ele>
        <time>2016-11-18T13:27:08Z</time>
      </trkpt>
      <trkpt lat="51.28968751989305" lon="4.80591606348753">
        <ele>25.609999999999999</ele>
        <time>2016-11-18T13:27:13Z</time>
      </trkpt>
      <trkpt lat="51.289612082764506" lon="4.805667120963335">
        <ele>26.57</ele>
        <time>2016-11-18T13:27:22Z</time>
      </trkpt>
      <trkpt lat="51.289608227089047" lon="4.805633006617427">
        <ele>26.09</ele>
        <time>2016-11-18T13:27:23Z</time>
      </trkpt>
      <trkpt lat="51.289601437747478" lon="4.805605849251151">
        <ele>27.050000000000001</ele>
        <time>2016-11-18T13:27:24Z</time>
      </trkpt>
      <trkpt lat="51.289590625092387" lon="4.805583637207747">
        <ele>25.609999999999999</ele>
        <time>2016-11-18T13:27:25Z</time>
      </trkpt>
      <trkpt lat="51.289583500474691" lon="4.805560419335961">
        <ele>25.609999999999999</ele>
        <time>2016-11-18T13:27:26Z</time>
      </trkpt>
      <trkpt lat="51.289546536281705" lon="4.805421447381377">
        <ele>26.57</ele>
        <time>2016-11-18T13:27:32Z</time>
      </trkpt>
      <trkpt lat="51.289462465792894" lon="4.805156663060188">
        <ele>26.57</ele>
        <time>2016-11-18T13:27:45Z</time>
      </trkpt>
      <trkpt lat="51.289410414174199" lon="4.805009560659528">
        <ele>27.530000000000001</ele>
        <time>2016-11-18T13:27:53Z</time>
      </trkpt>
      <trkpt lat="51.289416952058673" lon="4.804986510425806">
        <ele>25.129999999999999</ele>
        <time>2016-11-18T13:27:54Z</time>
      </trkpt>
      <trkpt lat="51.289424914866686" lon="4.804964046925306">
        <ele>25.609999999999999</ele>
        <time>2016-11-18T13:27:55Z</time>
      </trkpt>
      <trkpt lat="51.289395242929459" lon="4.804736729711294">
        <ele>26.09</ele>
        <time>2016-11-18T13:28:05Z</time>
      </trkpt>
      <trkpt lat="51.289311088621616" lon="4.804359627887607">
        <ele>24.649999999999999</ele>
        <time>2016-11-18T13:28:20Z</time>
      </trkpt>
      <trkpt lat="51.289297174662352" lon="4.804323585703969">
        <ele>26.09</ele>
        <time>2016-11-18T13:28:22Z</time>
      </trkpt>
      <trkpt lat="51.289280410856009" lon="4.80425912886858">
        <ele>27.530000000000001</ele>
        <time>2016-11-18T13:28:26Z</time>
      </trkpt>
      <trkpt lat="51.289251996204257" lon="4.804148571565747">
        <ele>24.649999999999999</ele>
        <time>2016-11-18T13:28:31Z</time>
      </trkpt>
      <trkpt lat="51.289210505783558" lon="4.804028039798141">
        <ele>26.09</ele>
        <time>2016-11-18T13:28:38Z</time>
      </trkpt>
      <trkpt lat="51.289202207699418" lon="4.804014042019844">
        <ele>27.050000000000001</ele>
        <time>2016-11-18T13:28:39Z</time>
      </trkpt>
      <trkpt lat="51.289184186607599" lon="4.803980514407158">
        <ele>26.57</ele>
        <time>2016-11-18T13:28:41Z</time>
      </trkpt>
      <trkpt lat="51.28917102701962" lon="4.803971210494638">
        <ele>27.530000000000001</ele>
        <time>2016-11-18T13:28:42Z</time>
      </trkpt>
      <trkpt lat="51.289155101403594" lon="4.803964756429195">
        <ele>27.530000000000001</ele>
        <time>2016-11-18T13:28:43Z</time>
      </trkpt>
      <trkpt lat="51.289155101403594" lon="4.803964756429195">
        <ele>27.530000000000001</ele>
        <time>2016-11-18T13:28:43Z</time>
      </trkpt>
      <trkpt lat="51.289138505235314" lon="4.803962409496307">
        <ele>27.050000000000001</ele>
        <time>2016-11-18T13:28:44Z</time>
      </trkpt>
      <trkpt lat="51.289122076705098" lon="4.803948663175106">
        <ele>24.170000000000002</ele>
        <time>2016-11-18T13:28:45Z</time>
      </trkpt>
      <trkpt lat="51.289111934602261" lon="4.803959308192134">
        <ele>25.609999999999999</ele>
        <time>2016-11-18T13:28:46Z</time>
      </trkpt>
      <trkpt lat="51.289103720337152" lon="4.803975149989128">
        <ele>25.609999999999999</ele>
        <time>2016-11-18T13:28:47Z</time>
      </trkpt>
      <trkpt lat="51.289097769185901" lon="4.803992165252566">
        <ele>25.609999999999999</ele>
        <time>2016-11-18T13:28:48Z</time>
      </trkpt>
      <trkpt lat="51.289094164967537" lon="4.804011359810829">
        <ele>25.609999999999999</ele>
        <time>2016-11-18T13:28:49Z</time>
      </trkpt>
      <trkpt lat="51.289092488586903" lon="4.804028877988458">
        <ele>25.609999999999999</ele>
        <time>2016-11-18T13:28:50Z</time>
      </trkpt>
      <trkpt lat="51.28909039311111" lon="4.804046899080277">
        <ele>26.09</ele>
        <time>2016-11-18T13:28:51Z</time>
      </trkpt>
      <trkpt lat="51.289088632911444" lon="4.804064333438873">
        <ele>27.050000000000001</ele>
        <time>2016-11-18T13:28:52Z</time>
      </trkpt>
      <trkpt lat="51.289086369797587" lon="4.804082605987787">
        <ele>27.530000000000001</ele>
        <time>2016-11-18T13:28:53Z</time>
      </trkpt>
      <trkpt lat="51.289082514122128" lon="4.804101549088955">
        <ele>25.609999999999999</ele>
        <time>2016-11-18T13:28:54Z</time>
      </trkpt>
      <trkpt lat="51.289080334827304" lon="4.80412082746625">
        <ele>25.609999999999999</ele>
        <time>2016-11-18T13:28:55Z</time>
      </trkpt>
      <trkpt lat="51.28907036036253" lon="4.804164664819837">
        <ele>27.530000000000001</ele>
        <time>2016-11-18T13:28:57Z</time>
      </trkpt>
      <trkpt lat="51.289054099470377" lon="4.804183440282941">
        <ele>25.609999999999999</ele>
        <time>2016-11-18T13:29:00Z</time>
      </trkpt>
      <trkpt lat="51.289009088650346" lon="4.804538246244192">
        <ele>26.09</ele>
        <time>2016-11-18T13:29:11Z</time>
      </trkpt>
      <trkpt lat="51.288947565481067" lon="4.805101091042161">
        <ele>25.129999999999999</ele>
        <time>2016-11-18T13:29:20Z</time>
      </trkpt>
      <trkpt lat="51.288904314860702" lon="4.805464949458838">
        <ele>27.050000000000001</ele>
        <time>2016-11-18T13:29:25Z</time>
      </trkpt>
      <trkpt lat="51.28887003287673" lon="4.805785976350308">
        <ele>24.170000000000002</ele>
        <time>2016-11-18T13:29:30Z</time>
      </trkpt>
      <trkpt lat="51.28878939896822" lon="4.806514782831073">
        <ele>24.170000000000002</ele>
        <time>2016-11-18T13:29:42Z</time>
      </trkpt>
      <trkpt lat="51.288783531636" lon="4.806570773944259">
        <ele>27.050000000000001</ele>
        <time>2016-11-18T13:29:43Z</time>
      </trkpt>
      <trkpt lat="51.288764923810959" lon="4.806685019284487">
        <ele>25.609999999999999</ele>
        <time>2016-11-18T13:29:45Z</time>
      </trkpt>
      <trkpt lat="51.288743633776903" lon="4.80680731125176">
        <ele>27.530000000000001</ele>
        <time>2016-11-18T13:29:47Z</time>
      </trkpt>
      <trkpt lat="51.288732988759875" lon="4.80695147998631">
        <ele>26.09</ele>
        <time>2016-11-18T13:29:49Z</time>
      </trkpt>
      <trkpt lat="51.288728546351194" lon="4.807019373402">
        <ele>26.09</ele>
        <time>2016-11-18T13:29:50Z</time>
      </trkpt>
      <trkpt lat="51.288722679018974" lon="4.807089110836387">
        <ele>26.57</ele>
        <time>2016-11-18T13:29:51Z</time>
      </trkpt>
      <trkpt lat="51.288716476410627" lon="4.80716697871685">
        <ele>26.09</ele>
        <time>2016-11-18T13:29:52Z</time>
      </trkpt>
      <trkpt lat="51.288708178326488" lon="4.807239146903157">
        <ele>25.609999999999999</ele>
        <time>2016-11-18T13:29:53Z</time>
      </trkpt>
      <trkpt lat="51.288677332922816" lon="4.807453891262412">
        <ele>25.609999999999999</ele>
        <time>2016-11-18T13:29:56Z</time>
      </trkpt>
      <trkpt lat="51.288661994040012" lon="4.807512816041708">
        <ele>25.609999999999999</ele>
        <time>2016-11-18T13:29:57Z</time>
      </trkpt>
      <trkpt lat="51.288651013746858" lon="4.807566879317164">
        <ele>25.609999999999999</ele>
        <time>2016-11-18T13:29:58Z</time>
      </trkpt>
      <trkpt lat="51.288643721491098" lon="4.80761700309813">
        <ele>28.02</ele>
        <time>2016-11-18T13:29:59Z</time>
      </trkpt>
      <trkpt lat="51.288639195263386" lon="4.807662600651383">
        <ele>25.129999999999999</ele>
        <time>2016-11-18T13:30:00Z</time>
      </trkpt>
      <trkpt lat="51.288637351244688" lon="4.80770786292851">
        <ele>26.09</ele>
        <time>2016-11-18T13:30:01Z</time>
      </trkpt>
      <trkpt lat="51.288639279082417" lon="4.807757483795285">
        <ele>27.050000000000001</ele>
        <time>2016-11-18T13:30:02Z</time>
      </trkpt>
      <trkpt lat="51.288644224405289" lon="4.807800063863397">
        <ele>27.050000000000001</ele>
        <time>2016-11-18T13:30:03Z</time>
      </trkpt>
      <trkpt lat="51.288647325709462" lon="4.807838033884764">
        <ele>25.609999999999999</ele>
        <time>2016-11-18T13:30:04Z</time>
      </trkpt>
      <trkpt lat="51.288645062595606" lon="4.807890336960554">
        <ele>25.129999999999999</ele>
        <time>2016-11-18T13:30:05Z</time>
      </trkpt>
      <trkpt lat="51.288641206920147" lon="4.807939203456044">
        <ele>27.050000000000001</ele>
        <time>2016-11-18T13:30:06Z</time>
      </trkpt>
      <trkpt lat="51.288642464205623" lon="4.807990500703454">
        <ele>25.609999999999999</ele>
        <time>2016-11-18T13:30:07Z</time>
      </trkpt>
      <trkpt lat="51.288555711507797" lon="4.808706985786557">
        <ele>27.050000000000001</ele>
        <time>2016-11-18T13:30:19Z</time>
      </trkpt>
      <trkpt lat="51.288527799770236" lon="4.809007225558162">
        <ele>26.09</ele>
        <time>2016-11-18T13:30:25Z</time>
      </trkpt>
      <trkpt lat="51.288516651839018" lon="4.809048883616924">
        <ele>27.530000000000001</ele>
        <time>2016-11-18T13:30:26Z</time>
      </trkpt>
      <trkpt lat="51.288501815870404" lon="4.809084925800562">
        <ele>26.57</ele>
        <time>2016-11-18T13:30:27Z</time>
      </trkpt>
      <trkpt lat="51.288482202216983" lon="4.809110574424267">
        <ele>26.09</ele>
        <time>2016-11-18T13:30:28Z</time>
      </trkpt>
      <trkpt lat="51.288459403440356" lon="4.809122728183866">
        <ele>26.09</ele>
        <time>2016-11-18T13:30:29Z</time>
      </trkpt>
      <trkpt lat="51.288438029587269" lon="4.809128846973181">
        <ele>27.530000000000001</ele>
        <time>2016-11-18T13:30:30Z</time>
      </trkpt>
      <trkpt lat="51.288311798125505" lon="4.8090985044837">
        <ele>24.649999999999999</ele>
        <time>2016-11-18T13:30:33Z</time>
      </trkpt>
      <trkpt lat="51.287877447903156" lon="4.808979313820601">
        <ele>24.649999999999999</ele>
        <time>2016-11-18T13:30:45Z</time>
      </trkpt>
      <trkpt lat="51.287763956934214" lon="4.808866661041975">
        <ele>27.050000000000001</ele>
        <time>2016-11-18T13:30:49Z</time>
      </trkpt>
      <trkpt lat="51.28761769272387" lon="4.808341199532151">
        <ele>27.530000000000001</ele>
        <time>2016-11-18T13:30:59Z</time>
      </trkpt>
      <trkpt lat="51.287574609741569" lon="4.808148751035333">
        <ele>27.530000000000001</ele>
        <time>2016-11-18T13:31:02Z</time>
      </trkpt>
      <trkpt lat="51.287540579214692" lon="4.808009276166558">
        <ele>24.170000000000002</ele>
        <time>2016-11-18T13:31:04Z</time>
      </trkpt>
      <trkpt lat="51.287523563951254" lon="4.807945489883423">
        <ele>24.170000000000002</ele>
        <time>2016-11-18T13:31:05Z</time>
      </trkpt>
      <trkpt lat="51.287494143471122" lon="4.807843146845698">
        <ele>26.09</ele>
        <time>2016-11-18T13:31:07Z</time>
      </trkpt>
      <trkpt lat="51.287443013861775" lon="4.807678526267409">
        <ele>24.170000000000002</ele>
        <time>2016-11-18T13:31:10Z</time>
      </trkpt>
      <trkpt lat="51.287343101575971" lon="4.807348027825356">
        <ele>24.649999999999999</ele>
        <time>2016-11-18T13:31:16Z</time>
      </trkpt>
      <trkpt lat="51.287233466282487" lon="4.806863218545914">
        <ele>26.57</ele>
        <time>2016-11-18T13:31:23Z</time>
      </trkpt>
      <trkpt lat="51.287174038589001" lon="4.806660208851099">
        <ele>26.57</ele>
        <time>2016-11-18T13:31:27Z</time>
      </trkpt>
      <trkpt lat="51.287082592025399" lon="4.806336583569646">
        <ele>26.09</ele>
        <time>2016-11-18T13:31:33Z</time>
      </trkpt>
      <trkpt lat="51.287066079676151" lon="4.806271120905876">
        <ele>25.129999999999999</ele>
        <time>2016-11-18T13:31:34Z</time>
      </trkpt>
      <trkpt lat="51.287047974765301" lon="4.806198114529252">
        <ele>23.690000000000001</ele>
        <time>2016-11-18T13:31:35Z</time>
      </trkpt>
      <trkpt lat="51.287028528749943" lon="4.80611982755363">
        <ele>26.57</ele>
        <time>2016-11-18T13:31:36Z</time>
      </trkpt>
      <trkpt lat="51.287005729973316" lon="4.806039026007056">
        <ele>26.09</ele>
        <time>2016-11-18T13:31:37Z</time>
      </trkpt>
      <trkpt lat="51.286961808800697" lon="4.805883374065161">
        <ele>25.129999999999999</ele>
        <time>2016-11-18T13:31:39Z</time>
      </trkpt>
      <trkpt lat="51.286716051399708" lon="4.804914593696594">
        <ele>25.609999999999999</ele>
        <time>2016-11-18T13:31:53Z</time>
      </trkpt>
      <trkpt lat="51.286681098863482" lon="4.804787607863545">
        <ele>26.57</ele>
        <time>2016-11-18T13:31:55Z</time>
      </trkpt>
      <trkpt lat="51.286655785515904" lon="4.804678810760379">
        <ele>24.170000000000002</ele>
        <time>2016-11-18T13:31:57Z</time>
      </trkpt>
      <trkpt lat="51.286644218489528" lon="4.804626004770398">
        <ele>27.050000000000001</ele>
        <time>2016-11-18T13:31:58Z</time>
      </trkpt>
      <trkpt lat="51.286631477996707" lon="4.804573534056544">
        <ele>27.050000000000001</ele>
        <time>2016-11-18T13:31:59Z</time>
      </trkpt>
      <trkpt lat="51.286591915413737" lon="4.804405812174082">
        <ele>25.129999999999999</ele>
        <time>2016-11-18T13:32:02Z</time>
      </trkpt>
      <trkpt lat="51.286550760269165" lon="4.804114960134029">
        <ele>26.57</ele>
        <time>2016-11-18T13:32:07Z</time>
      </trkpt>
      <trkpt lat="51.286534415557981" lon="4.804001720622182">
        <ele>24.649999999999999</ele>
        <time>2016-11-18T13:32:09Z</time>
      </trkpt>
      <trkpt lat="51.286432826891541" lon="4.803175097331405">
        <ele>23.690000000000001</ele>
        <time>2016-11-18T13:32:20Z</time>
      </trkpt>
      <trkpt lat="51.286383708938956" lon="4.802801012992859">
        <ele>24.170000000000002</ele>
        <time>2016-11-18T13:32:24Z</time>
      </trkpt>
      <trkpt lat="51.286345990374684" lon="4.802623651921749">
        <ele>26.09</ele>
        <time>2016-11-18T13:32:26Z</time>
      </trkpt>
      <trkpt lat="51.286262003704906" lon="4.802233306691051">
        <ele>24.170000000000002</ele>
        <time>2016-11-18T13:32:31Z</time>
      </trkpt>
      <trkpt lat="51.286246329545975" lon="4.802146721631289">
        <ele>26.09</ele>
        <time>2016-11-18T13:32:32Z</time>
      </trkpt>
      <trkpt lat="51.286231996491551" lon="4.802042618393898">
        <ele>24.170000000000002</ele>
        <time>2016-11-18T13:32:33Z</time>
      </trkpt>
      <trkpt lat="51.286213975399733" lon="4.801949076354504">
        <ele>24.649999999999999</ele>
        <time>2016-11-18T13:32:34Z</time>
      </trkpt>
      <trkpt lat="51.286194529384375" lon="4.801855701953173">
        <ele>26.09</ele>
        <time>2016-11-18T13:32:35Z</time>
      </trkpt>
      <trkpt lat="51.286173658445477" lon="4.801762327551842">
        <ele>26.09</ele>
        <time>2016-11-18T13:32:36Z</time>
      </trkpt>
      <trkpt lat="51.286147674545646" lon="4.801672892645001">
        <ele>24.170000000000002</ele>
        <time>2016-11-18T13:32:37Z</time>
      </trkpt>
      <trkpt lat="51.286118002608418" lon="4.801584798842669">
        <ele>26.09</ele>
        <time>2016-11-18T13:32:38Z</time>
      </trkpt>
      <trkpt lat="51.286033177748322" lon="4.801345244050026">
        <ele>23.690000000000001</ele>
        <time>2016-11-18T13:32:41Z</time>
      </trkpt>
      <trkpt lat="51.2859773542732" lon="4.80118565261364">
        <ele>25.129999999999999</ele>
        <time>2016-11-18T13:32:43Z</time>
      </trkpt>
      <trkpt lat="51.285836286842823" lon="4.800794720649719">
        <ele>25.609999999999999</ele>
        <time>2016-11-18T13:32:48Z</time>
      </trkpt>
      <trkpt lat="51.285772919654846" lon="4.800555249676108">
        <ele>23.210000000000001</ele>
        <time>2016-11-18T13:32:51Z</time>
      </trkpt>
      <trkpt lat="51.285339910537004" lon="4.799224874004722">
        <ele>25.129999999999999</ele>
        <time>2016-11-18T13:33:07Z</time>
      </trkpt>
      <trkpt lat="51.285086860880256" lon="4.798488607630134">
        <ele>23.210000000000001</ele>
        <time>2016-11-18T13:33:17Z</time>
      </trkpt>
      <trkpt lat="51.283749863505363" lon="4.798517692834139">
        <ele>20.1171875</ele>
      </trkpt>
      <trkpt lat="51.283130021765828" lon="4.797088829800487">
        <ele>20.1171875</ele>
      </trkpt>
      <trkpt lat="51.281836526468396" lon="4.797565089538693">
        <ele>20.1171875</ele>
      </trkpt>
      <trkpt lat="51.281965523958206" lon="4.797841943800449">
        <ele>22.25</ele>
        <time>2016-11-18T13:37:16Z</time>
      </trkpt>
      <trkpt lat="51.281976504251361" lon="4.797864407300949">
        <ele>24.649999999999999</ele>
        <time>2016-11-18T13:37:18Z</time>
      </trkpt>
      <trkpt lat="51.282016318291426" lon="4.797930708155036">
        <ele>23.690000000000001</ele>
        <time>2016-11-18T13:37:25Z</time>
      </trkpt>
      <trkpt lat="51.282209437340498" lon="4.798558931797743">
        <ele>24.170000000000002</ele>
        <time>2016-11-18T13:37:54Z</time>
      </trkpt>
      <trkpt lat="51.282350420951843" lon="4.798919856548309">
        <ele>22.25</ele>
        <time>2016-11-18T13:38:11Z</time>
      </trkpt>
      <trkpt lat="51.282374979928136" lon="4.799016080796719">
        <ele>23.690000000000001</ele>
        <time>2016-11-18T13:38:15Z</time>
      </trkpt>
      <trkpt lat="51.282404651865363" lon="4.799067294225097">
        <ele>22.73</ele>
        <time>2016-11-18T13:38:18Z</time>
      </trkpt>
      <trkpt lat="51.282420912757516" lon="4.799082968384028">
        <ele>24.649999999999999</ele>
        <time>2016-11-18T13:38:19Z</time>
      </trkpt>
      <trkpt lat="51.28246458247304" lon="4.799179947003722">
        <ele>22.73</ele>
        <time>2016-11-18T13:38:25Z</time>
      </trkpt>
      <trkpt lat="51.282470868900418" lon="4.799197549000382">
        <ele>23.690000000000001</ele>
        <time>2016-11-18T13:38:26Z</time>
      </trkpt>
      <trkpt lat="51.282476903870702" lon="4.799220180138946">
        <ele>24.649999999999999</ele>
        <time>2016-11-18T13:38:27Z</time>
      </trkpt>
      <trkpt lat="51.282748561352491" lon="4.800053592771292">
        <ele>24.649999999999999</ele>
        <time>2016-11-18T13:46:53Z</time>
      </trkpt>
      <trkpt lat="51.282767755910754" lon="4.8000911436975">
        <ele>25.609999999999999</ele>
        <time>2016-11-18T13:46:56Z</time>
      </trkpt>
      <trkpt lat="51.282786363735795" lon="4.800137747079134">
        <ele>24.649999999999999</ele>
        <time>2016-11-18T13:46:59Z</time>
      </trkpt>
      <trkpt lat="51.282818550243974" lon="4.800209999084473">
        <ele>26.09</ele>
        <time>2016-11-18T13:47:02Z</time>
      </trkpt>
      <trkpt lat="51.282919887453318" lon="4.800372356548905">
        <ele>24.649999999999999</ele>
        <time>2016-11-18T13:47:15Z</time>
      </trkpt>
      <trkpt lat="51.282948469743133" lon="4.800410913303495">
        <ele>26.09</ele>
        <time>2016-11-18T13:47:20Z</time>
      </trkpt>
      <trkpt lat="51.282997252419591" lon="4.800536474213004">
        <ele>24.649999999999999</ele>
        <time>2016-11-18T13:47:32Z</time>
      </trkpt>
      <trkpt lat="51.282922904938459" lon="4.800637057051063">
        <ele>24.649999999999999</ele>
        <time>2016-11-18T13:47:45Z</time>
      </trkpt>
      <trkpt lat="51.282915780320764" lon="4.80064619332552">
        <ele>24.170000000000002</ele>
        <time>2016-11-18T13:47:46Z</time>
      </trkpt>
      <trkpt lat="51.282820226624608" lon="4.800770496949554">
        <ele>23.690000000000001</ele>
        <time>2016-11-18T13:47:58Z</time>
      </trkpt>
      <trkpt lat="51.282747890800238" lon="4.800812657922506">
        <ele>26.09</ele>
        <time>2016-11-18T13:48:03Z</time>
      </trkpt>
      <trkpt lat="51.282605649903417" lon="4.800934614613652">
        <ele>25.609999999999999</ele>
        <time>2016-11-18T13:48:11Z</time>
      </trkpt>
      <trkpt lat="51.282478077337146" lon="4.801290929317474">
        <ele>24.649999999999999</ele>
        <time>2016-11-18T13:48:24Z</time>
      </trkpt>
      <trkpt lat="51.282463073730469" lon="4.801330324262381">
        <ele>26.09</ele>
        <time>2016-11-18T13:48:25Z</time>
      </trkpt>
      <trkpt lat="51.282450165599585" lon="4.801378017291427">
        <ele>26.09</ele>
        <time>2016-11-18T13:48:26Z</time>
      </trkpt>
      <trkpt lat="51.281138733029366" lon="4.801813121885061">
        <ele>26.09</ele>
        <time>2016-11-18T13:49:01Z</time>
      </trkpt>
      <trkpt lat="51.281001018360257" lon="4.801806919276714">
        <ele>27.050000000000001</ele>
        <time>2016-11-18T13:49:03Z</time>
      </trkpt>
      <trkpt lat="51.280808066949248" lon="4.801813624799252">
        <ele>25.129999999999999</ele>
        <time>2016-11-18T13:49:06Z</time>
      </trkpt>
      <trkpt lat="51.280483938753605" lon="4.801802141591907">
        <ele>24.649999999999999</ele>
        <time>2016-11-18T13:49:12Z</time>
      </trkpt>
      <trkpt lat="51.280429288744926" lon="4.80181010439992">
        <ele>25.609999999999999</ele>
        <time>2016-11-18T13:49:13Z</time>
      </trkpt>
      <trkpt lat="51.280237762257457" lon="4.801801471039653">
        <ele>25.609999999999999</ele>
        <time>2016-11-18T13:49:16Z</time>
      </trkpt>
      <trkpt lat="51.28017439506948" lon="4.801808344200254">
        <ele>26.57</ele>
        <time>2016-11-18T13:49:17Z</time>
      </trkpt>
      <trkpt lat="51.279956046491861" lon="4.80186827480793">
        <ele>24.170000000000002</ele>
        <time>2016-11-18T13:49:21Z</time>
      </trkpt>
      <trkpt lat="51.279907263815403" lon="4.801879841834307">
        <ele>24.649999999999999</ele>
        <time>2016-11-18T13:49:22Z</time>
      </trkpt>
      <trkpt lat="51.279808860272169" lon="4.801889061927795">
        <ele>26.09</ele>
        <time>2016-11-18T13:49:24Z</time>
      </trkpt>
      <trkpt lat="51.279584728181362" lon="4.801929797977209">
        <ele>24.649999999999999</ele>
        <time>2016-11-18T13:49:29Z</time>
      </trkpt>
      <trkpt lat="51.279540807008743" lon="4.80195427313447">
        <ele>24.649999999999999</ele>
        <time>2016-11-18T13:49:30Z</time>
      </trkpt>
      <trkpt lat="51.27950007095933" lon="4.801989560946822">
        <ele>24.649999999999999</ele>
        <time>2016-11-18T13:49:31Z</time>
      </trkpt>
      <trkpt lat="51.279464615508914" lon="4.802036415785551">
        <ele>26.57</ele>
        <time>2016-11-18T13:49:32Z</time>
      </trkpt>
      <trkpt lat="51.279435697942972" lon="4.802096262574196">
        <ele>26.09</ele>
        <time>2016-11-18T13:49:33Z</time>
      </trkpt>
      <trkpt lat="51.279412982985377" lon="4.802169939503074">
        <ele>25.129999999999999</ele>
        <time>2016-11-18T13:49:34Z</time>
      </trkpt>
      <trkpt lat="51.279394794255495" lon="4.802247807383537">
        <ele>26.09</ele>
        <time>2016-11-18T13:49:35Z</time>
      </trkpt>
      <trkpt lat="51.279304940253496" lon="4.802637314423919">
        <ele>26.57</ele>
        <time>2016-11-18T13:49:40Z</time>
      </trkpt>
      <trkpt lat="51.279259594157338" lon="4.802814088761807">
        <ele>24.649999999999999</ele>
        <time>2016-11-18T13:49:42Z</time>
      </trkpt>
      <trkpt lat="51.279205111786723" lon="4.803020535036922">
        <ele>27.050000000000001</ele>
        <time>2016-11-18T13:49:45Z</time>
      </trkpt>
      <trkpt lat="51.279163118451834" lon="4.803172498941422">
        <ele>23.690000000000001</ele>
        <time>2016-11-18T13:49:48Z</time>
      </trkpt>
      <trkpt lat="51.278987601399422" lon="4.803530741482973">
        <ele>26.09</ele>
        <time>2016-11-18T13:49:55Z</time>
      </trkpt>
      <trkpt lat="51.278919540345669" lon="4.803617829456925">
        <ele>25.129999999999999</ele>
        <time>2016-11-18T13:49:57Z</time>
      </trkpt>
      <trkpt lat="51.278597675263882" lon="4.803818659856916">
        <ele>26.09</ele>
        <time>2016-11-18T13:50:05Z</time>
      </trkpt>
      <trkpt lat="51.278543611988425" lon="4.803839111700654">
        <ele>27.050000000000001</ele>
        <time>2016-11-18T13:50:06Z</time>
      </trkpt>
      <trkpt lat="51.278487369418144" lon="4.803868783637881">
        <ele>24.649999999999999</ele>
        <time>2016-11-18T13:50:07Z</time>
      </trkpt>
      <trkpt lat="51.278422074392438" lon="4.803912872448564">
        <ele>24.170000000000002</ele>
        <time>2016-11-18T13:50:08Z</time>
      </trkpt>
      <trkpt lat="51.27834253013134" lon="4.803962828591466">
        <ele>24.170000000000002</ele>
        <time>2016-11-18T13:50:09Z</time>
      </trkpt>
      <trkpt lat="51.278275810182095" lon="4.80400406755507">
        <ele>23.210000000000001</ele>
        <time>2016-11-18T13:50:10Z</time>
      </trkpt>
      <trkpt lat="51.278108339756727" lon="4.804103141650558">
        <ele>24.649999999999999</ele>
        <time>2016-11-18T13:50:13Z</time>
      </trkpt>
      <trkpt lat="51.277915136888623" lon="4.804162736982107">
        <ele>25.129999999999999</ele>
        <time>2016-11-18T13:50:17Z</time>
      </trkpt>
      <trkpt lat="51.27781723625958" lon="4.80416189879179">
        <ele>23.690000000000001</ele>
        <time>2016-11-18T13:50:19Z</time>
      </trkpt>
      <trkpt lat="51.277768202126026" lon="4.804165838286281">
        <ele>23.690000000000001</ele>
        <time>2016-11-18T13:50:20Z</time>
      </trkpt>
      <trkpt lat="51.277677258476615" lon="4.804172879084945">
        <ele>23.690000000000001</ele>
        <time>2016-11-18T13:50:22Z</time>
      </trkpt>
      <trkpt lat="51.277632750570774" lon="4.804177824407816">
        <ele>23.210000000000001</ele>
        <time>2016-11-18T13:50:23Z</time>
      </trkpt>
      <trkpt lat="51.277587739750743" lon="4.804191319271922">
        <ele>25.129999999999999</ele>
        <time>2016-11-18T13:50:24Z</time>
      </trkpt>
      <trkpt lat="51.277544321492314" lon="4.804206993430853">
        <ele>25.129999999999999</ele>
        <time>2016-11-18T13:50:25Z</time>
      </trkpt>
      <trkpt lat="51.276847617700696" lon="4.804498516023159">
        <ele>26.09</ele>
        <time>2016-11-18T13:50:35Z</time>
      </trkpt>
      <trkpt lat="51.276796152815223" lon="4.804530367255211">
        <ele>26.09</ele>
        <time>2016-11-18T13:50:36Z</time>
      </trkpt>
      <trkpt lat="51.276426427066326" lon="4.804794983938336">
        <ele>25.129999999999999</ele>
        <time>2016-11-18T13:50:44Z</time>
      </trkpt>
      <trkpt lat="51.27475256100297" lon="4.806279754266143">
        <ele>22.25</ele>
        <time>2016-11-18T13:51:24Z</time>
      </trkpt>
      <trkpt lat="51.274781227111816" lon="4.806350832805038">
        <ele>22.73</ele>
        <time>2016-11-18T13:51:25Z</time>
      </trkpt>
      <trkpt lat="51.274814000353217" lon="4.806426772847772">
        <ele>22.25</ele>
        <time>2016-11-18T13:51:26Z</time>
      </trkpt>
      <trkpt lat="51.274845264852047" lon="4.806513106450439">
        <ele>23.690000000000001</ele>
        <time>2016-11-18T13:51:27Z</time>
      </trkpt>
      <trkpt lat="51.27494165673852" lon="4.806774538010359">
        <ele>25.129999999999999</ele>
        <time>2016-11-18T13:51:30Z</time>
      </trkpt>
      <trkpt lat="51.27497979439795" lon="4.806853327900171">
        <ele>24.649999999999999</ele>
        <time>2016-11-18T13:51:31Z</time>
      </trkpt>
      <trkpt lat="51.275056907907128" lon="4.807004537433386">
        <ele>21.77</ele>
        <time>2016-11-18T13:51:33Z</time>
      </trkpt>
      <trkpt lat="51.275209123268723" lon="4.807285247370601">
        <ele>25.129999999999999</ele>
        <time>2016-11-18T13:51:37Z</time>
      </trkpt>
      <trkpt lat="51.275313980877399" lon="4.807485910132527">
        <ele>22.25</ele>
        <time>2016-11-18T13:51:40Z</time>
      </trkpt>
      <trkpt lat="51.275381706655025" lon="4.807612560689449">
        <ele>23.690000000000001</ele>
        <time>2016-11-18T13:51:42Z</time>
      </trkpt>
      <trkpt lat="51.275948993861675" lon="4.808520739898086">
        <ele>23.210000000000001</ele>
        <time>2016-11-18T13:51:57Z</time>
      </trkpt>
      <trkpt lat="51.276040021330118" lon="4.80860355310142">
        <ele>20.809999999999999</ele>
        <time>2016-11-18T13:51:59Z</time>
      </trkpt>
      <trkpt lat="51.276135072112083" lon="4.80870807543397">
        <ele>23.690000000000001</ele>
        <time>2016-11-18T13:52:01Z</time>
      </trkpt>
      <trkpt lat="51.276519382372499" lon="4.809055672958493">
        <ele>24.649999999999999</ele>
        <time>2016-11-18T13:52:09Z</time>
      </trkpt>
      <trkpt lat="51.27656782977283" lon="4.809115100651979">
        <ele>21.77</ele>
        <time>2016-11-18T13:52:10Z</time>
      </trkpt>
      <trkpt lat="51.27660546451807" lon="4.809181401506066">
        <ele>23.210000000000001</ele>
        <time>2016-11-18T13:52:11Z</time>
      </trkpt>
      <trkpt lat="51.27674519084394" lon="4.809461105614901">
        <ele>21.77</ele>
        <time>2016-11-18T13:52:15Z</time>
      </trkpt>
      <trkpt lat="51.27678282558918" lon="4.809538722038269">
        <ele>21.77</ele>
        <time>2016-11-18T13:52:16Z</time>
      </trkpt>
      <trkpt lat="51.276901764795184" lon="4.809763440862298">
        <ele>23.690000000000001</ele>
        <time>2016-11-18T13:52:19Z</time>
      </trkpt>
      <trkpt lat="51.276933699846268" lon="4.809838710352778">
        <ele>24.170000000000002</ele>
        <time>2016-11-18T13:52:20Z</time>
      </trkpt>
      <trkpt lat="51.276968736201525" lon="4.809907358139753">
        <ele>21.289999999999999</ele>
        <time>2016-11-18T13:52:21Z</time>
      </trkpt>
      <trkpt lat="51.277120783925056" lon="4.810184463858604">
        <ele>20.809999999999999</ele>
        <time>2016-11-18T13:52:25Z</time>
      </trkpt>
      <trkpt lat="51.277155317366123" lon="4.810254033654928">
        <ele>23.690000000000001</ele>
        <time>2016-11-18T13:52:26Z</time>
      </trkpt>
      <trkpt lat="51.27743611112237" lon="4.810806987807155">
        <ele>21.289999999999999</ele>
        <time>2016-11-18T13:52:34Z</time>
      </trkpt>
      <trkpt lat="51.277658902108669" lon="4.811257096007466">
        <ele>21.77</ele>
        <time>2016-11-18T13:52:40Z</time>
      </trkpt>
      <trkpt lat="51.277933828532696" lon="4.811773588880897">
        <ele>21.289999999999999</ele>
        <time>2016-11-18T13:52:47Z</time>
      </trkpt>
      <trkpt lat="51.278119822964072" lon="4.812181787565351">
        <ele>23.210000000000001</ele>
        <time>2016-11-18T13:52:53Z</time>
      </trkpt>
      <trkpt lat="51.278151506558061" lon="4.812255213037133">
        <ele>20.809999999999999</ele>
        <time>2016-11-18T13:52:54Z</time>
      </trkpt>
      <trkpt lat="51.278183273971081" lon="4.812325956299901">
        <ele>24.170000000000002</ele>
        <time>2016-11-18T13:52:55Z</time>
      </trkpt>
      <trkpt lat="51.278236582875252" lon="4.812469957396388">
        <ele>20.809999999999999</ele>
        <time>2016-11-18T13:52:57Z</time>
      </trkpt>
      <trkpt lat="51.278249155730009" lon="4.812547657638788">
        <ele>23.210000000000001</ele>
        <time>2016-11-18T13:52:58Z</time>
      </trkpt>
      <trkpt lat="51.278251921758056" lon="4.812629465013742">
        <ele>23.210000000000001</ele>
        <time>2016-11-18T13:52:59Z</time>
      </trkpt>
      <trkpt lat="51.278244461864233" lon="4.812715044245124">
        <ele>22.25</ele>
        <time>2016-11-18T13:53:00Z</time>
      </trkpt>
      <trkpt lat="51.278228536248207" lon="4.812777657061815">
        <ele>20.32</ele>
        <time>2016-11-18T13:53:01Z</time>
      </trkpt>
      <trkpt lat="51.278205402195454" lon="4.812831552699208">
        <ele>21.289999999999999</ele>
        <time>2016-11-18T13:53:02Z</time>
      </trkpt>
      <trkpt lat="51.278178496286273" lon="4.812871953472495">
        <ele>23.690000000000001</ele>
        <time>2016-11-18T13:53:03Z</time>
      </trkpt>
      <trkpt lat="51.278153769671917" lon="4.812910258769989">
        <ele>20.809999999999999</ele>
        <time>2016-11-18T13:53:04Z</time>
      </trkpt>
      <trkpt lat="51.278134072199464" lon="4.812946217134595">
        <ele>21.77</ele>
        <time>2016-11-18T13:53:05Z</time>
      </trkpt>
      <trkpt lat="51.278113536536694" lon="4.812968512997031">
        <ele>22.25</ele>
        <time>2016-11-18T13:53:06Z</time>
      </trkpt>
      <trkpt lat="51.278086798265576" lon="4.812976056709886">
        <ele>22.73</ele>
        <time>2016-11-18T13:53:07Z</time>
      </trkpt>
      <trkpt lat="51.278058299794793" lon="4.812969854101539">
        <ele>22.73</ele>
        <time>2016-11-18T13:53:08Z</time>
      </trkpt>
      <trkpt lat="51.278030471876264" lon="4.812960298731923">
        <ele>20.809999999999999</ele>
        <time>2016-11-18T13:53:09Z</time>
      </trkpt>
      <trkpt lat="51.277824612334371" lon="4.812779501080513">
        <ele>20.32</ele>
        <time>2016-11-18T13:53:16Z</time>
      </trkpt>
      <trkpt lat="51.2773413117975" lon="4.812341127544642">
        <ele>21.289999999999999</ele>
        <time>2016-11-18T13:53:27Z</time>
      </trkpt>
      <trkpt lat="51.277297725901008" lon="4.81230198405683">
        <ele>21.289999999999999</ele>
        <time>2016-11-18T13:53:28Z</time>
      </trkpt>
      <trkpt lat="51.277069570496678" lon="4.812082210555673">
        <ele>23.690000000000001</ele>
        <time>2016-11-18T13:53:33Z</time>
      </trkpt>
      <trkpt lat="51.276814509183168" lon="4.811788676306605">
        <ele>20.809999999999999</ele>
        <time>2016-11-18T13:53:40Z</time>
      </trkpt>
      <trkpt lat="51.276788944378495" lon="4.811769230291247">
        <ele>20.809999999999999</ele>
        <time>2016-11-18T13:53:41Z</time>
      </trkpt>
      <trkpt lat="51.276762541383505" lon="4.811761267483234">
        <ele>23.210000000000001</ele>
        <time>2016-11-18T13:53:42Z</time>
      </trkpt>
      <trkpt lat="51.276739658787847" lon="4.811774091795087">
        <ele>21.77</ele>
        <time>2016-11-18T13:53:43Z</time>
      </trkpt>
      <trkpt lat="51.276718368753791" lon="4.811798315495253">
        <ele>21.289999999999999</ele>
        <time>2016-11-18T13:53:44Z</time>
      </trkpt>
      <trkpt lat="51.276702526956797" lon="4.811829244717956">
        <ele>22.73</ele>
        <time>2016-11-18T13:53:45Z</time>
      </trkpt>
      <trkpt lat="51.276695150882006" lon="4.811859922483563">
        <ele>20.809999999999999</ele>
        <time>2016-11-18T13:53:46Z</time>
      </trkpt>
      <trkpt lat="51.27669146284461" lon="4.811891773715615">
        <ele>21.289999999999999</ele>
        <time>2016-11-18T13:53:47Z</time>
      </trkpt>
      <trkpt lat="51.276689199730754" lon="4.811927899718285">
        <ele>22.73</ele>
        <time>2016-11-18T13:53:48Z</time>
      </trkpt>
      <trkpt lat="51.276680734008551" lon="4.811966624110937">
        <ele>22.25</ele>
        <time>2016-11-18T13:53:49Z</time>
      </trkpt>
      <trkpt lat="51.276665898039937" lon="4.812002247199416">
        <ele>20.32</ele>
        <time>2016-11-18T13:53:50Z</time>
      </trkpt>
      <trkpt lat="51.276645949110389" lon="4.812033176422119">
        <ele>20.32</ele>
        <time>2016-11-18T13:53:51Z</time>
      </trkpt>
      <trkpt lat="51.276619965210557" lon="4.812073577195406">
        <ele>22.73</ele>
        <time>2016-11-18T13:53:52Z</time>
      </trkpt>
      <trkpt lat="51.276583839207888" lon="4.812112636864185">
        <ele>19.84</ele>
        <time>2016-11-18T13:53:53Z</time>
      </trkpt>
      <trkpt lat="51.276262644678354" lon="4.812373984605074">
        <ele>23.690000000000001</ele>
        <time>2016-11-18T13:54:01Z</time>
      </trkpt>
      <trkpt lat="51.275945138186216" lon="4.812644720077515">
        <ele>20.809999999999999</ele>
        <time>2016-11-18T13:54:08Z</time>
      </trkpt>
      <trkpt lat="51.275766855105758" lon="4.812823422253132">
        <ele>22.73</ele>
        <time>2016-11-18T13:54:12Z</time>
      </trkpt>
      <trkpt lat="51.275720167905092" lon="4.812871450558305">
        <ele>23.210000000000001</ele>
        <time>2016-11-18T13:54:13Z</time>
      </trkpt>
      <trkpt lat="51.275479104369879" lon="4.813078818842769">
        <ele>19.84</ele>
        <time>2016-11-18T13:54:18Z</time>
      </trkpt>
      <trkpt lat="51.275428645312786" lon="4.813119303435087">
        <ele>20.32</ele>
        <time>2016-11-18T13:54:19Z</time>
      </trkpt>
      <trkpt lat="51.275377012789249" lon="4.813152914866805">
        <ele>20.32</ele>
        <time>2016-11-18T13:54:20Z</time>
      </trkpt>
      <trkpt lat="51.275328733026981" lon="4.813181916251779">
        <ele>22.73</ele>
        <time>2016-11-18T13:54:21Z</time>
      </trkpt>
      <trkpt lat="51.27528372220695" lon="4.81321519240737">
        <ele>22.25</ele>
        <time>2016-11-18T13:54:22Z</time>
      </trkpt>
      <trkpt lat="51.275196634232998" lon="4.813294317573309">
        <ele>21.289999999999999</ele>
        <time>2016-11-18T13:54:24Z</time>
      </trkpt>
      <trkpt lat="51.275148103013635" lon="4.813338071107864">
        <ele>22.25</ele>
        <time>2016-11-18T13:54:25Z</time>
      </trkpt>
      <trkpt lat="51.275093788281083" lon="4.813375202938914">
        <ele>21.77</ele>
        <time>2016-11-18T13:54:26Z</time>
      </trkpt>
      <trkpt lat="51.274758176878095" lon="4.813649291172624">
        <ele>20.809999999999999</ele>
        <time>2016-11-18T13:54:33Z</time>
      </trkpt>
      <trkpt lat="51.274472353979945" lon="4.813875937834382">
        <ele>22.73</ele>
        <time>2016-11-18T13:54:39Z</time>
      </trkpt>
      <trkpt lat="51.274368669837713" lon="4.813920697197318">
        <ele>20.32</ele>
        <time>2016-11-18T13:54:41Z</time>
      </trkpt>
      <trkpt lat="51.273993914946914" lon="4.81409864500165">
        <ele>22.73</ele>
        <time>2016-11-18T13:54:48Z</time>
      </trkpt>
      <trkpt lat="51.273948820307851" lon="4.814126808196306">
        <ele>20.32</ele>
        <time>2016-11-18T13:54:49Z</time>
      </trkpt>
      <trkpt lat="51.273597283288836" lon="4.814307605847716">
        <ele>23.210000000000001</ele>
        <time>2016-11-18T13:54:56Z</time>
      </trkpt>
      <trkpt lat="51.273551685735583" lon="4.814340546727181">
        <ele>21.289999999999999</ele>
        <time>2016-11-18T13:54:57Z</time>
      </trkpt>
      <trkpt lat="51.273509943857789" lon="4.814379522576928">
        <ele>20.809999999999999</ele>
        <time>2016-11-18T13:54:58Z</time>
      </trkpt>
      <trkpt lat="51.273471973836422" lon="4.814427131786943">
        <ele>21.289999999999999</ele>
        <time>2016-11-18T13:54:59Z</time>
      </trkpt>
      <trkpt lat="51.273439200595021" lon="4.814496366307139">
        <ele>22.73</ele>
        <time>2016-11-18T13:55:00Z</time>
      </trkpt>
      <trkpt lat="51.273431573063135" lon="4.814563253894448">
        <ele>20.809999999999999</ele>
        <time>2016-11-18T13:55:01Z</time>
      </trkpt>
      <trkpt lat="51.273439871147275" lon="4.814624357968569">
        <ele>21.77</ele>
        <time>2016-11-18T13:55:02Z</time>
      </trkpt>
      <trkpt lat="51.273452192544937" lon="4.814688982442021">
        <ele>22.25</ele>
        <time>2016-11-18T13:55:03Z</time>
      </trkpt>
      <trkpt lat="51.273468285799026" lon="4.814753774553537">
        <ele>22.25</ele>
        <time>2016-11-18T13:55:04Z</time>
      </trkpt>
      <trkpt lat="51.273498376831412" lon="4.814862739294767">
        <ele>19.84</ele>
        <time>2016-11-18T13:55:06Z</time>
      </trkpt>
      <trkpt lat="51.273564593866467" lon="4.815404210239649">
        <ele>19.359999999999999</ele>
        <time>2016-11-18T13:55:16Z</time>
      </trkpt>
      <trkpt lat="51.273627541959286" lon="4.81585280969739">
        <ele>20.32</ele>
        <time>2016-11-18T13:55:26Z</time>
      </trkpt>
      <trkpt lat="51.273666769266129" lon="4.816086832433939">
        <ele>19.84</ele>
        <time>2016-11-18T13:55:30Z</time>
      </trkpt>
      <trkpt lat="51.273754024878144" lon="4.816403249278665">
        <ele>21.77</ele>
        <time>2016-11-18T13:55:35Z</time>
      </trkpt>
      <trkpt lat="51.273855110630393" lon="4.816779848188162">
        <ele>18.879999999999999</ele>
        <time>2016-11-18T13:55:42Z</time>
      </trkpt>
      <trkpt lat="51.273901546373963" lon="4.817006159573793">
        <ele>21.289999999999999</ele>
        <time>2016-11-18T13:55:46Z</time>
      </trkpt>
      <trkpt lat="51.274091061204672" lon="4.817531453445554">
        <ele>20.809999999999999</ele>
        <time>2016-11-18T13:55:56Z</time>
      </trkpt>
      <trkpt lat="51.274270098656416" lon="4.81786941178143">
        <ele>19.359999999999999</ele>
        <time>2016-11-18T13:56:03Z</time>
      </trkpt>
      <trkpt lat="51.274288203567266" lon="4.817925486713648">
        <ele>20.32</ele>
        <time>2016-11-18T13:56:04Z</time>
      </trkpt>
      <trkpt lat="51.27430010586977" lon="4.817992290481925">
        <ele>18.399999999999999</ele>
        <time>2016-11-18T13:56:05Z</time>
      </trkpt>
      <trkpt lat="51.274312008172274" lon="4.818054232746363">
        <ele>18.399999999999999</ele>
        <time>2016-11-18T13:56:06Z</time>
      </trkpt>
      <trkpt lat="51.274324916303158" lon="4.818112319335342">
        <ele>19.84</ele>
        <time>2016-11-18T13:56:07Z</time>
      </trkpt>
      <trkpt lat="51.274343524128199" lon="4.818174596875906">
        <ele>20.32</ele>
        <time>2016-11-18T13:56:08Z</time>
      </trkpt>
      <trkpt lat="51.274368334561586" lon="4.81823829934001">
        <ele>19.359999999999999</ele>
        <time>2016-11-18T13:56:09Z</time>
      </trkpt>
      <trkpt lat="51.27439096570015" lon="4.818301163613796">
        <ele>18.879999999999999</ele>
        <time>2016-11-18T13:56:10Z</time>
      </trkpt>
      <trkpt lat="51.274405717849731" lon="4.818362686783075">
        <ele>17.920000000000002</ele>
        <time>2016-11-18T13:56:11Z</time>
      </trkpt>
      <trkpt lat="51.274448297917843" lon="4.818555470556021">
        <ele>18.399999999999999</ele>
        <time>2016-11-18T13:56:14Z</time>
      </trkpt>
      <trkpt lat="51.27446623519063" lon="4.818614898249507">
        <ele>18.879999999999999</ele>
        <time>2016-11-18T13:56:15Z</time>
      </trkpt>
      <trkpt lat="51.274485681205988" lon="4.818672398105264">
        <ele>18.879999999999999</ele>
        <time>2016-11-18T13:56:16Z</time>
      </trkpt>
      <trkpt lat="51.274502361193299" lon="4.818732831627131">
        <ele>18.879999999999999</ele>
        <time>2016-11-18T13:56:17Z</time>
      </trkpt>
      <trkpt lat="51.274515436962247" lon="4.818796785548329">
        <ele>18.399999999999999</ele>
        <time>2016-11-18T13:56:18Z</time>
      </trkpt>
      <trkpt lat="51.274531194940209" lon="4.818865098059177">
        <ele>19.84</ele>
        <time>2016-11-18T13:56:19Z</time>
      </trkpt>
      <trkpt lat="51.274552065879107" lon="4.818928381428123">
        <ele>17.920000000000002</ele>
        <time>2016-11-18T13:56:20Z</time>
      </trkpt>
      <trkpt lat="51.274573104456067" lon="4.818992167711258">
        <ele>19.359999999999999</ele>
        <time>2016-11-18T13:56:21Z</time>
      </trkpt>
      <trkpt lat="51.274591963738203" lon="4.819053942337632">
        <ele>19.84</ele>
        <time>2016-11-18T13:56:22Z</time>
      </trkpt>
      <trkpt lat="51.274638399481773" lon="4.819179587066174">
        <ele>19.359999999999999</ele>
        <time>2016-11-18T13:56:24Z</time>
      </trkpt>
      <trkpt lat="51.274848449975252" lon="4.81977310962975">
        <ele>20.32</ele>
        <time>2016-11-18T13:56:34Z</time>
      </trkpt>
      <trkpt lat="51.275088423863053" lon="4.820538125932217">
        <ele>19.84</ele>
        <time>2016-11-18T13:56:42Z</time>
      </trkpt>
      <trkpt lat="51.275108540430665" lon="4.8206218611449">
        <ele>19.359999999999999</ele>
        <time>2016-11-18T13:56:43Z</time>
      </trkpt>
      <trkpt lat="51.275174506008625" lon="4.820834845304489">
        <ele>20.809999999999999</ele>
        <time>2016-11-18T13:56:46Z</time>
      </trkpt>
      <trkpt lat="51.275286823511124" lon="4.821332395076752">
        <ele>20.809999999999999</ele>
        <time>2016-11-18T13:56:52Z</time>
      </trkpt>
      <trkpt lat="51.275440044701099" lon="4.821926588192582">
        <ele>18.399999999999999</ele>
        <time>2016-11-18T13:56:59Z</time>
      </trkpt>
      <trkpt lat="51.275524701923132" lon="4.822187181562185">
        <ele>19.359999999999999</ele>
        <time>2016-11-18T13:57:02Z</time>
      </trkpt>
      <trkpt lat="51.2755695451051" lon="4.822326907888055">
        <ele>18.879999999999999</ele>
        <time>2016-11-18T13:57:04Z</time>
      </trkpt>
      <trkpt lat="51.275598043575883" lon="4.822389436885715">
        <ele>19.359999999999999</ele>
        <time>2016-11-18T13:57:05Z</time>
      </trkpt>
      <trkpt lat="51.275624446570873" lon="4.822445930913091">
        <ele>17.920000000000002</ele>
        <time>2016-11-18T13:57:06Z</time>
      </trkpt>
      <trkpt lat="51.27574204467237" lon="4.822750864550471">
        <ele>19.84</ele>
        <time>2016-11-18T13:57:12Z</time>
      </trkpt>
      <trkpt lat="51.275901636108756" lon="4.8231206741184">
        <ele>20.32</ele>
        <time>2016-11-18T13:57:20Z</time>
      </trkpt>
      <trkpt lat="51.276655839756131" lon="4.822415169328451">
        <ele>18.8984375</ele>
      </trkpt>
      <trkpt lat="51.27821889705956" lon="4.826788259670138">
        <ele>18.8984375</ele>
      </trkpt>
      <trkpt lat="51.278946530073881" lon="4.826355250552297">
        <ele>18.8984375</ele>
      </trkpt>
      <trkpt lat="51.279296893626451" lon="4.827784029766917">
        <ele>18.8984375</ele>
      </trkpt>
      <trkpt lat="51.279593277722597" lon="4.828779883682728">
        <ele>18.8984375</ele>
      </trkpt>
      <trkpt lat="51.279701068997383" lon="4.82921289280057">
        <ele>18.8984375</ele>
      </trkpt>
      <trkpt lat="51.280078422278166" lon="4.830511836335063">
        <ele>18.8984375</ele>
      </trkpt>
      <trkpt lat="51.280267015099525" lon="4.830468501895666">
        <ele>18.8984375</ele>
      </trkpt>
      <trkpt lat="51.280536577105522" lon="4.832243705168366">
        <ele>18.8984375</ele>
      </trkpt>
      <trkpt lat="51.279950346797705" lon="4.831810779869556">
        <ele>18.8984375</ele>
      </trkpt>
      <trkpt lat="51.277659656479955" lon="4.832395249977708">
        <ele>18.8984375</ele>
      </trkpt>
      <trkpt lat="51.277605760842562" lon="4.833282893523574">
        <ele>18.8984375</ele>
      </trkpt>
      <trkpt lat="51.275625033304095" lon="4.834040533751249">
        <ele>17.984375</ele>
      </trkpt>
      <trkpt lat="51.275798538699746" lon="4.835888911038637">
        <ele>19.359999999999999</ele>
        <time>2016-11-18T14:48:27Z</time>
      </trkpt>
      <trkpt lat="51.275783367455006" lon="4.83593693934381">
        <ele>19.359999999999999</ele>
        <time>2016-11-18T14:48:26Z</time>
      </trkpt>
      <trkpt lat="51.275800466537476" lon="4.836282273754478">
        <ele>19.359999999999999</ele>
        <time>2016-11-18T14:48:19Z</time>
      </trkpt>
      <trkpt lat="51.275801388546824" lon="4.83632979914546">
        <ele>19.359999999999999</ele>
        <time>2016-11-18T14:48:18Z</time>
      </trkpt>
      <trkpt lat="51.275808764621615" lon="4.836369277909398">
        <ele>19.84</ele>
        <time>2016-11-18T14:48:17Z</time>
      </trkpt>
      <trkpt lat="51.275821002200246" lon="4.836406577378511">
        <ele>19.84</ele>
        <time>2016-11-18T14:48:16Z</time>
      </trkpt>
      <trkpt lat="51.275834664702415" lon="4.83644706197083">
        <ele>19.359999999999999</ele>
        <time>2016-11-18T14:48:15Z</time>
      </trkpt>
      <trkpt lat="51.275854278355837" lon="4.836489139124751">
        <ele>19.359999999999999</ele>
        <time>2016-11-18T14:48:14Z</time>
      </trkpt>
      <trkpt lat="51.275997525081038" lon="4.836565833538771">
        <ele>20.809999999999999</ele>
        <time>2016-11-18T14:48:06Z</time>
      </trkpt>
      <trkpt lat="51.276103556156158" lon="4.836632888764143">
        <ele>24.170000000000002</ele>
        <time>2016-11-18T14:47:53Z</time>
      </trkpt>
      <trkpt lat="51.276155188679695" lon="4.836651161313057">
        <ele>25.129999999999999</ele>
        <time>2016-11-18T14:47:48Z</time>
      </trkpt>
      <trkpt lat="51.276178909465671" lon="4.836657531559467">
        <ele>25.129999999999999</ele>
        <time>2016-11-18T14:47:46Z</time>
      </trkpt>
      <trkpt lat="51.276817442849278" lon="4.836931116878986">
        <ele>27.530000000000001</ele>
        <time>2016-11-18T14:47:06Z</time>
      </trkpt>
      <trkpt lat="51.276827249675989" lon="4.836968500167131">
        <ele>27.530000000000001</ele>
        <time>2016-11-18T14:47:05Z</time>
      </trkpt>
      <trkpt lat="51.276990529149771" lon="4.837133456021547">
        <ele>28.98</ele>
        <time>2016-11-18T14:46:54Z</time>
      </trkpt>
      <trkpt lat="51.27705154940486" lon="4.837173689156771">
        <ele>28.5</ele>
        <time>2016-11-18T14:46:49Z</time>
      </trkpt>
      <trkpt lat="51.277064206078649" lon="4.83717268332839">
        <ele>28.5</ele>
        <time>2016-11-18T14:46:48Z</time>
      </trkpt>
      <trkpt lat="51.277401493862271" lon="4.837214257568121">
        <ele>28.5</ele>
        <time>2016-11-18T14:46:43Z</time>
      </trkpt>
      <trkpt lat="51.277969619259238" lon="4.83687655068934">
        <ele>18.296875</ele>
      </trkpt>
      <trkpt lat="51.278063915669918" lon="4.836638420820236">
        <ele>18.74609375</ele>
      </trkpt>
      <trkpt lat="51.27862986177206" lon="4.836703380569816">
        <ele>18.8984375</ele>
      </trkpt>
      <trkpt lat="51.278912834823132" lon="4.836898175999522">
        <ele>18.8984375</ele>
      </trkpt>
      <trkpt lat="51.279101511463523" lon="4.836898175999522">
        <ele>18.8984375</ele>
      </trkpt>
      <trkpt lat="51.279451791197062" lon="4.836486876010895">
        <ele>18.8984375</ele>
      </trkpt>
      <trkpt lat="51.280179424211383" lon="4.835924031212926">
        <ele>18.8984375</ele>
      </trkpt>
      <trkpt lat="51.280637579038739" lon="4.835447771474719">
        <ele>18.8984375</ele>
      </trkpt>
      <trkpt lat="51.281001437455416" lon="4.834798257797957">
        <ele>18.8984375</ele>
      </trkpt>
      <trkpt lat="51.281365212053061" lon="4.834018908441067">
        <ele>18.8984375</ele>
      </trkpt>
      <trkpt lat="51.281702080741525" lon="4.833521023392677">
        <ele>18.8984375</ele>
      </trkpt>
      <trkpt lat="51.281850356608629" lon="4.833304518833756">
        <ele>18.8984375</ele>
      </trkpt>
      <trkpt lat="51.281850356608629" lon="4.833304518833756">
        <ele>18.8984375</ele>
      </trkpt>
      <trkpt lat="51.282254531979561" lon="4.833044679835439">
        <ele>18.8984375</ele>
      </trkpt>
      <trkpt lat="51.282429713755846" lon="4.832676714286208">
        <ele>18.8984375</ele>
      </trkpt>
      <trkpt lat="51.282693911343813" lon="4.83329689130187">
        <ele>18.399999999999999</ele>
        <time>2016-11-18T14:52:52Z</time>
      </trkpt>
      <trkpt lat="51.282700449228287" lon="4.833313319832087">
        <ele>18.879999999999999</ele>
        <time>2016-11-18T14:52:53Z</time>
      </trkpt>
      <trkpt lat="51.282761301845312" lon="4.833525633439422">
        <ele>19.359999999999999</ele>
        <time>2016-11-18T14:53:04Z</time>
      </trkpt>
      <trkpt lat="51.282930700108409" lon="4.83391840942204">
        <ele>18.879999999999999</ele>
        <time>2016-11-18T14:53:21Z</time>
      </trkpt>
      <trkpt lat="51.283059529960155" lon="4.834142038598657">
        <ele>18.879999999999999</ele>
        <time>2016-11-18T14:53:34Z</time>
      </trkpt>
      <trkpt lat="51.283070594072342" lon="4.834154108539224">
        <ele>19.359999999999999</ele>
        <time>2016-11-18T14:53:35Z</time>
      </trkpt>
      <trkpt lat="51.283203279599547" lon="4.834468346089125">
        <ele>18.879999999999999</ele>
        <time>2016-11-18T14:53:47Z</time>
      </trkpt>
      <trkpt lat="51.283369408920407" lon="4.834691388532519">
        <ele>19.359999999999999</ele>
        <time>2016-11-18T14:53:59Z</time>
      </trkpt>
      <trkpt lat="51.28339447081089" lon="4.834723994135857">
        <ele>18.879999999999999</ele>
        <time>2016-11-18T14:54:02Z</time>
      </trkpt>
      <trkpt lat="51.283398075029254" lon="4.834731621667743">
        <ele>19.359999999999999</ele>
        <time>2016-11-18T14:54:03Z</time>
      </trkpt>
      <trkpt lat="51.283607119694352" lon="4.834921304136515">
        <ele>18.879999999999999</ele>
        <time>2016-11-18T14:54:13Z</time>
      </trkpt>
      <trkpt lat="51.283924793824553" lon="4.835287425667048">
        <ele>18.879999999999999</ele>
        <time>2016-11-18T14:54:23Z</time>
      </trkpt>
      <trkpt lat="51.284036440774798" lon="4.835492698475719">
        <ele>19.359999999999999</ele>
        <time>2016-11-18T14:54:27Z</time>
      </trkpt>
      <trkpt lat="51.284082625061274" lon="4.835547264665365">
        <ele>19.359999999999999</ele>
        <time>2016-11-18T14:54:28Z</time>
      </trkpt>
      <trkpt lat="51.28411958925426" lon="4.83559638261795">
        <ele>19.359999999999999</ele>
        <time>2016-11-18T14:54:29Z</time>
      </trkpt>
      <trkpt lat="51.284415386617184" lon="4.835761673748493">
        <ele>19.359999999999999</ele>
        <time>2016-11-18T14:54:38Z</time>
      </trkpt>
      <trkpt lat="51.284443885087967" lon="4.835790256038308">
        <ele>18.879999999999999</ele>
        <time>2016-11-18T14:54:39Z</time>
      </trkpt>
      <trkpt lat="51.284471964463592" lon="4.835814647376537">
        <ele>19.359999999999999</ele>
        <time>2016-11-18T14:54:40Z</time>
      </trkpt>
      <trkpt lat="51.284508761018515" lon="4.835839793086052">
        <ele>19.359999999999999</ele>
        <time>2016-11-18T14:54:41Z</time>
      </trkpt>
      <trkpt lat="51.284538516774774" lon="4.835860077291727">
        <ele>18.879999999999999</ele>
        <time>2016-11-18T14:54:42Z</time>
      </trkpt>
      <trkpt lat="51.284573720768094" lon="4.835875248536468">
        <ele>19.359999999999999</ele>
        <time>2016-11-18T14:54:43Z</time>
      </trkpt>
      <trkpt lat="51.284611523151398" lon="4.83589100651443">
        <ele>19.84</ele>
        <time>2016-11-18T14:54:44Z</time>
      </trkpt>
      <trkpt lat="51.284650163725019" lon="4.835908524692059">
        <ele>19.359999999999999</ele>
        <time>2016-11-18T14:54:45Z</time>
      </trkpt>
      <trkpt lat="51.284684613347054" lon="4.835928976535797">
        <ele>18.879999999999999</ele>
        <time>2016-11-18T14:54:46Z</time>
      </trkpt>
      <trkpt lat="51.284962724894285" lon="4.836070546880364">
        <ele>19.359999999999999</ele>
        <time>2016-11-18T14:54:55Z</time>
      </trkpt>
      <trkpt lat="51.28525123000145" lon="4.836204154416919">
        <ele>19.359999999999999</ele>
        <time>2016-11-18T14:55:04Z</time>
      </trkpt>
      <trkpt lat="51.285438146442175" lon="4.836346646770835">
        <ele>19.359999999999999</ele>
        <time>2016-11-18T14:55:08Z</time>
      </trkpt>
      <trkpt lat="51.285488102585077" lon="4.836369529366493">
        <ele>19.84</ele>
        <time>2016-11-18T14:55:09Z</time>
      </trkpt>
      <trkpt lat="51.285659428685904" lon="4.836484529078007">
        <ele>20.32</ele>
        <time>2016-11-18T14:55:12Z</time>
      </trkpt>
      <trkpt lat="51.285813236609101" lon="4.836598690599203">
        <ele>19.84</ele>
        <time>2016-11-18T14:55:15Z</time>
      </trkpt>
      <trkpt lat="51.285865288227797" lon="4.836630877107382">
        <ele>18.879999999999999</ele>
        <time>2016-11-18T14:55:16Z</time>
      </trkpt>
      <trkpt lat="51.286259824410081" lon="4.836917957291007">
        <ele>19.359999999999999</ele>
        <time>2016-11-18T14:55:24Z</time>
      </trkpt>
      <trkpt lat="51.286308020353317" lon="4.836943857371807">
        <ele>19.359999999999999</ele>
        <time>2016-11-18T14:55:25Z</time>
      </trkpt>
      <trkpt lat="51.286349762231112" lon="4.836967578157783">
        <ele>20.32</ele>
        <time>2016-11-18T14:55:26Z</time>
      </trkpt>
      <trkpt lat="51.286392007023096" lon="4.836992472410202">
        <ele>19.84</ele>
        <time>2016-11-18T14:55:27Z</time>
      </trkpt>
      <trkpt lat="51.286437520757318" lon="4.837015606462956">
        <ele>19.359999999999999</ele>
        <time>2016-11-18T14:55:28Z</time>
      </trkpt>
      <trkpt lat="51.286482950672507" lon="4.837036728858948">
        <ele>19.359999999999999</ele>
        <time>2016-11-18T14:55:29Z</time>
      </trkpt>
      <trkpt lat="51.286874301731586" lon="4.837298998609185">
        <ele>19.359999999999999</ele>
        <time>2016-11-18T14:55:39Z</time>
      </trkpt>
      <trkpt lat="51.287189545109868" lon="4.83747560530901">
        <ele>20.32</ele>
        <time>2016-11-18T14:55:49Z</time>
      </trkpt>
      <trkpt lat="51.287552732974291" lon="4.837694708257914">
        <ele>19.359999999999999</ele>
        <time>2016-11-18T14:55:59Z</time>
      </trkpt>
      <trkpt lat="51.287670666351914" lon="4.837755812332034">
        <ele>19.84</ele>
        <time>2016-11-18T14:56:02Z</time>
      </trkpt>
      <trkpt lat="51.287722969427705" lon="4.837773833423853">
        <ele>20.32</ele>
        <time>2016-11-18T14:56:03Z</time>
      </trkpt>
      <trkpt lat="51.287779295817018" lon="4.837799733504653">
        <ele>20.32</ele>
        <time>2016-11-18T14:56:04Z</time>
      </trkpt>
      <trkpt lat="51.287825144827366" lon="4.837820436805487">
        <ele>20.32</ele>
        <time>2016-11-18T14:56:05Z</time>
      </trkpt>
      <trkpt lat="51.287861606106162" lon="4.837837619706988">
        <ele>20.32</ele>
        <time>2016-11-18T14:56:06Z</time>
      </trkpt>
      <trkpt lat="51.287899995222688" lon="4.837860921397805">
        <ele>20.32</ele>
        <time>2016-11-18T14:56:07Z</time>
      </trkpt>
      <trkpt lat="51.288217417895794" lon="4.838162502273917">
        <ele>20.809999999999999</ele>
        <time>2016-11-18T14:56:18Z</time>
      </trkpt>
      <trkpt lat="51.288215573877096" lon="4.838215475901961">
        <ele>20.32</ele>
        <time>2016-11-18T14:56:20Z</time>
      </trkpt>
      <trkpt lat="51.288116918876767" lon="4.838362075388432">
        <ele>20.32</ele>
        <time>2016-11-18T14:56:23Z</time>
      </trkpt>
      <trkpt lat="51.288066292181611" lon="4.838434411212802">
        <ele>20.32</ele>
        <time>2016-11-18T14:56:24Z</time>
      </trkpt>
      <trkpt lat="51.287920530885458" lon="4.838630631566048">
        <ele>19.84</ele>
        <time>2016-11-18T14:56:28Z</time>
      </trkpt>
      <trkpt lat="51.287893541157246" lon="4.838710175827146">
        <ele>19.84</ele>
        <time>2016-11-18T14:56:29Z</time>
      </trkpt>
      <trkpt lat="51.287795640528202" lon="4.838879238814116">
        <ele>19.84</ele>
        <time>2016-11-18T14:56:32Z</time>
      </trkpt>
      <trkpt lat="51.287543009966612" lon="4.839275702834129">
        <ele>20.32</ele>
        <time>2016-11-18T14:56:41Z</time>
      </trkpt>
      <trkpt lat="51.287467237561941" lon="4.839355163276196">
        <ele>20.32</ele>
        <time>2016-11-18T14:56:43Z</time>
      </trkpt>
      <trkpt lat="51.287352405488491" lon="4.839540403336287">
        <ele>19.84</ele>
        <time>2016-11-18T14:56:47Z</time>
      </trkpt>
      <trkpt lat="51.287349136546254" lon="4.839596645906568">
        <ele>19.84</ele>
        <time>2016-11-18T14:56:48Z</time>
      </trkpt>
      <trkpt lat="51.287360871210694" lon="4.839705862104893">
        <ele>19.359999999999999</ele>
        <time>2016-11-18T14:56:50Z</time>
      </trkpt>
      <trkpt lat="51.287475870922208" lon="4.840085143223405">
        <ele>19.84</ele>
        <time>2016-11-18T14:56:57Z</time>
      </trkpt>
      <trkpt lat="51.287494143471122" lon="4.84013476409018">
        <ele>19.359999999999999</ele>
        <time>2016-11-18T14:56:58Z</time>
      </trkpt>
      <trkpt lat="51.287728752940893" lon="4.84052368439734">
        <ele>19.84</ele>
        <time>2016-11-18T14:57:07Z</time>
      </trkpt>
      <trkpt lat="51.287855235859752" lon="4.84072451479733">
        <ele>19.84</ele>
        <time>2016-11-18T14:57:12Z</time>
      </trkpt>
      <trkpt lat="51.288061011582613" lon="4.840924590826035">
        <ele>19.84</ele>
        <time>2016-11-18T14:57:18Z</time>
      </trkpt>
      <trkpt lat="51.288109207525849" lon="4.840952921658754">
        <ele>19.359999999999999</ele>
        <time>2016-11-18T14:57:19Z</time>
      </trkpt>
      <trkpt lat="51.28826854750514" lon="4.841064736247063">
        <ele>20.32</ele>
        <time>2016-11-18T14:57:22Z</time>
      </trkpt>
      <trkpt lat="51.288500810042024" lon="4.841341506689787">
        <ele>19.84</ele>
        <time>2016-11-18T14:57:26Z</time>
      </trkpt>
      <trkpt lat="51.288641877472401" lon="4.841434881091118">
        <ele>19.84</ele>
        <time>2016-11-18T14:57:29Z</time>
      </trkpt>
      <trkpt lat="51.288678422570229" lon="4.841453069821">
        <ele>19.84</ele>
        <time>2016-11-18T14:57:30Z</time>
      </trkpt>
      <trkpt lat="51.288715722039342" lon="4.841462038457394">
        <ele>19.359999999999999</ele>
        <time>2016-11-18T14:57:31Z</time>
      </trkpt>
      <trkpt lat="51.288998778909445" lon="4.841568237170577">
        <ele>19.359999999999999</ele>
        <time>2016-11-18T14:57:40Z</time>
      </trkpt>
      <trkpt lat="51.289040520787239" lon="4.841631855815649">
        <ele>19.84</ele>
        <time>2016-11-18T14:57:41Z</time>
      </trkpt>
      <trkpt lat="51.289134901016951" lon="4.841726319864392">
        <ele>19.84</ele>
        <time>2016-11-18T14:57:43Z</time>
      </trkpt>
      <trkpt lat="51.289556343108416" lon="4.842251529917121">
        <ele>19.359999999999999</ele>
        <time>2016-11-18T14:57:51Z</time>
      </trkpt>
      <trkpt lat="51.289726076647639" lon="4.842443559318781">
        <ele>19.359999999999999</ele>
        <time>2016-11-18T14:57:55Z</time>
      </trkpt>
      <trkpt lat="51.289778966456652" lon="4.842492090538144">
        <ele>19.359999999999999</ele>
        <time>2016-11-18T14:57:57Z</time>
      </trkpt>
      <trkpt lat="51.289749462157488" lon="4.842638438567519">
        <ele>19.84</ele>
        <time>2016-11-18T14:58:00Z</time>
      </trkpt>
      <trkpt lat="51.289726160466671" lon="4.842678168788552">
        <ele>19.84</ele>
        <time>2016-11-18T14:58:01Z</time>
      </trkpt>
      <trkpt lat="51.289699673652649" lon="4.842713959515095">
        <ele>18.879999999999999</ele>
        <time>2016-11-18T14:58:02Z</time>
      </trkpt>
      <trkpt lat="51.289670169353485" lon="4.84274891205132">
        <ele>19.359999999999999</ele>
        <time>2016-11-18T14:58:03Z</time>
      </trkpt>
      <trkpt lat="51.289634043350816" lon="4.842784367501736">
        <ele>19.359999999999999</ele>
        <time>2016-11-18T14:58:04Z</time>
      </trkpt>
      <trkpt lat="51.289592469111085" lon="4.842812111601234">
        <ele>19.359999999999999</ele>
        <time>2016-11-18T14:58:05Z</time>
      </trkpt>
      <trkpt lat="51.289549469947815" lon="4.842829797416925">
        <ele>19.359999999999999</ele>
        <time>2016-11-18T14:58:06Z</time>
      </trkpt>
      <trkpt lat="51.289503872394562" lon="4.842848153784871">
        <ele>19.359999999999999</ele>
        <time>2016-11-18T14:58:07Z</time>
      </trkpt>
      <trkpt lat="51.289457520470023" lon="4.842871706932783">
        <ele>18.879999999999999</ele>
        <time>2016-11-18T14:58:08Z</time>
      </trkpt>
      <trkpt lat="51.289413431659341" lon="4.842893416061997">
        <ele>19.359999999999999</ele>
        <time>2016-11-18T14:58:09Z</time>
      </trkpt>
      <trkpt lat="51.289364481344819" lon="4.842913532629609">
        <ele>19.359999999999999</ele>
        <time>2016-11-18T14:58:10Z</time>
      </trkpt>
      <trkpt lat="51.289081089198589" lon="4.843076476827264">
        <ele>18.399999999999999</ele>
        <time>2016-11-18T14:58:18Z</time>
      </trkpt>
      <trkpt lat="51.288821501657367" lon="4.84336506575346">
        <ele>19.359999999999999</ele>
        <time>2016-11-18T14:58:27Z</time>
      </trkpt>
      <trkpt lat="51.288565769791603" lon="4.843731019645929">
        <ele>19.359999999999999</ele>
        <time>2016-11-18T14:58:38Z</time>
      </trkpt>
      <trkpt lat="51.288465270772576" lon="4.843862783163786">
        <ele>18.879999999999999</ele>
        <time>2016-11-18T14:58:51Z</time>
      </trkpt>
      <trkpt lat="51.288394276052713" lon="4.843936124816537">
        <ele>19.84</ele>
        <time>2016-11-18T14:58:56Z</time>
      </trkpt>
      <trkpt lat="51.288291178643703" lon="4.844107953831554">
        <ele>19.359999999999999</ele>
        <time>2016-11-18T14:59:10Z</time>
      </trkpt>
      <trkpt lat="51.288212221115828" lon="4.844215242192149">
        <ele>18.879999999999999</ele>
        <time>2016-11-18T14:59:19Z</time>
      </trkpt>
      <trkpt lat="51.288203587755561" lon="4.844237621873617">
        <ele>18.879999999999999</ele>
        <time>2016-11-18T14:59:20Z</time>
      </trkpt>
      <trkpt lat="51.288128234446049" lon="4.844336695969105">
        <ele>18.879999999999999</ele>
        <time>2016-11-18T14:59:27Z</time>
      </trkpt>
      <trkpt lat="51.288058748468757" lon="4.844458233565092">
        <ele>18.879999999999999</ele>
        <time>2016-11-18T14:59:36Z</time>
      </trkpt>
      <trkpt lat="51.288022371008992" lon="4.844498131424189">
        <ele>18.879999999999999</ele>
        <time>2016-11-18T14:59:40Z</time>
      </trkpt>
      <trkpt lat="51.287863031029701" lon="4.844613214954734">
        <ele>18.879999999999999</ele>
        <time>2016-11-18T14:59:49Z</time>
      </trkpt>
      <trkpt lat="51.287850709632039" lon="4.844636097550392">
        <ele>18.399999999999999</ele>
        <time>2016-11-18T14:59:50Z</time>
      </trkpt>
      <trkpt lat="51.287801843136549" lon="4.844839191064239">
        <ele>18.879999999999999</ele>
        <time>2016-11-18T15:00:04Z</time>
      </trkpt>
      <trkpt lat="51.287919273599982" lon="4.845061479136348">
        <ele>18.879999999999999</ele>
        <time>2016-11-18T15:00:19Z</time>
      </trkpt>
      <trkpt lat="51.287920027971268" lon="4.84510749578476">
        <ele>19.359999999999999</ele>
        <time>2016-11-18T15:00:22Z</time>
      </trkpt>
      <trkpt lat="51.287924889475107" lon="4.845117386430502">
        <ele>19.359999999999999</ele>
        <time>2016-11-18T15:00:23Z</time>
      </trkpt>
      <trkpt lat="51.287943413481116" lon="4.845153512433171">
        <ele>19.84</ele>
        <time>2016-11-18T15:00:27Z</time>
      </trkpt>
      <trkpt lat="51.287981886416674" lon="4.845248898491263">
        <ele>19.359999999999999</ele>
        <time>2016-11-18T15:00:31Z</time>
      </trkpt>
      <trkpt lat="51.288054138422012" lon="4.845413519069552">
        <ele>19.84</ele>
        <time>2016-11-18T15:00:39Z</time>
      </trkpt>
      <trkpt lat="51.288065705448389" lon="4.845569171011448">
        <ele>19.359999999999999</ele>
        <time>2016-11-18T15:00:44Z</time>
      </trkpt>
      <trkpt lat="51.288093784824014" lon="4.845929928123951">
        <ele>19.359999999999999</ele>
        <time>2016-11-18T15:00:56Z</time>
      </trkpt>
      <trkpt lat="51.288054725155234" lon="4.846063032746315">
        <ele>19.84</ele>
        <time>2016-11-18T15:01:03Z</time>
      </trkpt>
      <trkpt lat="51.287998734042048" lon="4.846336785703898">
        <ele>20.32</ele>
        <time>2016-11-18T15:01:18Z</time>
      </trkpt>
      <trkpt lat="51.287823552265763" lon="4.847143124789">
        <ele>20.32</ele>
        <time>2016-11-18T15:01:56Z</time>
      </trkpt>
      <trkpt lat="51.287813577800989" lon="4.847163073718548">
        <ele>20.32</ele>
        <time>2016-11-18T15:01:57Z</time>
      </trkpt>
      <trkpt lat="51.287716180086136" lon="4.847380081191659">
        <ele>20.809999999999999</ele>
        <time>2016-11-18T15:02:10Z</time>
      </trkpt>
      <trkpt lat="51.287552313879132" lon="4.847606057301164">
        <ele>20.809999999999999</ele>
        <time>2016-11-18T15:02:26Z</time>
      </trkpt>
      <trkpt lat="51.287480564787984" lon="4.847844354808331">
        <ele>20.809999999999999</ele>
        <time>2016-11-18T15:02:40Z</time>
      </trkpt>
      <trkpt lat="51.287361960858107" lon="4.848113162443042">
        <ele>20.809999999999999</ele>
        <time>2016-11-18T15:02:53Z</time>
      </trkpt>
      <trkpt lat="51.287345783784986" lon="4.84837886877358">
        <ele>20.809999999999999</ele>
        <time>2016-11-18T15:03:03Z</time>
      </trkpt>
      <trkpt lat="51.2873415928334" lon="4.848406780511141">
        <ele>20.809999999999999</ele>
        <time>2016-11-18T15:03:04Z</time>
      </trkpt>
      <trkpt lat="51.287306975573301" lon="4.848504681140184">
        <ele>20.809999999999999</ele>
        <time>2016-11-18T15:03:10Z</time>
      </trkpt>
      <trkpt lat="51.287273867055774" lon="4.848605515435338">
        <ele>21.77</ele>
        <time>2016-11-18T15:03:18Z</time>
      </trkpt>
      <trkpt lat="51.287212679162621" lon="4.848765023052692">
        <ele>21.77</ele>
        <time>2016-11-18T15:03:30Z</time>
      </trkpt>
      <trkpt lat="51.287211505696177" lon="4.848790587857366">
        <ele>21.289999999999999</ele>
        <time>2016-11-18T15:03:31Z</time>
      </trkpt>
      <trkpt lat="51.287214774638414" lon="4.848954789340496">
        <ele>21.289999999999999</ele>
        <time>2016-11-18T15:03:38Z</time>
      </trkpt>
      <trkpt lat="51.287143277004361" lon="4.849260225892067">
        <ele>21.77</ele>
        <time>2016-11-18T15:03:49Z</time>
      </trkpt>
      <trkpt lat="51.287146294489503" lon="4.849289730191231">
        <ele>21.77</ele>
        <time>2016-11-18T15:03:50Z</time>
      </trkpt>
      <trkpt lat="51.287051076069474" lon="4.84954428859055">
        <ele>22.25</ele>
        <time>2016-11-18T15:04:04Z</time>
      </trkpt>
      <trkpt lat="51.287036994472146" lon="4.84956675209105">
        <ele>21.77</ele>
        <time>2016-11-18T15:04:05Z</time>
      </trkpt>
      <trkpt lat="51.286994833499193" lon="4.84980714507401">
        <ele>22.25</ele>
        <time>2016-11-18T15:04:17Z</time>
      </trkpt>
      <trkpt lat="51.286912942305207" lon="4.850119790062308">
        <ele>22.25</ele>
        <time>2016-11-18T15:04:31Z</time>
      </trkpt>
      <trkpt lat="51.286884611472487" lon="4.850274436175823">
        <ele>21.77</ele>
        <time>2016-11-18T15:04:39Z</time>
      </trkpt>
      <trkpt lat="51.286880420520902" lon="4.850291283801198">
        <ele>21.77</ele>
        <time>2016-11-18T15:04:40Z</time>
      </trkpt>
      <trkpt lat="51.286856615915895" lon="4.850517511367798">
        <ele>21.77</ele>
        <time>2016-11-18T15:04:52Z</time>
      </trkpt>
      <trkpt lat="51.286807749420404" lon="4.850684059783816">
        <ele>21.77</ele>
        <time>2016-11-18T15:05:06Z</time>
      </trkpt>
      <trkpt lat="51.286775479093194" lon="4.850788833573461">
        <ele>22.73</ele>
        <time>2016-11-18T15:05:12Z</time>
      </trkpt>
      <trkpt lat="51.286640865728259" lon="4.851130899041891">
        <ele>22.73</ele>
        <time>2016-11-18T15:05:25Z</time>
      </trkpt>
      <trkpt lat="51.286588059738278" lon="4.851257717236877">
        <ele>22.73</ele>
        <time>2016-11-18T15:05:36Z</time>
      </trkpt>
      <trkpt lat="51.286496864631772" lon="4.851528704166412">
        <ele>22.73</ele>
        <time>2016-11-18T15:05:51Z</time>
      </trkpt>
      <trkpt lat="51.286474904045463" lon="4.851890634745359">
        <ele>23.210000000000001</ele>
        <time>2016-11-18T15:06:04Z</time>
      </trkpt>
      <trkpt lat="51.286445818841457" lon="4.852079981938005">
        <ele>23.690000000000001</ele>
        <time>2016-11-18T15:06:17Z</time>
      </trkpt>
      <trkpt lat="51.286354120820761" lon="4.852190455421805">
        <ele>24.170000000000002</ele>
        <time>2016-11-18T15:06:28Z</time>
      </trkpt>
      <trkpt lat="51.286313217133284" lon="4.852332947775722">
        <ele>24.649999999999999</ele>
        <time>2016-11-18T15:06:35Z</time>
      </trkpt>
      <trkpt lat="51.286077098920941" lon="4.852548530325294">
        <ele>24.649999999999999</ele>
        <time>2016-11-18T15:06:47Z</time>
      </trkpt>
      <trkpt lat="51.286007193848491" lon="4.852540986612439">
        <ele>24.170000000000002</ele>
        <time>2016-11-18T15:06:58Z</time>
      </trkpt>
    </trkseg>
  </trk>

</gpx>